<?xml version="1.0" encoding="UTF-8" standalone="no" ?>
<gpx xmlns="http://www.topografix.com/GPX/1/1" xmlns:xsi="http://www.w3.org/2001/XMLSchema-instance" xsi:schemaLocation="http://www.topografix.com/GPX/1/1 http://www.topografix.com/GPX/1/1/gpx.xsd" version="1.1" creator="VisuGPX - https://www.visugpx.com">
  <metadata>
    <name>Devesset-Riotord</name>
    <desc><![CDATA[Parcours entre Le gîte de l'Oustau et le gîte de Combalou à Riotord.]]></desc>
  </metadata>
  <trk>
    <name><![CDATA[20180411142101-x2143]]></name>
    <trkseg>
      <trkpt lat="45.22234" lon="4.45535">
        <ele>1135</ele>
        <time>2018-04-11T09:15:14Z</time>
      </trkpt>
      <trkpt lat="45.22298" lon="4.45545">
        <ele>1142</ele>
        <time>2018-04-11T09:16:14Z</time>
      </trkpt>
      <trkpt lat="45.22332" lon="4.45631">
        <ele>1138</ele>
        <time>2018-04-11T09:17:14Z</time>
      </trkpt>
      <trkpt lat="45.22375" lon="4.45753">
        <ele>1133</ele>
        <time>2018-04-11T09:18:14Z</time>
      </trkpt>
      <trkpt lat="45.22379" lon="4.4585">
        <ele>1117</ele>
        <time>2018-04-11T09:19:14Z</time>
      </trkpt>
      <trkpt lat="45.22423" lon="4.45899">
        <ele>1119</ele>
        <time>2018-04-11T09:20:14Z</time>
      </trkpt>
      <trkpt lat="45.22482" lon="4.4597">
        <ele>1103</ele>
        <time>2018-04-11T09:21:14Z</time>
      </trkpt>
      <trkpt lat="45.22512" lon="4.46017">
        <ele>1099</ele>
        <time>2018-04-11T09:22:14Z</time>
      </trkpt>
      <trkpt lat="45.22512" lon="4.46018">
        <ele>1099</ele>
        <time>2018-04-11T09:23:14Z</time>
      </trkpt>
      <trkpt lat="45.2252" lon="4.46028">
        <ele>1099</ele>
        <time>2018-04-11T09:24:14Z</time>
      </trkpt>
      <trkpt lat="45.22544" lon="4.46065">
        <ele>1098</ele>
        <time>2018-04-11T09:25:14Z</time>
      </trkpt>
      <trkpt lat="45.22556" lon="4.46077">
        <ele>1097</ele>
        <time>2018-04-11T09:26:14Z</time>
      </trkpt>
      <trkpt lat="45.2257" lon="4.46087">
        <ele>1095</ele>
        <time>2018-04-11T09:27:14Z</time>
      </trkpt>
      <trkpt lat="45.22579" lon="4.46098">
        <ele>1095</ele>
        <time>2018-04-11T09:28:14Z</time>
      </trkpt>
      <trkpt lat="45.22583" lon="4.46105">
        <ele>1094</ele>
        <time>2018-04-11T09:29:14Z</time>
      </trkpt>
      <trkpt lat="45.22585" lon="4.46109">
        <ele>1098</ele>
        <time>2018-04-11T09:30:14Z</time>
      </trkpt>
      <trkpt lat="45.22584" lon="4.46113">
        <ele>1098</ele>
        <time>2018-04-11T09:31:14Z</time>
      </trkpt>
      <trkpt lat="45.22582" lon="4.46116">
        <ele>1094</ele>
        <time>2018-04-11T09:32:14Z</time>
      </trkpt>
      <trkpt lat="45.22578" lon="4.46121">
        <ele>1094</ele>
        <time>2018-04-11T09:33:14Z</time>
      </trkpt>
      <trkpt lat="45.22575" lon="4.46124">
        <ele>1094</ele>
        <time>2018-04-11T09:34:14Z</time>
      </trkpt>
      <trkpt lat="45.22573" lon="4.46124">
        <ele>1094</ele>
        <time>2018-04-11T09:35:14Z</time>
      </trkpt>
      <trkpt lat="45.2257" lon="4.46125">
        <ele>1094</ele>
        <time>2018-04-11T09:36:14Z</time>
      </trkpt>
      <trkpt lat="45.22558" lon="4.46126">
        <ele>1095</ele>
        <time>2018-04-11T09:37:14Z</time>
      </trkpt>
      <trkpt lat="45.22544" lon="4.46126">
        <ele>1095</ele>
        <time>2018-04-11T09:38:14Z</time>
      </trkpt>
      <trkpt lat="45.22524" lon="4.46125">
        <ele>1095</ele>
        <time>2018-04-11T09:39:14Z</time>
      </trkpt>
      <trkpt lat="45.22508" lon="4.46126">
        <ele>1095</ele>
        <time>2018-04-11T09:40:14Z</time>
      </trkpt>
      <trkpt lat="45.22494" lon="4.46126">
        <ele>1096</ele>
        <time>2018-04-11T09:41:14Z</time>
      </trkpt>
      <trkpt lat="45.22481" lon="4.46126">
        <ele>1096</ele>
        <time>2018-04-11T09:42:14Z</time>
      </trkpt>
      <trkpt lat="45.22469" lon="4.46127">
        <ele>1096</ele>
        <time>2018-04-11T09:43:14Z</time>
      </trkpt>
      <trkpt lat="45.22453" lon="4.46129">
        <ele>1097</ele>
        <time>2018-04-11T09:44:14Z</time>
      </trkpt>
      <trkpt lat="45.22433" lon="4.46134">
        <ele>1098</ele>
        <time>2018-04-11T09:45:14Z</time>
      </trkpt>
      <trkpt lat="45.22412" lon="4.46139">
        <ele>1100</ele>
        <time>2018-04-11T09:46:14Z</time>
      </trkpt>
      <trkpt lat="45.22392" lon="4.46144">
        <ele>1100</ele>
        <time>2018-04-11T09:47:14Z</time>
      </trkpt>
      <trkpt lat="45.2238" lon="4.46146">
        <ele>1100</ele>
        <time>2018-04-11T09:48:14Z</time>
      </trkpt>
      <trkpt lat="45.22368" lon="4.46148">
        <ele>1100</ele>
        <time>2018-04-11T09:49:14Z</time>
      </trkpt>
      <trkpt lat="45.22361" lon="4.4615">
        <ele>1101</ele>
        <time>2018-04-11T09:50:14Z</time>
      </trkpt>
      <trkpt lat="45.22357" lon="4.46151">
        <ele>1101</ele>
        <time>2018-04-11T09:51:14Z</time>
      </trkpt>
      <trkpt lat="45.22351" lon="4.46152">
        <ele>1102</ele>
        <time>2018-04-11T09:52:14Z</time>
      </trkpt>
      <trkpt lat="45.22347" lon="4.46156">
        <ele>1103</ele>
        <time>2018-04-11T09:53:14Z</time>
      </trkpt>
      <trkpt lat="45.22343" lon="4.4616">
        <ele>1104</ele>
        <time>2018-04-11T09:54:14Z</time>
      </trkpt>
      <trkpt lat="45.22343" lon="4.4616">
        <ele>1104</ele>
        <time>2018-04-11T09:55:14Z</time>
      </trkpt>
      <trkpt lat="45.22326" lon="4.46159">
        <ele>1105</ele>
        <time>2018-04-11T09:56:14Z</time>
      </trkpt>
      <trkpt lat="45.22305" lon="4.46158">
        <ele>1103</ele>
        <time>2018-04-11T09:57:14Z</time>
      </trkpt>
      <trkpt lat="45.2228" lon="4.46158">
        <ele>1103</ele>
        <time>2018-04-11T09:58:14Z</time>
      </trkpt>
      <trkpt lat="45.22259" lon="4.46159">
        <ele>1107</ele>
        <time>2018-04-11T09:59:14Z</time>
      </trkpt>
      <trkpt lat="45.22236" lon="4.4616">
        <ele>1106</ele>
        <time>2018-04-11T10:00:14Z</time>
      </trkpt>
      <trkpt lat="45.22217" lon="4.46163">
        <ele>1103</ele>
        <time>2018-04-11T10:01:14Z</time>
      </trkpt>
      <trkpt lat="45.22199" lon="4.46165">
        <ele>1102</ele>
        <time>2018-04-11T10:02:14Z</time>
      </trkpt>
      <trkpt lat="45.22195" lon="4.46166">
        <ele>1102</ele>
        <time>2018-04-11T10:03:14Z</time>
      </trkpt>
      <trkpt lat="45.22172" lon="4.46172">
        <ele>1109</ele>
        <time>2018-04-11T10:04:14Z</time>
      </trkpt>
      <trkpt lat="45.22159" lon="4.46176">
        <ele>1106</ele>
        <time>2018-04-11T10:05:14Z</time>
      </trkpt>
      <trkpt lat="45.22159" lon="4.46176">
        <ele>1106</ele>
        <time>2018-04-11T10:06:14Z</time>
      </trkpt>
      <trkpt lat="45.22152" lon="4.46186">
        <ele>1106</ele>
        <time>2018-04-11T10:07:14Z</time>
      </trkpt>
      <trkpt lat="45.22143" lon="4.46194">
        <ele>1106</ele>
        <time>2018-04-11T10:08:14Z</time>
      </trkpt>
      <trkpt lat="45.22136" lon="4.46205">
        <ele>1106</ele>
        <time>2018-04-11T10:09:14Z</time>
      </trkpt>
      <trkpt lat="45.22129" lon="4.46217">
        <ele>1106</ele>
        <time>2018-04-11T10:10:14Z</time>
      </trkpt>
      <trkpt lat="45.22126" lon="4.46225">
        <ele>1106</ele>
        <time>2018-04-11T10:11:14Z</time>
      </trkpt>
      <trkpt lat="45.22124" lon="4.46234">
        <ele>1106</ele>
        <time>2018-04-11T10:12:14Z</time>
      </trkpt>
      <trkpt lat="45.22121" lon="4.46244">
        <ele>1106</ele>
        <time>2018-04-11T10:13:14Z</time>
      </trkpt>
      <trkpt lat="45.22121" lon="4.46249">
        <ele>1106</ele>
        <time>2018-04-11T10:14:14Z</time>
      </trkpt>
      <trkpt lat="45.22121" lon="4.46259">
        <ele>1109</ele>
        <time>2018-04-11T10:15:14Z</time>
      </trkpt>
      <trkpt lat="45.22116" lon="4.46273">
        <ele>1109</ele>
        <time>2018-04-11T10:16:14Z</time>
      </trkpt>
      <trkpt lat="45.22116" lon="4.46281">
        <ele>1109</ele>
        <time>2018-04-11T10:17:14Z</time>
      </trkpt>
      <trkpt lat="45.22117" lon="4.4629">
        <ele>1109</ele>
        <time>2018-04-11T10:18:14Z</time>
      </trkpt>
      <trkpt lat="45.22119" lon="4.46303">
        <ele>1109</ele>
        <time>2018-04-11T10:19:14Z</time>
      </trkpt>
      <trkpt lat="45.22122" lon="4.46316">
        <ele>1109</ele>
        <time>2018-04-11T10:20:14Z</time>
      </trkpt>
      <trkpt lat="45.22126" lon="4.46331">
        <ele>1110</ele>
        <time>2018-04-11T10:21:14Z</time>
      </trkpt>
      <trkpt lat="45.2213" lon="4.46351">
        <ele>1108</ele>
        <time>2018-04-11T10:22:14Z</time>
      </trkpt>
      <trkpt lat="45.22134" lon="4.46369">
        <ele>1107</ele>
        <time>2018-04-11T10:23:14Z</time>
      </trkpt>
      <trkpt lat="45.2214" lon="4.4639">
        <ele>1108</ele>
        <time>2018-04-11T10:24:14Z</time>
      </trkpt>
      <trkpt lat="45.22144" lon="4.46405">
        <ele>1109</ele>
        <time>2018-04-11T10:25:14Z</time>
      </trkpt>
      <trkpt lat="45.22147" lon="4.4642">
        <ele>1107</ele>
        <time>2018-04-11T10:26:14Z</time>
      </trkpt>
      <trkpt lat="45.22151" lon="4.46436">
        <ele>1106</ele>
        <time>2018-04-11T10:27:14Z</time>
      </trkpt>
      <trkpt lat="45.22153" lon="4.46451">
        <ele>1103</ele>
        <time>2018-04-11T10:28:14Z</time>
      </trkpt>
      <trkpt lat="45.22157" lon="4.46466">
        <ele>1102</ele>
        <time>2018-04-11T10:29:14Z</time>
      </trkpt>
      <trkpt lat="45.2216" lon="4.46483">
        <ele>1103</ele>
        <time>2018-04-11T10:30:14Z</time>
      </trkpt>
      <trkpt lat="45.22162" lon="4.46492">
        <ele>1103</ele>
        <time>2018-04-11T10:31:14Z</time>
      </trkpt>
      <trkpt lat="45.22163" lon="4.46501">
        <ele>1104</ele>
        <time>2018-04-11T10:32:14Z</time>
      </trkpt>
      <trkpt lat="45.22164" lon="4.46513">
        <ele>1102</ele>
        <time>2018-04-11T10:33:14Z</time>
      </trkpt>
      <trkpt lat="45.22164" lon="4.46516">
        <ele>1101</ele>
        <time>2018-04-11T10:34:14Z</time>
      </trkpt>
      <trkpt lat="45.22164" lon="4.46518">
        <ele>1101</ele>
        <time>2018-04-11T10:35:14Z</time>
      </trkpt>
      <trkpt lat="45.22164" lon="4.46521">
        <ele>1101</ele>
        <time>2018-04-11T10:36:14Z</time>
      </trkpt>
      <trkpt lat="45.22163" lon="4.46524">
        <ele>1100</ele>
        <time>2018-04-11T10:37:14Z</time>
      </trkpt>
      <trkpt lat="45.22163" lon="4.46524">
        <ele>1100</ele>
        <time>2018-04-11T10:38:14Z</time>
      </trkpt>
      <trkpt lat="45.22168" lon="4.46554">
        <ele>1110</ele>
        <time>2018-04-11T10:39:14Z</time>
      </trkpt>
      <trkpt lat="45.22174" lon="4.46588">
        <ele>1101</ele>
        <time>2018-04-11T10:40:14Z</time>
      </trkpt>
      <trkpt lat="45.22177" lon="4.4663">
        <ele>1107</ele>
        <time>2018-04-11T10:41:14Z</time>
      </trkpt>
      <trkpt lat="45.22178" lon="4.46657">
        <ele>1103</ele>
        <time>2018-04-11T10:42:14Z</time>
      </trkpt>
      <trkpt lat="45.22182" lon="4.46707">
        <ele>1105</ele>
        <time>2018-04-11T10:43:14Z</time>
      </trkpt>
      <trkpt lat="45.22183" lon="4.46727">
        <ele>1104</ele>
        <time>2018-04-11T10:44:14Z</time>
      </trkpt>
      <trkpt lat="45.22182" lon="4.46737">
        <ele>1102</ele>
        <time>2018-04-11T10:45:14Z</time>
      </trkpt>
      <trkpt lat="45.22182" lon="4.46737">
        <ele>1102</ele>
        <time>2018-04-11T10:46:14Z</time>
      </trkpt>
      <trkpt lat="45.22189" lon="4.46749">
        <ele>1103</ele>
        <time>2018-04-11T10:47:14Z</time>
      </trkpt>
      <trkpt lat="45.22194" lon="4.46761">
        <ele>1104</ele>
        <time>2018-04-11T10:48:14Z</time>
      </trkpt>
      <trkpt lat="45.22199" lon="4.46775">
        <ele>1105</ele>
        <time>2018-04-11T10:49:14Z</time>
      </trkpt>
      <trkpt lat="45.22202" lon="4.46791">
        <ele>1106</ele>
        <time>2018-04-11T10:50:14Z</time>
      </trkpt>
      <trkpt lat="45.22203" lon="4.46793">
        <ele>1106</ele>
        <time>2018-04-11T10:51:14Z</time>
      </trkpt>
      <trkpt lat="45.22208" lon="4.46824">
        <ele>1106</ele>
        <time>2018-04-11T10:52:14Z</time>
      </trkpt>
      <trkpt lat="45.22214" lon="4.46855">
        <ele>1107</ele>
        <time>2018-04-11T10:53:14Z</time>
      </trkpt>
      <trkpt lat="45.22214" lon="4.46857">
        <ele>1107</ele>
        <time>2018-04-11T10:54:14Z</time>
      </trkpt>
      <trkpt lat="45.22218" lon="4.46874">
        <ele>1108</ele>
        <time>2018-04-11T10:55:14Z</time>
      </trkpt>
      <trkpt lat="45.22221" lon="4.46892">
        <ele>1108</ele>
        <time>2018-04-11T10:56:14Z</time>
      </trkpt>
      <trkpt lat="45.22223" lon="4.46919">
        <ele>1111</ele>
        <time>2018-04-11T10:57:14Z</time>
      </trkpt>
      <trkpt lat="45.22223" lon="4.46923">
        <ele>1111</ele>
        <time>2018-04-11T10:58:14Z</time>
      </trkpt>
      <trkpt lat="45.22225" lon="4.46957">
        <ele>1111</ele>
        <time>2018-04-11T10:59:14Z</time>
      </trkpt>
      <trkpt lat="45.22225" lon="4.46959">
        <ele>1111</ele>
        <time>2018-04-11T11:00:14Z</time>
      </trkpt>
      <trkpt lat="45.22226" lon="4.46979">
        <ele>1112</ele>
        <time>2018-04-11T11:01:14Z</time>
      </trkpt>
      <trkpt lat="45.22226" lon="4.46991">
        <ele>1112</ele>
        <time>2018-04-11T11:02:14Z</time>
      </trkpt>
      <trkpt lat="45.22227" lon="4.47016">
        <ele>1114</ele>
        <time>2018-04-11T11:03:14Z</time>
      </trkpt>
      <trkpt lat="45.22228" lon="4.47036">
        <ele>1114</ele>
        <time>2018-04-11T11:04:14Z</time>
      </trkpt>
      <trkpt lat="45.22228" lon="4.47052">
        <ele>1114</ele>
        <time>2018-04-11T11:05:14Z</time>
      </trkpt>
      <trkpt lat="45.22231" lon="4.47067">
        <ele>1115</ele>
        <time>2018-04-11T11:06:14Z</time>
      </trkpt>
      <trkpt lat="45.22235" lon="4.47082">
        <ele>1116</ele>
        <time>2018-04-11T11:07:14Z</time>
      </trkpt>
      <trkpt lat="45.22237" lon="4.47092">
        <ele>1119</ele>
        <time>2018-04-11T11:08:14Z</time>
      </trkpt>
      <trkpt lat="45.22238" lon="4.47099">
        <ele>1119</ele>
        <time>2018-04-11T11:09:14Z</time>
      </trkpt>
      <trkpt lat="45.22239" lon="4.47106">
        <ele>1119</ele>
        <time>2018-04-11T11:10:14Z</time>
      </trkpt>
      <trkpt lat="45.2224" lon="4.47117">
        <ele>1120</ele>
        <time>2018-04-11T11:11:14Z</time>
      </trkpt>
      <trkpt lat="45.22239" lon="4.47131">
        <ele>1120</ele>
        <time>2018-04-11T11:12:14Z</time>
      </trkpt>
      <trkpt lat="45.22238" lon="4.47146">
        <ele>1121</ele>
        <time>2018-04-11T11:13:14Z</time>
      </trkpt>
      <trkpt lat="45.22236" lon="4.47155">
        <ele>1122</ele>
        <time>2018-04-11T11:14:14Z</time>
      </trkpt>
      <trkpt lat="45.22235" lon="4.47165">
        <ele>1122</ele>
        <time>2018-04-11T11:15:14Z</time>
      </trkpt>
      <trkpt lat="45.22234" lon="4.4718">
        <ele>1126</ele>
        <time>2018-04-11T11:16:14Z</time>
      </trkpt>
      <trkpt lat="45.22234" lon="4.47195">
        <ele>1127</ele>
        <time>2018-04-11T11:17:14Z</time>
      </trkpt>
      <trkpt lat="45.22234" lon="4.47203">
        <ele>1127</ele>
        <time>2018-04-11T11:18:14Z</time>
      </trkpt>
      <trkpt lat="45.22235" lon="4.47205">
        <ele>1127</ele>
        <time>2018-04-11T11:19:14Z</time>
      </trkpt>
      <trkpt lat="45.22235" lon="4.47219">
        <ele>1128</ele>
        <time>2018-04-11T11:20:14Z</time>
      </trkpt>
      <trkpt lat="45.22234" lon="4.47251">
        <ele>1128</ele>
        <time>2018-04-11T11:21:14Z</time>
      </trkpt>
      <trkpt lat="45.22233" lon="4.47272">
        <ele>1128</ele>
        <time>2018-04-11T11:22:14Z</time>
      </trkpt>
      <trkpt lat="45.22231" lon="4.47283">
        <ele>1128</ele>
        <time>2018-04-11T11:23:14Z</time>
      </trkpt>
      <trkpt lat="45.22229" lon="4.47293">
        <ele>1128</ele>
        <time>2018-04-11T11:24:14Z</time>
      </trkpt>
      <trkpt lat="45.22223" lon="4.47321">
        <ele>1127</ele>
        <time>2018-04-11T11:25:14Z</time>
      </trkpt>
      <trkpt lat="45.22222" lon="4.4733">
        <ele>1127</ele>
        <time>2018-04-11T11:26:14Z</time>
      </trkpt>
      <trkpt lat="45.2222" lon="4.47341">
        <ele>1128</ele>
        <time>2018-04-11T11:27:14Z</time>
      </trkpt>
      <trkpt lat="45.22219" lon="4.47356">
        <ele>1129</ele>
        <time>2018-04-11T11:28:14Z</time>
      </trkpt>
      <trkpt lat="45.22213" lon="4.47379">
        <ele>1131</ele>
        <time>2018-04-11T11:29:14Z</time>
      </trkpt>
      <trkpt lat="45.22205" lon="4.47402">
        <ele>1132</ele>
        <time>2018-04-11T11:30:14Z</time>
      </trkpt>
      <trkpt lat="45.222" lon="4.47417">
        <ele>1137</ele>
        <time>2018-04-11T11:31:14Z</time>
      </trkpt>
      <trkpt lat="45.22197" lon="4.47428">
        <ele>1137</ele>
        <time>2018-04-11T11:32:14Z</time>
      </trkpt>
      <trkpt lat="45.22194" lon="4.47441">
        <ele>1138</ele>
        <time>2018-04-11T11:33:14Z</time>
      </trkpt>
      <trkpt lat="45.22192" lon="4.47453">
        <ele>1139</ele>
        <time>2018-04-11T11:34:14Z</time>
      </trkpt>
      <trkpt lat="45.2219" lon="4.4748">
        <ele>1140</ele>
        <time>2018-04-11T11:35:14Z</time>
      </trkpt>
      <trkpt lat="45.22191" lon="4.4749">
        <ele>1141</ele>
        <time>2018-04-11T11:36:14Z</time>
      </trkpt>
      <trkpt lat="45.22193" lon="4.47504">
        <ele>1147</ele>
        <time>2018-04-11T11:37:14Z</time>
      </trkpt>
      <trkpt lat="45.22195" lon="4.4752">
        <ele>1148</ele>
        <time>2018-04-11T11:38:14Z</time>
      </trkpt>
      <trkpt lat="45.22196" lon="4.47529">
        <ele>1149</ele>
        <time>2018-04-11T11:39:14Z</time>
      </trkpt>
      <trkpt lat="45.22196" lon="4.47537">
        <ele>1149</ele>
        <time>2018-04-11T11:40:14Z</time>
      </trkpt>
      <trkpt lat="45.22197" lon="4.47564">
        <ele>1150</ele>
        <time>2018-04-11T11:41:14Z</time>
      </trkpt>
      <trkpt lat="45.22195" lon="4.47602">
        <ele>1151</ele>
        <time>2018-04-11T11:42:14Z</time>
      </trkpt>
      <trkpt lat="45.22195" lon="4.47637">
        <ele>1150</ele>
        <time>2018-04-11T11:43:14Z</time>
      </trkpt>
      <trkpt lat="45.22195" lon="4.47662">
        <ele>1149</ele>
        <time>2018-04-11T11:44:14Z</time>
      </trkpt>
      <trkpt lat="45.22196" lon="4.47672">
        <ele>1148</ele>
        <time>2018-04-11T11:45:14Z</time>
      </trkpt>
      <trkpt lat="45.22197" lon="4.47674">
        <ele>1148</ele>
        <time>2018-04-11T11:46:14Z</time>
      </trkpt>
      <trkpt lat="45.22195" lon="4.4768">
        <ele>1148</ele>
        <time>2018-04-11T11:47:14Z</time>
      </trkpt>
      <trkpt lat="45.22194" lon="4.47683">
        <ele>1148</ele>
        <time>2018-04-11T11:48:14Z</time>
      </trkpt>
      <trkpt lat="45.22192" lon="4.47687">
        <ele>1148</ele>
        <time>2018-04-11T11:49:14Z</time>
      </trkpt>
      <trkpt lat="45.22173" lon="4.47708">
        <ele>1148</ele>
        <time>2018-04-11T11:50:14Z</time>
      </trkpt>
      <trkpt lat="45.22169" lon="4.47713">
        <ele>1148</ele>
        <time>2018-04-11T11:51:14Z</time>
      </trkpt>
      <trkpt lat="45.22162" lon="4.47718">
        <ele>1158</ele>
        <time>2018-04-11T11:52:14Z</time>
      </trkpt>
      <trkpt lat="45.22141" lon="4.4773">
        <ele>1160</ele>
        <time>2018-04-11T11:53:14Z</time>
      </trkpt>
      <trkpt lat="45.2213" lon="4.47738">
        <ele>1162</ele>
        <time>2018-04-11T11:54:14Z</time>
      </trkpt>
      <trkpt lat="45.22118" lon="4.47747">
        <ele>1165</ele>
        <time>2018-04-11T11:55:14Z</time>
      </trkpt>
      <trkpt lat="45.22101" lon="4.47764">
        <ele>1170</ele>
        <time>2018-04-11T11:56:14Z</time>
      </trkpt>
      <trkpt lat="45.2209" lon="4.47778">
        <ele>1170</ele>
        <time>2018-04-11T11:57:14Z</time>
      </trkpt>
      <trkpt lat="45.22081" lon="4.4779">
        <ele>1183</ele>
        <time>2018-04-11T11:58:14Z</time>
      </trkpt>
      <trkpt lat="45.2205" lon="4.47834">
        <ele>1184</ele>
        <time>2018-04-11T11:59:14Z</time>
      </trkpt>
      <trkpt lat="45.22035" lon="4.47855">
        <ele>1186</ele>
        <time>2018-04-11T12:00:14Z</time>
      </trkpt>
      <trkpt lat="45.2202" lon="4.47878">
        <ele>1188</ele>
        <time>2018-04-11T12:01:14Z</time>
      </trkpt>
      <trkpt lat="45.22002" lon="4.47908">
        <ele>1190</ele>
        <time>2018-04-11T12:02:14Z</time>
      </trkpt>
      <trkpt lat="45.21992" lon="4.47922">
        <ele>1196</ele>
        <time>2018-04-11T12:03:14Z</time>
      </trkpt>
      <trkpt lat="45.21982" lon="4.4794">
        <ele>1201</ele>
        <time>2018-04-11T12:04:14Z</time>
      </trkpt>
      <trkpt lat="45.21971" lon="4.47957">
        <ele>1204</ele>
        <time>2018-04-11T12:05:14Z</time>
      </trkpt>
      <trkpt lat="45.21961" lon="4.47971">
        <ele>1205</ele>
        <time>2018-04-11T12:06:14Z</time>
      </trkpt>
      <trkpt lat="45.21922" lon="4.48012">
        <ele>1212</ele>
        <time>2018-04-11T12:07:14Z</time>
      </trkpt>
      <trkpt lat="45.21913" lon="4.48019">
        <ele>1216</ele>
        <time>2018-04-11T12:08:14Z</time>
      </trkpt>
      <trkpt lat="45.219" lon="4.48027">
        <ele>1218</ele>
        <time>2018-04-11T12:09:14Z</time>
      </trkpt>
      <trkpt lat="45.21887" lon="4.48034">
        <ele>1220</ele>
        <time>2018-04-11T12:10:14Z</time>
      </trkpt>
      <trkpt lat="45.21876" lon="4.48038">
        <ele>1221</ele>
        <time>2018-04-11T12:11:14Z</time>
      </trkpt>
      <trkpt lat="45.21862" lon="4.48042">
        <ele>1222</ele>
        <time>2018-04-11T12:12:14Z</time>
      </trkpt>
      <trkpt lat="45.21846" lon="4.48047">
        <ele>1223</ele>
        <time>2018-04-11T12:13:14Z</time>
      </trkpt>
      <trkpt lat="45.21831" lon="4.48052">
        <ele>1232</ele>
        <time>2018-04-11T12:14:14Z</time>
      </trkpt>
      <trkpt lat="45.21813" lon="4.48059">
        <ele>1232</ele>
        <time>2018-04-11T12:15:14Z</time>
      </trkpt>
      <trkpt lat="45.21795" lon="4.48065">
        <ele>1234</ele>
        <time>2018-04-11T12:16:14Z</time>
      </trkpt>
      <trkpt lat="45.21775" lon="4.48072">
        <ele>1235</ele>
        <time>2018-04-11T12:17:14Z</time>
      </trkpt>
      <trkpt lat="45.21715" lon="4.48097">
        <ele>1245</ele>
        <time>2018-04-11T12:18:14Z</time>
      </trkpt>
      <trkpt lat="45.21673" lon="4.48113">
        <ele>1248</ele>
        <time>2018-04-11T12:19:14Z</time>
      </trkpt>
      <trkpt lat="45.21651" lon="4.48114">
        <ele>1252</ele>
        <time>2018-04-11T12:20:14Z</time>
      </trkpt>
      <trkpt lat="45.21601" lon="4.48139">
        <ele>1252</ele>
        <time>2018-04-11T12:21:14Z</time>
      </trkpt>
      <trkpt lat="45.21601" lon="4.48139">
        <ele>1252</ele>
        <time>2018-04-11T12:22:14Z</time>
      </trkpt>
      <trkpt lat="45.21598" lon="4.4813">
        <ele>1253</ele>
        <time>2018-04-11T12:23:14Z</time>
      </trkpt>
      <trkpt lat="45.21588" lon="4.48118">
        <ele>1253</ele>
        <time>2018-04-11T12:24:14Z</time>
      </trkpt>
      <trkpt lat="45.21569" lon="4.4809">
        <ele>1253</ele>
        <time>2018-04-11T12:25:14Z</time>
      </trkpt>
      <trkpt lat="45.21542" lon="4.48055">
        <ele>1256</ele>
        <time>2018-04-11T12:26:14Z</time>
      </trkpt>
      <trkpt lat="45.21532" lon="4.4804">
        <ele>1257</ele>
        <time>2018-04-11T12:27:14Z</time>
      </trkpt>
      <trkpt lat="45.21521" lon="4.48022">
        <ele>1257</ele>
        <time>2018-04-11T12:28:14Z</time>
      </trkpt>
      <trkpt lat="45.21513" lon="4.48011">
        <ele>1258</ele>
        <time>2018-04-11T12:29:14Z</time>
      </trkpt>
      <trkpt lat="45.21508" lon="4.47996">
        <ele>1261</ele>
        <time>2018-04-11T12:30:14Z</time>
      </trkpt>
      <trkpt lat="45.21503" lon="4.47982">
        <ele>1263</ele>
        <time>2018-04-11T12:31:14Z</time>
      </trkpt>
      <trkpt lat="45.21496" lon="4.47959">
        <ele>1255</ele>
        <time>2018-04-11T12:32:14Z</time>
      </trkpt>
      <trkpt lat="45.21488" lon="4.47938">
        <ele>1258</ele>
        <time>2018-04-11T12:33:14Z</time>
      </trkpt>
      <trkpt lat="45.21476" lon="4.47905">
        <ele>1266</ele>
        <time>2018-04-11T12:34:14Z</time>
      </trkpt>
      <trkpt lat="45.21457" lon="4.47858">
        <ele>1268</ele>
        <time>2018-04-11T12:35:14Z</time>
      </trkpt>
      <trkpt lat="45.21452" lon="4.47851">
        <ele>1268</ele>
        <time>2018-04-11T12:36:14Z</time>
      </trkpt>
      <trkpt lat="45.21439" lon="4.47839">
        <ele>1268</ele>
        <time>2018-04-11T12:37:14Z</time>
      </trkpt>
      <trkpt lat="45.21429" lon="4.4783">
        <ele>1274</ele>
        <time>2018-04-11T12:38:14Z</time>
      </trkpt>
      <trkpt lat="45.21423" lon="4.47826">
        <ele>1273</ele>
        <time>2018-04-11T12:39:14Z</time>
      </trkpt>
      <trkpt lat="45.21401" lon="4.47809">
        <ele>1275</ele>
        <time>2018-04-11T12:40:14Z</time>
      </trkpt>
      <trkpt lat="45.21387" lon="4.47795">
        <ele>1276</ele>
        <time>2018-04-11T12:41:14Z</time>
      </trkpt>
      <trkpt lat="45.21374" lon="4.47785">
        <ele>1277</ele>
        <time>2018-04-11T12:42:14Z</time>
      </trkpt>
      <trkpt lat="45.21365" lon="4.47777">
        <ele>1277</ele>
        <time>2018-04-11T12:43:14Z</time>
      </trkpt>
      <trkpt lat="45.21337" lon="4.47747">
        <ele>1280</ele>
        <time>2018-04-11T12:44:14Z</time>
      </trkpt>
      <trkpt lat="45.21321" lon="4.47731">
        <ele>1280</ele>
        <time>2018-04-11T12:45:14Z</time>
      </trkpt>
      <trkpt lat="45.21317" lon="4.47732">
        <ele>1280</ele>
        <time>2018-04-11T12:46:14Z</time>
      </trkpt>
      <trkpt lat="45.21308" lon="4.47728">
        <ele>1280</ele>
        <time>2018-04-11T12:47:14Z</time>
      </trkpt>
      <trkpt lat="45.21296" lon="4.47725">
        <ele>1280</ele>
        <time>2018-04-11T12:48:14Z</time>
      </trkpt>
      <trkpt lat="45.21285" lon="4.47721">
        <ele>1281</ele>
        <time>2018-04-11T12:49:14Z</time>
      </trkpt>
      <trkpt lat="45.21276" lon="4.4772">
        <ele>1281</ele>
        <time>2018-04-11T12:50:14Z</time>
      </trkpt>
      <trkpt lat="45.21276" lon="4.4772">
        <ele>1281</ele>
        <time>2018-04-11T12:51:14Z</time>
      </trkpt>
      <trkpt lat="45.21254" lon="4.47699">
        <ele>1281</ele>
        <time>2018-04-11T12:52:14Z</time>
      </trkpt>
      <trkpt lat="45.21232" lon="4.47682">
        <ele>1284</ele>
        <time>2018-04-11T12:53:14Z</time>
      </trkpt>
      <trkpt lat="45.21206" lon="4.47668">
        <ele>1285</ele>
        <time>2018-04-11T12:54:14Z</time>
      </trkpt>
      <trkpt lat="45.21184" lon="4.47661">
        <ele>1283</ele>
        <time>2018-04-11T12:55:14Z</time>
      </trkpt>
      <trkpt lat="45.21137" lon="4.4766">
        <ele>1285</ele>
        <time>2018-04-11T12:56:14Z</time>
      </trkpt>
      <trkpt lat="45.21094" lon="4.4766">
        <ele>1288</ele>
        <time>2018-04-11T12:57:14Z</time>
      </trkpt>
      <trkpt lat="45.21069" lon="4.47659">
        <ele>1288</ele>
        <time>2018-04-11T12:58:14Z</time>
      </trkpt>
      <trkpt lat="45.21064" lon="4.47658">
        <ele>1287</ele>
        <time>2018-04-11T12:59:14Z</time>
      </trkpt>
      <trkpt lat="45.21057" lon="4.47658">
        <ele>1287</ele>
        <time>2018-04-11T13:00:14Z</time>
      </trkpt>
      <trkpt lat="45.21048" lon="4.47658">
        <ele>1286</ele>
        <time>2018-04-11T13:01:14Z</time>
      </trkpt>
      <trkpt lat="45.21036" lon="4.47658">
        <ele>1286</ele>
        <time>2018-04-11T13:02:14Z</time>
      </trkpt>
      <trkpt lat="45.21024" lon="4.47658">
        <ele>1286</ele>
        <time>2018-04-11T13:03:14Z</time>
      </trkpt>
      <trkpt lat="45.21013" lon="4.47658">
        <ele>1286</ele>
        <time>2018-04-11T13:04:14Z</time>
      </trkpt>
      <trkpt lat="45.21002" lon="4.47658">
        <ele>1286</ele>
        <time>2018-04-11T13:05:14Z</time>
      </trkpt>
      <trkpt lat="45.20991" lon="4.47659">
        <ele>1285</ele>
        <time>2018-04-11T13:06:14Z</time>
      </trkpt>
      <trkpt lat="45.20987" lon="4.4766">
        <ele>1285</ele>
        <time>2018-04-11T13:07:14Z</time>
      </trkpt>
      <trkpt lat="45.20979" lon="4.4766">
        <ele>1284</ele>
        <time>2018-04-11T13:08:14Z</time>
      </trkpt>
      <trkpt lat="45.20968" lon="4.47662">
        <ele>1283</ele>
        <time>2018-04-11T13:09:14Z</time>
      </trkpt>
      <trkpt lat="45.20961" lon="4.47661">
        <ele>1283</ele>
        <time>2018-04-11T13:10:14Z</time>
      </trkpt>
      <trkpt lat="45.20941" lon="4.47662">
        <ele>1282</ele>
        <time>2018-04-11T13:11:14Z</time>
      </trkpt>
      <trkpt lat="45.20932" lon="4.47662">
        <ele>1282</ele>
        <time>2018-04-11T13:12:14Z</time>
      </trkpt>
      <trkpt lat="45.20922" lon="4.47663">
        <ele>1282</ele>
        <time>2018-04-11T13:13:14Z</time>
      </trkpt>
      <trkpt lat="45.20913" lon="4.47665">
        <ele>1282</ele>
        <time>2018-04-11T13:14:14Z</time>
      </trkpt>
      <trkpt lat="45.20903" lon="4.47666">
        <ele>1281</ele>
        <time>2018-04-11T13:15:14Z</time>
      </trkpt>
      <trkpt lat="45.2089" lon="4.47667">
        <ele>1282</ele>
        <time>2018-04-11T13:16:14Z</time>
      </trkpt>
      <trkpt lat="45.20883" lon="4.47669">
        <ele>1282</ele>
        <time>2018-04-11T13:17:14Z</time>
      </trkpt>
      <trkpt lat="45.20878" lon="4.47673">
        <ele>1282</ele>
        <time>2018-04-11T13:18:14Z</time>
      </trkpt>
      <trkpt lat="45.20876" lon="4.47677">
        <ele>1282</ele>
        <time>2018-04-11T13:19:14Z</time>
      </trkpt>
      <trkpt lat="45.20872" lon="4.47683">
        <ele>1282</ele>
        <time>2018-04-11T13:20:14Z</time>
      </trkpt>
      <trkpt lat="45.20868" lon="4.47688">
        <ele>1281</ele>
        <time>2018-04-11T13:21:14Z</time>
      </trkpt>
      <trkpt lat="45.20861" lon="4.47693">
        <ele>1281</ele>
        <time>2018-04-11T13:22:14Z</time>
      </trkpt>
      <trkpt lat="45.20854" lon="4.47698">
        <ele>1281</ele>
        <time>2018-04-11T13:23:14Z</time>
      </trkpt>
      <trkpt lat="45.20847" lon="4.47703">
        <ele>1281</ele>
        <time>2018-04-11T13:24:14Z</time>
      </trkpt>
      <trkpt lat="45.20838" lon="4.47707">
        <ele>1281</ele>
        <time>2018-04-11T13:25:14Z</time>
      </trkpt>
      <trkpt lat="45.20828" lon="4.47711">
        <ele>1278</ele>
        <time>2018-04-11T13:26:14Z</time>
      </trkpt>
      <trkpt lat="45.20819" lon="4.47713">
        <ele>1278</ele>
        <time>2018-04-11T13:27:14Z</time>
      </trkpt>
      <trkpt lat="45.20807" lon="4.47717">
        <ele>1278</ele>
        <time>2018-04-11T13:28:14Z</time>
      </trkpt>
      <trkpt lat="45.20797" lon="4.47721">
        <ele>1278</ele>
        <time>2018-04-11T13:29:14Z</time>
      </trkpt>
      <trkpt lat="45.20787" lon="4.47725">
        <ele>1277</ele>
        <time>2018-04-11T13:30:14Z</time>
      </trkpt>
      <trkpt lat="45.20776" lon="4.47729">
        <ele>1277</ele>
        <time>2018-04-11T13:31:14Z</time>
      </trkpt>
      <trkpt lat="45.20766" lon="4.47731">
        <ele>1277</ele>
        <time>2018-04-11T13:32:14Z</time>
      </trkpt>
      <trkpt lat="45.20753" lon="4.47736">
        <ele>1277</ele>
        <time>2018-04-11T13:33:14Z</time>
      </trkpt>
      <trkpt lat="45.20741" lon="4.47742">
        <ele>1276</ele>
        <time>2018-04-11T13:34:14Z</time>
      </trkpt>
      <trkpt lat="45.20735" lon="4.47741">
        <ele>1276</ele>
        <time>2018-04-11T13:35:14Z</time>
      </trkpt>
      <trkpt lat="45.20727" lon="4.47742">
        <ele>1276</ele>
        <time>2018-04-11T13:36:14Z</time>
      </trkpt>
      <trkpt lat="45.20718" lon="4.47742">
        <ele>1276</ele>
        <time>2018-04-11T13:37:14Z</time>
      </trkpt>
      <trkpt lat="45.2071" lon="4.47745">
        <ele>1276</ele>
        <time>2018-04-11T13:38:14Z</time>
      </trkpt>
      <trkpt lat="45.20701" lon="4.4775">
        <ele>1279</ele>
        <time>2018-04-11T13:39:14Z</time>
      </trkpt>
      <trkpt lat="45.20696" lon="4.47756">
        <ele>1282</ele>
        <time>2018-04-11T13:40:14Z</time>
      </trkpt>
      <trkpt lat="45.20694" lon="4.47763">
        <ele>1282</ele>
        <time>2018-04-11T13:41:14Z</time>
      </trkpt>
      <trkpt lat="45.20691" lon="4.47769">
        <ele>1282</ele>
        <time>2018-04-11T13:42:14Z</time>
      </trkpt>
      <trkpt lat="45.20691" lon="4.47769">
        <ele>1282</ele>
        <time>2018-04-11T13:43:14Z</time>
      </trkpt>
      <trkpt lat="45.20689" lon="4.47764">
        <ele>1282</ele>
        <time>2018-04-11T13:44:14Z</time>
      </trkpt>
      <trkpt lat="45.20687" lon="4.47761">
        <ele>1282</ele>
        <time>2018-04-11T13:45:14Z</time>
      </trkpt>
      <trkpt lat="45.20684" lon="4.47761">
        <ele>1282</ele>
        <time>2018-04-11T13:46:14Z</time>
      </trkpt>
      <trkpt lat="45.20676" lon="4.47763">
        <ele>1282</ele>
        <time>2018-04-11T13:47:14Z</time>
      </trkpt>
      <trkpt lat="45.20662" lon="4.47768">
        <ele>1284</ele>
        <time>2018-04-11T13:48:14Z</time>
      </trkpt>
      <trkpt lat="45.20653" lon="4.47772">
        <ele>1284</ele>
        <time>2018-04-11T13:49:14Z</time>
      </trkpt>
      <trkpt lat="45.20644" lon="4.47777">
        <ele>1285</ele>
        <time>2018-04-11T13:50:14Z</time>
      </trkpt>
      <trkpt lat="45.20634" lon="4.47783">
        <ele>1286</ele>
        <time>2018-04-11T13:51:14Z</time>
      </trkpt>
      <trkpt lat="45.20618" lon="4.47792">
        <ele>1286</ele>
        <time>2018-04-11T13:52:14Z</time>
      </trkpt>
      <trkpt lat="45.20609" lon="4.47797">
        <ele>1287</ele>
        <time>2018-04-11T13:53:14Z</time>
      </trkpt>
      <trkpt lat="45.20601" lon="4.478">
        <ele>1287</ele>
        <time>2018-04-11T13:54:14Z</time>
      </trkpt>
      <trkpt lat="45.20593" lon="4.47803">
        <ele>1288</ele>
        <time>2018-04-11T13:55:14Z</time>
      </trkpt>
      <trkpt lat="45.20584" lon="4.47808">
        <ele>1288</ele>
        <time>2018-04-11T13:56:14Z</time>
      </trkpt>
      <trkpt lat="45.20575" lon="4.47812">
        <ele>1288</ele>
        <time>2018-04-11T13:57:14Z</time>
      </trkpt>
      <trkpt lat="45.20568" lon="4.47816">
        <ele>1288</ele>
        <time>2018-04-11T13:58:14Z</time>
      </trkpt>
      <trkpt lat="45.2056" lon="4.47821">
        <ele>1288</ele>
        <time>2018-04-11T13:59:14Z</time>
      </trkpt>
      <trkpt lat="45.20552" lon="4.47825">
        <ele>1288</ele>
        <time>2018-04-11T14:00:14Z</time>
      </trkpt>
      <trkpt lat="45.20544" lon="4.47831">
        <ele>1287</ele>
        <time>2018-04-11T14:01:14Z</time>
      </trkpt>
      <trkpt lat="45.20536" lon="4.47836">
        <ele>1292</ele>
        <time>2018-04-11T14:02:14Z</time>
      </trkpt>
      <trkpt lat="45.20528" lon="4.47841">
        <ele>1292</ele>
        <time>2018-04-11T14:03:14Z</time>
      </trkpt>
      <trkpt lat="45.20521" lon="4.47845">
        <ele>1291</ele>
        <time>2018-04-11T14:04:14Z</time>
      </trkpt>
      <trkpt lat="45.20512" lon="4.47849">
        <ele>1291</ele>
        <time>2018-04-11T14:05:14Z</time>
      </trkpt>
      <trkpt lat="45.20504" lon="4.47852">
        <ele>1291</ele>
        <time>2018-04-11T14:06:14Z</time>
      </trkpt>
      <trkpt lat="45.20487" lon="4.47857">
        <ele>1292</ele>
        <time>2018-04-11T14:07:14Z</time>
      </trkpt>
      <trkpt lat="45.20477" lon="4.47859">
        <ele>1292</ele>
        <time>2018-04-11T14:08:14Z</time>
      </trkpt>
      <trkpt lat="45.20468" lon="4.47861">
        <ele>1293</ele>
        <time>2018-04-11T14:09:14Z</time>
      </trkpt>
      <trkpt lat="45.20459" lon="4.47863">
        <ele>1293</ele>
        <time>2018-04-11T14:10:14Z</time>
      </trkpt>
      <trkpt lat="45.20455" lon="4.47863">
        <ele>1293</ele>
        <time>2018-04-11T14:11:14Z</time>
      </trkpt>
      <trkpt lat="45.20455" lon="4.47864">
        <ele>1293</ele>
        <time>2018-04-11T14:12:14Z</time>
      </trkpt>
      <trkpt lat="45.20452" lon="4.47865">
        <ele>1294</ele>
        <time>2018-04-11T14:13:14Z</time>
      </trkpt>
      <trkpt lat="45.20444" lon="4.47869">
        <ele>1294</ele>
        <time>2018-04-11T14:14:14Z</time>
      </trkpt>
      <trkpt lat="45.20436" lon="4.47871">
        <ele>1294</ele>
        <time>2018-04-11T14:15:14Z</time>
      </trkpt>
      <trkpt lat="45.20429" lon="4.47874">
        <ele>1294</ele>
        <time>2018-04-11T14:16:14Z</time>
      </trkpt>
      <trkpt lat="45.20421" lon="4.47877">
        <ele>1295</ele>
        <time>2018-04-11T14:17:14Z</time>
      </trkpt>
      <trkpt lat="45.20413" lon="4.4788">
        <ele>1299</ele>
        <time>2018-04-11T14:18:14Z</time>
      </trkpt>
      <trkpt lat="45.20406" lon="4.47883">
        <ele>1299</ele>
        <time>2018-04-11T14:19:14Z</time>
      </trkpt>
      <trkpt lat="45.20398" lon="4.47884">
        <ele>1300</ele>
        <time>2018-04-11T14:20:14Z</time>
      </trkpt>
      <trkpt lat="45.20391" lon="4.47884">
        <ele>1300</ele>
        <time>2018-04-11T14:21:14Z</time>
      </trkpt>
      <trkpt lat="45.20385" lon="4.47883">
        <ele>1300</ele>
        <time>2018-04-11T14:22:14Z</time>
      </trkpt>
      <trkpt lat="45.20379" lon="4.4788">
        <ele>1300</ele>
        <time>2018-04-11T14:23:14Z</time>
      </trkpt>
      <trkpt lat="45.20373" lon="4.47877">
        <ele>1300</ele>
        <time>2018-04-11T14:24:14Z</time>
      </trkpt>
      <trkpt lat="45.20367" lon="4.47873">
        <ele>1301</ele>
        <time>2018-04-11T14:25:14Z</time>
      </trkpt>
      <trkpt lat="45.20362" lon="4.4787">
        <ele>1301</ele>
        <time>2018-04-11T14:26:14Z</time>
      </trkpt>
      <trkpt lat="45.20353" lon="4.47863">
        <ele>1301</ele>
        <time>2018-04-11T14:27:14Z</time>
      </trkpt>
      <trkpt lat="45.2035" lon="4.4786">
        <ele>1301</ele>
        <time>2018-04-11T14:28:14Z</time>
      </trkpt>
      <trkpt lat="45.20347" lon="4.47859">
        <ele>1301</ele>
        <time>2018-04-11T14:29:14Z</time>
      </trkpt>
      <trkpt lat="45.20343" lon="4.47856">
        <ele>1301</ele>
        <time>2018-04-11T14:30:14Z</time>
      </trkpt>
      <trkpt lat="45.20329" lon="4.4785">
        <ele>1305</ele>
        <time>2018-04-11T14:31:14Z</time>
      </trkpt>
      <trkpt lat="45.2032" lon="4.47846">
        <ele>1306</ele>
        <time>2018-04-11T14:32:14Z</time>
      </trkpt>
      <trkpt lat="45.2031" lon="4.47842">
        <ele>1307</ele>
        <time>2018-04-11T14:33:14Z</time>
      </trkpt>
      <trkpt lat="45.20298" lon="4.47837">
        <ele>1308</ele>
        <time>2018-04-11T14:34:14Z</time>
      </trkpt>
      <trkpt lat="45.20287" lon="4.47835">
        <ele>1309</ele>
        <time>2018-04-11T14:35:14Z</time>
      </trkpt>
      <trkpt lat="45.20275" lon="4.47832">
        <ele>1309</ele>
        <time>2018-04-11T14:36:14Z</time>
      </trkpt>
      <trkpt lat="45.20257" lon="4.47826">
        <ele>1311</ele>
        <time>2018-04-11T14:37:14Z</time>
      </trkpt>
      <trkpt lat="45.20244" lon="4.47822">
        <ele>1315</ele>
        <time>2018-04-11T14:38:14Z</time>
      </trkpt>
      <trkpt lat="45.20224" lon="4.47816">
        <ele>1316</ele>
        <time>2018-04-11T14:39:14Z</time>
      </trkpt>
      <trkpt lat="45.20224" lon="4.47816">
        <ele>1316</ele>
        <time>2018-04-11T14:40:14Z</time>
      </trkpt>
      <trkpt lat="45.20199" lon="4.47833">
        <ele>1317</ele>
        <time>2018-04-11T14:41:14Z</time>
      </trkpt>
      <trkpt lat="45.20193" lon="4.47837">
        <ele>1319</ele>
        <time>2018-04-11T14:42:14Z</time>
      </trkpt>
      <trkpt lat="45.20185" lon="4.47842">
        <ele>1319</ele>
        <time>2018-04-11T14:43:14Z</time>
      </trkpt>
      <trkpt lat="45.20169" lon="4.47854">
        <ele>1319</ele>
        <time>2018-04-11T14:44:14Z</time>
      </trkpt>
      <trkpt lat="45.20168" lon="4.47856">
        <ele>1319</ele>
        <time>2018-04-11T14:45:14Z</time>
      </trkpt>
      <trkpt lat="45.20161" lon="4.47862">
        <ele>1324</ele>
        <time>2018-04-11T14:46:14Z</time>
      </trkpt>
      <trkpt lat="45.20153" lon="4.47871">
        <ele>1324</ele>
        <time>2018-04-11T14:47:14Z</time>
      </trkpt>
      <trkpt lat="45.2013" lon="4.47896">
        <ele>1325</ele>
        <time>2018-04-11T14:48:14Z</time>
      </trkpt>
      <trkpt lat="45.20099" lon="4.47924">
        <ele>1328</ele>
        <time>2018-04-11T14:49:14Z</time>
      </trkpt>
      <trkpt lat="45.20092" lon="4.4793">
        <ele>1328</ele>
        <time>2018-04-11T14:50:14Z</time>
      </trkpt>
      <trkpt lat="45.20077" lon="4.47944">
        <ele>1332</ele>
        <time>2018-04-11T14:51:14Z</time>
      </trkpt>
      <trkpt lat="45.20057" lon="4.47964">
        <ele>1334</ele>
        <time>2018-04-11T14:52:14Z</time>
      </trkpt>
      <trkpt lat="45.20051" lon="4.47973">
        <ele>1334</ele>
        <time>2018-04-11T14:53:14Z</time>
      </trkpt>
      <trkpt lat="45.20031" lon="4.47998">
        <ele>1335</ele>
        <time>2018-04-11T14:54:14Z</time>
      </trkpt>
      <trkpt lat="45.20017" lon="4.48016">
        <ele>1338</ele>
        <time>2018-04-11T14:55:14Z</time>
      </trkpt>
      <trkpt lat="45.20014" lon="4.48024">
        <ele>1338</ele>
        <time>2018-04-11T14:56:14Z</time>
      </trkpt>
      <trkpt lat="45.2" lon="4.4806">
        <ele>1340</ele>
        <time>2018-04-11T14:57:14Z</time>
      </trkpt>
      <trkpt lat="45.19988" lon="4.48096">
        <ele>1345</ele>
        <time>2018-04-11T14:58:14Z</time>
      </trkpt>
      <trkpt lat="45.1998" lon="4.48113">
        <ele>1345</ele>
        <time>2018-04-11T14:59:14Z</time>
      </trkpt>
      <trkpt lat="45.19967" lon="4.48139">
        <ele>1346</ele>
        <time>2018-04-11T15:00:14Z</time>
      </trkpt>
      <trkpt lat="45.19957" lon="4.48159">
        <ele>1346</ele>
        <time>2018-04-11T15:01:14Z</time>
      </trkpt>
      <trkpt lat="45.19945" lon="4.4817">
        <ele>1345</ele>
        <time>2018-04-11T15:02:14Z</time>
      </trkpt>
      <trkpt lat="45.19935" lon="4.48177">
        <ele>1345</ele>
        <time>2018-04-11T15:03:14Z</time>
      </trkpt>
      <trkpt lat="45.19926" lon="4.4818">
        <ele>1345</ele>
        <time>2018-04-11T15:04:14Z</time>
      </trkpt>
      <trkpt lat="45.19914" lon="4.4818">
        <ele>1347</ele>
        <time>2018-04-11T15:05:14Z</time>
      </trkpt>
      <trkpt lat="45.19891" lon="4.48178">
        <ele>1348</ele>
        <time>2018-04-11T15:06:14Z</time>
      </trkpt>
      <trkpt lat="45.19878" lon="4.48178">
        <ele>1348</ele>
        <time>2018-04-11T15:07:14Z</time>
      </trkpt>
      <trkpt lat="45.19856" lon="4.48176">
        <ele>1350</ele>
        <time>2018-04-11T15:08:14Z</time>
      </trkpt>
      <trkpt lat="45.19844" lon="4.48174">
        <ele>1352</ele>
        <time>2018-04-11T15:09:14Z</time>
      </trkpt>
      <trkpt lat="45.19833" lon="4.48168">
        <ele>1355</ele>
        <time>2018-04-11T15:10:14Z</time>
      </trkpt>
      <trkpt lat="45.1982" lon="4.4816">
        <ele>1358</ele>
        <time>2018-04-11T15:11:14Z</time>
      </trkpt>
      <trkpt lat="45.19808" lon="4.48155">
        <ele>1359</ele>
        <time>2018-04-11T15:12:14Z</time>
      </trkpt>
      <trkpt lat="45.19801" lon="4.48154">
        <ele>1360</ele>
        <time>2018-04-11T15:13:14Z</time>
      </trkpt>
      <trkpt lat="45.1979" lon="4.48153">
        <ele>1360</ele>
        <time>2018-04-11T15:14:14Z</time>
      </trkpt>
      <trkpt lat="45.19776" lon="4.48156">
        <ele>1361</ele>
        <time>2018-04-11T15:15:14Z</time>
      </trkpt>
      <trkpt lat="45.19757" lon="4.48164">
        <ele>1362</ele>
        <time>2018-04-11T15:16:14Z</time>
      </trkpt>
      <trkpt lat="45.19743" lon="4.48168">
        <ele>1363</ele>
        <time>2018-04-11T15:17:14Z</time>
      </trkpt>
      <trkpt lat="45.19735" lon="4.48168">
        <ele>1363</ele>
        <time>2018-04-11T15:18:14Z</time>
      </trkpt>
      <trkpt lat="45.19724" lon="4.48167">
        <ele>1363</ele>
        <time>2018-04-11T15:19:14Z</time>
      </trkpt>
      <trkpt lat="45.19712" lon="4.48164">
        <ele>1370</ele>
        <time>2018-04-11T15:20:14Z</time>
      </trkpt>
      <trkpt lat="45.1969" lon="4.48162">
        <ele>1373</ele>
        <time>2018-04-11T15:21:14Z</time>
      </trkpt>
      <trkpt lat="45.19665" lon="4.48164">
        <ele>1378</ele>
        <time>2018-04-11T15:22:14Z</time>
      </trkpt>
      <trkpt lat="45.19636" lon="4.48177">
        <ele>1375</ele>
        <time>2018-04-11T15:23:14Z</time>
      </trkpt>
      <trkpt lat="45.19624" lon="4.48181">
        <ele>1376</ele>
        <time>2018-04-11T15:24:14Z</time>
      </trkpt>
      <trkpt lat="45.19605" lon="4.48188">
        <ele>1377</ele>
        <time>2018-04-11T15:25:14Z</time>
      </trkpt>
      <trkpt lat="45.19604" lon="4.48191">
        <ele>1377</ele>
        <time>2018-04-11T15:26:14Z</time>
      </trkpt>
      <trkpt lat="45.19555" lon="4.48049">
        <ele>1387</ele>
        <time>2018-04-11T15:27:14Z</time>
      </trkpt>
      <trkpt lat="45.19643" lon="4.47899">
        <ele>1376</ele>
        <time>2018-04-11T15:28:14Z</time>
      </trkpt>
      <trkpt lat="45.19794" lon="4.47783">
        <ele>1359</ele>
        <time>2018-04-11T15:29:14Z</time>
      </trkpt>
      <trkpt lat="45.19876" lon="4.47715">
        <ele>1348</ele>
        <time>2018-04-11T15:30:14Z</time>
      </trkpt>
      <trkpt lat="45.19877" lon="4.47718">
        <ele>1348</ele>
        <time>2018-04-11T15:31:14Z</time>
      </trkpt>
      <trkpt lat="45.19888" lon="4.4771">
        <ele>1347</ele>
        <time>2018-04-11T15:32:14Z</time>
      </trkpt>
      <trkpt lat="45.19903" lon="4.47697">
        <ele>1346</ele>
        <time>2018-04-11T15:33:14Z</time>
      </trkpt>
      <trkpt lat="45.19932" lon="4.47676">
        <ele>1341</ele>
        <time>2018-04-11T15:34:14Z</time>
      </trkpt>
      <trkpt lat="45.19941" lon="4.47669">
        <ele>1341</ele>
        <time>2018-04-11T15:35:14Z</time>
      </trkpt>
      <trkpt lat="45.19954" lon="4.4766">
        <ele>1338</ele>
        <time>2018-04-11T15:36:14Z</time>
      </trkpt>
      <trkpt lat="45.19962" lon="4.47652">
        <ele>1338</ele>
        <time>2018-04-11T15:37:14Z</time>
      </trkpt>
      <trkpt lat="45.19967" lon="4.47646">
        <ele>1338</ele>
        <time>2018-04-11T15:38:14Z</time>
      </trkpt>
      <trkpt lat="45.19974" lon="4.47644">
        <ele>1338</ele>
        <time>2018-04-11T15:39:14Z</time>
      </trkpt>
      <trkpt lat="45.19984" lon="4.47639">
        <ele>1338</ele>
        <time>2018-04-11T15:40:14Z</time>
      </trkpt>
      <trkpt lat="45.2001" lon="4.4763">
        <ele>1337</ele>
        <time>2018-04-11T15:41:14Z</time>
      </trkpt>
      <trkpt lat="45.2002" lon="4.47625">
        <ele>1337</ele>
        <time>2018-04-11T15:42:14Z</time>
      </trkpt>
      <trkpt lat="45.2002" lon="4.47625">
        <ele>1337</ele>
        <time>2018-04-11T15:43:14Z</time>
      </trkpt>
      <trkpt lat="45.20008" lon="4.4761">
        <ele>1337</ele>
        <time>2018-04-11T15:44:14Z</time>
      </trkpt>
      <trkpt lat="45.20006" lon="4.47609">
        <ele>1337</ele>
        <time>2018-04-11T15:45:14Z</time>
      </trkpt>
      <trkpt lat="45.20001" lon="4.47607">
        <ele>1337</ele>
        <time>2018-04-11T15:46:14Z</time>
      </trkpt>
      <trkpt lat="45.19995" lon="4.47602">
        <ele>1337</ele>
        <time>2018-04-11T15:47:14Z</time>
      </trkpt>
      <trkpt lat="45.19989" lon="4.47595">
        <ele>1336</ele>
        <time>2018-04-11T15:48:14Z</time>
      </trkpt>
      <trkpt lat="45.19984" lon="4.47589">
        <ele>1336</ele>
        <time>2018-04-11T15:49:14Z</time>
      </trkpt>
      <trkpt lat="45.19977" lon="4.47582">
        <ele>1334</ele>
        <time>2018-04-11T15:50:14Z</time>
      </trkpt>
      <trkpt lat="45.19971" lon="4.47576">
        <ele>1333</ele>
        <time>2018-04-11T15:51:14Z</time>
      </trkpt>
      <trkpt lat="45.19966" lon="4.47569">
        <ele>1333</ele>
        <time>2018-04-11T15:52:14Z</time>
      </trkpt>
      <trkpt lat="45.19962" lon="4.47565">
        <ele>1333</ele>
        <time>2018-04-11T15:53:14Z</time>
      </trkpt>
      <trkpt lat="45.19957" lon="4.47561">
        <ele>1332</ele>
        <time>2018-04-11T15:54:14Z</time>
      </trkpt>
      <trkpt lat="45.19951" lon="4.47558">
        <ele>1332</ele>
        <time>2018-04-11T15:55:14Z</time>
      </trkpt>
      <trkpt lat="45.19945" lon="4.47556">
        <ele>1332</ele>
        <time>2018-04-11T15:56:14Z</time>
      </trkpt>
      <trkpt lat="45.19939" lon="4.47554">
        <ele>1332</ele>
        <time>2018-04-11T15:57:14Z</time>
      </trkpt>
      <trkpt lat="45.19923" lon="4.47549">
        <ele>1331</ele>
        <time>2018-04-11T15:58:14Z</time>
      </trkpt>
      <trkpt lat="45.19916" lon="4.47545">
        <ele>1330</ele>
        <time>2018-04-11T15:59:14Z</time>
      </trkpt>
      <trkpt lat="45.19909" lon="4.47538">
        <ele>1329</ele>
        <time>2018-04-11T16:00:14Z</time>
      </trkpt>
      <trkpt lat="45.19903" lon="4.47533">
        <ele>1329</ele>
        <time>2018-04-11T16:01:14Z</time>
      </trkpt>
      <trkpt lat="45.19896" lon="4.47528">
        <ele>1329</ele>
        <time>2018-04-11T16:02:14Z</time>
      </trkpt>
      <trkpt lat="45.19889" lon="4.47523">
        <ele>1329</ele>
        <time>2018-04-11T16:03:14Z</time>
      </trkpt>
      <trkpt lat="45.19875" lon="4.4751">
        <ele>1329</ele>
        <time>2018-04-11T16:04:14Z</time>
      </trkpt>
      <trkpt lat="45.19867" lon="4.47502">
        <ele>1328</ele>
        <time>2018-04-11T16:05:14Z</time>
      </trkpt>
      <trkpt lat="45.19861" lon="4.47496">
        <ele>1323</ele>
        <time>2018-04-11T16:06:14Z</time>
      </trkpt>
      <trkpt lat="45.19853" lon="4.4749">
        <ele>1323</ele>
        <time>2018-04-11T16:07:14Z</time>
      </trkpt>
      <trkpt lat="45.19845" lon="4.47483">
        <ele>1323</ele>
        <time>2018-04-11T16:08:14Z</time>
      </trkpt>
      <trkpt lat="45.19837" lon="4.47475">
        <ele>1322</ele>
        <time>2018-04-11T16:09:14Z</time>
      </trkpt>
      <trkpt lat="45.19819" lon="4.47457">
        <ele>1321</ele>
        <time>2018-04-11T16:10:14Z</time>
      </trkpt>
      <trkpt lat="45.19812" lon="4.47451">
        <ele>1320</ele>
        <time>2018-04-11T16:11:14Z</time>
      </trkpt>
      <trkpt lat="45.19804" lon="4.47444">
        <ele>1320</ele>
        <time>2018-04-11T16:12:14Z</time>
      </trkpt>
      <trkpt lat="45.19797" lon="4.47438">
        <ele>1320</ele>
        <time>2018-04-11T16:13:14Z</time>
      </trkpt>
      <trkpt lat="45.1979" lon="4.47432">
        <ele>1320</ele>
        <time>2018-04-11T16:14:14Z</time>
      </trkpt>
      <trkpt lat="45.19783" lon="4.47427">
        <ele>1320</ele>
        <time>2018-04-11T16:15:14Z</time>
      </trkpt>
      <trkpt lat="45.19775" lon="4.4742">
        <ele>1319</ele>
        <time>2018-04-11T16:16:14Z</time>
      </trkpt>
      <trkpt lat="45.19768" lon="4.47413">
        <ele>1314</ele>
        <time>2018-04-11T16:17:14Z</time>
      </trkpt>
      <trkpt lat="45.19762" lon="4.47405">
        <ele>1314</ele>
        <time>2018-04-11T16:18:14Z</time>
      </trkpt>
      <trkpt lat="45.19755" lon="4.47397">
        <ele>1314</ele>
        <time>2018-04-11T16:19:14Z</time>
      </trkpt>
      <trkpt lat="45.19749" lon="4.47388">
        <ele>1314</ele>
        <time>2018-04-11T16:20:14Z</time>
      </trkpt>
      <trkpt lat="45.19743" lon="4.47379">
        <ele>1313</ele>
        <time>2018-04-11T16:21:14Z</time>
      </trkpt>
      <trkpt lat="45.19735" lon="4.47369">
        <ele>1312</ele>
        <time>2018-04-11T16:22:14Z</time>
      </trkpt>
      <trkpt lat="45.19729" lon="4.47362">
        <ele>1311</ele>
        <time>2018-04-11T16:23:14Z</time>
      </trkpt>
      <trkpt lat="45.1972" lon="4.47354">
        <ele>1311</ele>
        <time>2018-04-11T16:24:14Z</time>
      </trkpt>
      <trkpt lat="45.19712" lon="4.47345">
        <ele>1311</ele>
        <time>2018-04-11T16:25:14Z</time>
      </trkpt>
      <trkpt lat="45.19703" lon="4.47336">
        <ele>1310</ele>
        <time>2018-04-11T16:26:14Z</time>
      </trkpt>
      <trkpt lat="45.19696" lon="4.47328">
        <ele>1304</ele>
        <time>2018-04-11T16:27:14Z</time>
      </trkpt>
      <trkpt lat="45.19687" lon="4.47317">
        <ele>1304</ele>
        <time>2018-04-11T16:28:14Z</time>
      </trkpt>
      <trkpt lat="45.1968" lon="4.47308">
        <ele>1304</ele>
        <time>2018-04-11T16:29:14Z</time>
      </trkpt>
      <trkpt lat="45.19673" lon="4.47297">
        <ele>1303</ele>
        <time>2018-04-11T16:30:14Z</time>
      </trkpt>
      <trkpt lat="45.19663" lon="4.47282">
        <ele>1302</ele>
        <time>2018-04-11T16:31:14Z</time>
      </trkpt>
      <trkpt lat="45.19656" lon="4.47275">
        <ele>1301</ele>
        <time>2018-04-11T16:32:14Z</time>
      </trkpt>
      <trkpt lat="45.19647" lon="4.47267">
        <ele>1301</ele>
        <time>2018-04-11T16:33:14Z</time>
      </trkpt>
      <trkpt lat="45.19639" lon="4.4726">
        <ele>1301</ele>
        <time>2018-04-11T16:34:14Z</time>
      </trkpt>
      <trkpt lat="45.1963" lon="4.47253">
        <ele>1301</ele>
        <time>2018-04-11T16:35:14Z</time>
      </trkpt>
      <trkpt lat="45.1962" lon="4.47245">
        <ele>1295</ele>
        <time>2018-04-11T16:36:14Z</time>
      </trkpt>
      <trkpt lat="45.19609" lon="4.47238">
        <ele>1295</ele>
        <time>2018-04-11T16:37:14Z</time>
      </trkpt>
      <trkpt lat="45.19598" lon="4.47231">
        <ele>1295</ele>
        <time>2018-04-11T16:38:14Z</time>
      </trkpt>
      <trkpt lat="45.19587" lon="4.47224">
        <ele>1294</ele>
        <time>2018-04-11T16:39:14Z</time>
      </trkpt>
      <trkpt lat="45.19574" lon="4.47216">
        <ele>1293</ele>
        <time>2018-04-11T16:40:14Z</time>
      </trkpt>
      <trkpt lat="45.19563" lon="4.47208">
        <ele>1292</ele>
        <time>2018-04-11T16:41:14Z</time>
      </trkpt>
      <trkpt lat="45.1955" lon="4.472">
        <ele>1291</ele>
        <time>2018-04-11T16:42:14Z</time>
      </trkpt>
      <trkpt lat="45.19538" lon="4.47192">
        <ele>1291</ele>
        <time>2018-04-11T16:43:14Z</time>
      </trkpt>
      <trkpt lat="45.19526" lon="4.47183">
        <ele>1290</ele>
        <time>2018-04-11T16:44:14Z</time>
      </trkpt>
      <trkpt lat="45.19514" lon="4.47175">
        <ele>1288</ele>
        <time>2018-04-11T16:45:14Z</time>
      </trkpt>
      <trkpt lat="45.19503" lon="4.47167">
        <ele>1286</ele>
        <time>2018-04-11T16:46:14Z</time>
      </trkpt>
      <trkpt lat="45.19495" lon="4.47161">
        <ele>1283</ele>
        <time>2018-04-11T16:47:14Z</time>
      </trkpt>
      <trkpt lat="45.19486" lon="4.47153">
        <ele>1281</ele>
        <time>2018-04-11T16:48:14Z</time>
      </trkpt>
      <trkpt lat="45.19477" lon="4.47146">
        <ele>1280</ele>
        <time>2018-04-11T16:49:14Z</time>
      </trkpt>
      <trkpt lat="45.19468" lon="4.47138">
        <ele>1279</ele>
        <time>2018-04-11T16:50:14Z</time>
      </trkpt>
      <trkpt lat="45.19462" lon="4.47128">
        <ele>1278</ele>
        <time>2018-04-11T16:51:14Z</time>
      </trkpt>
      <trkpt lat="45.19455" lon="4.4712">
        <ele>1277</ele>
        <time>2018-04-11T16:52:14Z</time>
      </trkpt>
      <trkpt lat="45.19447" lon="4.47113">
        <ele>1277</ele>
        <time>2018-04-11T16:53:14Z</time>
      </trkpt>
      <trkpt lat="45.1944" lon="4.47106">
        <ele>1276</ele>
        <time>2018-04-11T16:54:14Z</time>
      </trkpt>
      <trkpt lat="45.19432" lon="4.471">
        <ele>1275</ele>
        <time>2018-04-11T16:55:14Z</time>
      </trkpt>
      <trkpt lat="45.19423" lon="4.47095">
        <ele>1274</ele>
        <time>2018-04-11T16:56:14Z</time>
      </trkpt>
      <trkpt lat="45.19416" lon="4.47092">
        <ele>1271</ele>
        <time>2018-04-11T16:57:14Z</time>
      </trkpt>
      <trkpt lat="45.19406" lon="4.47088">
        <ele>1271</ele>
        <time>2018-04-11T16:58:14Z</time>
      </trkpt>
      <trkpt lat="45.19393" lon="4.47086">
        <ele>1270</ele>
        <time>2018-04-11T16:59:14Z</time>
      </trkpt>
      <trkpt lat="45.19384" lon="4.47085">
        <ele>1269</ele>
        <time>2018-04-11T17:00:14Z</time>
      </trkpt>
      <trkpt lat="45.19373" lon="4.47086">
        <ele>1268</ele>
        <time>2018-04-11T17:01:14Z</time>
      </trkpt>
      <trkpt lat="45.19361" lon="4.47088">
        <ele>1266</ele>
        <time>2018-04-11T17:02:14Z</time>
      </trkpt>
      <trkpt lat="45.19352" lon="4.4709">
        <ele>1265</ele>
        <time>2018-04-11T17:03:14Z</time>
      </trkpt>
      <trkpt lat="45.1934" lon="4.47094">
        <ele>1263</ele>
        <time>2018-04-11T17:04:14Z</time>
      </trkpt>
      <trkpt lat="45.19328" lon="4.47101">
        <ele>1257</ele>
        <time>2018-04-11T17:05:14Z</time>
      </trkpt>
      <trkpt lat="45.19315" lon="4.47113">
        <ele>1257</ele>
        <time>2018-04-11T17:06:14Z</time>
      </trkpt>
      <trkpt lat="45.19296" lon="4.47129">
        <ele>1256</ele>
        <time>2018-04-11T17:07:14Z</time>
      </trkpt>
      <trkpt lat="45.19282" lon="4.47144">
        <ele>1256</ele>
        <time>2018-04-11T17:08:14Z</time>
      </trkpt>
      <trkpt lat="45.19265" lon="4.47157">
        <ele>1254</ele>
        <time>2018-04-11T17:09:14Z</time>
      </trkpt>
      <trkpt lat="45.19249" lon="4.47169">
        <ele>1251</ele>
        <time>2018-04-11T17:10:14Z</time>
      </trkpt>
      <trkpt lat="45.19235" lon="4.47181">
        <ele>1252</ele>
        <time>2018-04-11T17:11:14Z</time>
      </trkpt>
      <trkpt lat="45.19218" lon="4.47195">
        <ele>1253</ele>
        <time>2018-04-11T17:12:14Z</time>
      </trkpt>
      <trkpt lat="45.192" lon="4.47206">
        <ele>1253</ele>
        <time>2018-04-11T17:13:14Z</time>
      </trkpt>
      <trkpt lat="45.19184" lon="4.47211">
        <ele>1252</ele>
        <time>2018-04-11T17:14:14Z</time>
      </trkpt>
      <trkpt lat="45.19178" lon="4.4721">
        <ele>1252</ele>
        <time>2018-04-11T17:15:14Z</time>
      </trkpt>
      <trkpt lat="45.19175" lon="4.47209">
        <ele>1252</ele>
        <time>2018-04-11T17:16:14Z</time>
      </trkpt>
      <trkpt lat="45.19171" lon="4.47207">
        <ele>1251</ele>
        <time>2018-04-11T17:17:14Z</time>
      </trkpt>
      <trkpt lat="45.19168" lon="4.47203">
        <ele>1251</ele>
        <time>2018-04-11T17:18:14Z</time>
      </trkpt>
      <trkpt lat="45.19164" lon="4.47196">
        <ele>1251</ele>
        <time>2018-04-11T17:19:14Z</time>
      </trkpt>
      <trkpt lat="45.1916" lon="4.47188">
        <ele>1250</ele>
        <time>2018-04-11T17:20:14Z</time>
      </trkpt>
      <trkpt lat="45.19159" lon="4.47183">
        <ele>1249</ele>
        <time>2018-04-11T17:21:14Z</time>
      </trkpt>
      <trkpt lat="45.19157" lon="4.47177">
        <ele>1247</ele>
        <time>2018-04-11T17:22:14Z</time>
      </trkpt>
      <trkpt lat="45.19153" lon="4.47165">
        <ele>1243</ele>
        <time>2018-04-11T17:23:14Z</time>
      </trkpt>
      <trkpt lat="45.1915" lon="4.47152">
        <ele>1244</ele>
        <time>2018-04-11T17:24:14Z</time>
      </trkpt>
      <trkpt lat="45.19147" lon="4.4714">
        <ele>1244</ele>
        <time>2018-04-11T17:25:14Z</time>
      </trkpt>
      <trkpt lat="45.19144" lon="4.47128">
        <ele>1244</ele>
        <time>2018-04-11T17:26:14Z</time>
      </trkpt>
      <trkpt lat="45.19142" lon="4.47117">
        <ele>1244</ele>
        <time>2018-04-11T17:27:14Z</time>
      </trkpt>
      <trkpt lat="45.19141" lon="4.47107">
        <ele>1243</ele>
        <time>2018-04-11T17:28:14Z</time>
      </trkpt>
      <trkpt lat="45.19139" lon="4.47094">
        <ele>1243</ele>
        <time>2018-04-11T17:29:14Z</time>
      </trkpt>
      <trkpt lat="45.19138" lon="4.47081">
        <ele>1237</ele>
        <time>2018-04-11T17:30:14Z</time>
      </trkpt>
      <trkpt lat="45.19137" lon="4.47067">
        <ele>1237</ele>
        <time>2018-04-11T17:31:14Z</time>
      </trkpt>
      <trkpt lat="45.19134" lon="4.47055">
        <ele>1237</ele>
        <time>2018-04-11T17:32:14Z</time>
      </trkpt>
      <trkpt lat="45.1913" lon="4.47042">
        <ele>1237</ele>
        <time>2018-04-11T17:33:14Z</time>
      </trkpt>
      <trkpt lat="45.19127" lon="4.47032">
        <ele>1236</ele>
        <time>2018-04-11T17:34:14Z</time>
      </trkpt>
      <trkpt lat="45.19123" lon="4.4702">
        <ele>1236</ele>
        <time>2018-04-11T17:35:14Z</time>
      </trkpt>
      <trkpt lat="45.19118" lon="4.47008">
        <ele>1236</ele>
        <time>2018-04-11T17:36:14Z</time>
      </trkpt>
      <trkpt lat="45.19113" lon="4.46994">
        <ele>1229</ele>
        <time>2018-04-11T17:37:14Z</time>
      </trkpt>
      <trkpt lat="45.19107" lon="4.46981">
        <ele>1229</ele>
        <time>2018-04-11T17:38:14Z</time>
      </trkpt>
      <trkpt lat="45.19101" lon="4.46967">
        <ele>1228</ele>
        <time>2018-04-11T17:39:14Z</time>
      </trkpt>
      <trkpt lat="45.19094" lon="4.4695">
        <ele>1227</ele>
        <time>2018-04-11T17:40:14Z</time>
      </trkpt>
      <trkpt lat="45.1908" lon="4.46923">
        <ele>1230</ele>
        <time>2018-04-11T17:41:14Z</time>
      </trkpt>
      <trkpt lat="45.19073" lon="4.46911">
        <ele>1226</ele>
        <time>2018-04-11T17:42:14Z</time>
      </trkpt>
      <trkpt lat="45.19065" lon="4.46899">
        <ele>1226</ele>
        <time>2018-04-11T17:43:14Z</time>
      </trkpt>
      <trkpt lat="45.19057" lon="4.46886">
        <ele>1225</ele>
        <time>2018-04-11T17:44:14Z</time>
      </trkpt>
      <trkpt lat="45.19048" lon="4.46877">
        <ele>1225</ele>
        <time>2018-04-11T17:45:14Z</time>
      </trkpt>
      <trkpt lat="45.19039" lon="4.46866">
        <ele>1224</ele>
        <time>2018-04-11T17:46:14Z</time>
      </trkpt>
      <trkpt lat="45.19026" lon="4.46849">
        <ele>1224</ele>
        <time>2018-04-11T17:47:14Z</time>
      </trkpt>
      <trkpt lat="45.18999" lon="4.46811">
        <ele>1221</ele>
        <time>2018-04-11T17:48:14Z</time>
      </trkpt>
      <trkpt lat="45.18991" lon="4.46806">
        <ele>1221</ele>
        <time>2018-04-11T17:49:14Z</time>
      </trkpt>
      <trkpt lat="45.18953" lon="4.46771">
        <ele>1220</ele>
        <time>2018-04-11T17:50:14Z</time>
      </trkpt>
      <trkpt lat="45.18949" lon="4.46768">
        <ele>1220</ele>
        <time>2018-04-11T17:51:14Z</time>
      </trkpt>
      <trkpt lat="45.18896" lon="4.46727">
        <ele>1217</ele>
        <time>2018-04-11T17:52:14Z</time>
      </trkpt>
      <trkpt lat="45.18871" lon="4.46703">
        <ele>1215</ele>
        <time>2018-04-11T17:53:14Z</time>
      </trkpt>
      <trkpt lat="45.18826" lon="4.46669">
        <ele>1212</ele>
        <time>2018-04-11T17:54:14Z</time>
      </trkpt>
      <trkpt lat="45.18807" lon="4.46657">
        <ele>1207</ele>
        <time>2018-04-11T17:55:14Z</time>
      </trkpt>
      <trkpt lat="45.1878" lon="4.46644">
        <ele>1206</ele>
        <time>2018-04-11T17:56:14Z</time>
      </trkpt>
      <trkpt lat="45.18771" lon="4.46637">
        <ele>1206</ele>
        <time>2018-04-11T17:57:14Z</time>
      </trkpt>
      <trkpt lat="45.18743" lon="4.46611">
        <ele>1204</ele>
        <time>2018-04-11T17:58:14Z</time>
      </trkpt>
      <trkpt lat="45.18722" lon="4.46591">
        <ele>1203</ele>
        <time>2018-04-11T17:59:14Z</time>
      </trkpt>
      <trkpt lat="45.18701" lon="4.46566">
        <ele>1195</ele>
        <time>2018-04-11T18:00:14Z</time>
      </trkpt>
      <trkpt lat="45.18692" lon="4.46558">
        <ele>1194</ele>
        <time>2018-04-11T18:01:14Z</time>
      </trkpt>
      <trkpt lat="45.18664" lon="4.46541">
        <ele>1192</ele>
        <time>2018-04-11T18:02:14Z</time>
      </trkpt>
      <trkpt lat="45.1865" lon="4.46531">
        <ele>1191</ele>
        <time>2018-04-11T18:03:14Z</time>
      </trkpt>
      <trkpt lat="45.18635" lon="4.46517">
        <ele>1190</ele>
        <time>2018-04-11T18:04:14Z</time>
      </trkpt>
      <trkpt lat="45.18613" lon="4.465">
        <ele>1182</ele>
        <time>2018-04-11T18:05:14Z</time>
      </trkpt>
      <trkpt lat="45.18611" lon="4.46499">
        <ele>1182</ele>
        <time>2018-04-11T18:06:14Z</time>
      </trkpt>
      <trkpt lat="45.18583" lon="4.46484">
        <ele>1183</ele>
        <time>2018-04-11T18:07:14Z</time>
      </trkpt>
      <trkpt lat="45.18566" lon="4.46478">
        <ele>1181</ele>
        <time>2018-04-11T18:08:14Z</time>
      </trkpt>
      <trkpt lat="45.18547" lon="4.46469">
        <ele>1180</ele>
        <time>2018-04-11T18:09:14Z</time>
      </trkpt>
      <trkpt lat="45.18537" lon="4.46463">
        <ele>1180</ele>
        <time>2018-04-11T18:10:14Z</time>
      </trkpt>
      <trkpt lat="45.18515" lon="4.46448">
        <ele>1178</ele>
        <time>2018-04-11T18:11:14Z</time>
      </trkpt>
      <trkpt lat="45.18509" lon="4.46444">
        <ele>1178</ele>
        <time>2018-04-11T18:12:14Z</time>
      </trkpt>
      <trkpt lat="45.18463" lon="4.46431">
        <ele>1176</ele>
        <time>2018-04-11T18:13:14Z</time>
      </trkpt>
      <trkpt lat="45.18454" lon="4.46429">
        <ele>1176</ele>
        <time>2018-04-11T18:14:14Z</time>
      </trkpt>
      <trkpt lat="45.18427" lon="4.46419">
        <ele>1175</ele>
        <time>2018-04-11T18:15:14Z</time>
      </trkpt>
      <trkpt lat="45.18405" lon="4.46402">
        <ele>1172</ele>
        <time>2018-04-11T18:16:14Z</time>
      </trkpt>
      <trkpt lat="45.18392" lon="4.46392">
        <ele>1171</ele>
        <time>2018-04-11T18:17:14Z</time>
      </trkpt>
      <trkpt lat="45.18366" lon="4.46374">
        <ele>1170</ele>
        <time>2018-04-11T18:18:14Z</time>
      </trkpt>
      <trkpt lat="45.18346" lon="4.46362">
        <ele>1170</ele>
        <time>2018-04-11T18:19:14Z</time>
      </trkpt>
      <trkpt lat="45.18315" lon="4.4635">
        <ele>1168</ele>
        <time>2018-04-11T18:20:14Z</time>
      </trkpt>
      <trkpt lat="45.18315" lon="4.4635">
        <ele>1168</ele>
        <time>2018-04-11T18:21:14Z</time>
      </trkpt>
      <trkpt lat="45.18316" lon="4.46347">
        <ele>1168</ele>
        <time>2018-04-11T18:22:14Z</time>
      </trkpt>
      <trkpt lat="45.18316" lon="4.4634">
        <ele>1168</ele>
        <time>2018-04-11T18:23:14Z</time>
      </trkpt>
      <trkpt lat="45.18317" lon="4.46332">
        <ele>1164</ele>
        <time>2018-04-11T18:24:14Z</time>
      </trkpt>
      <trkpt lat="45.18318" lon="4.46325">
        <ele>1164</ele>
        <time>2018-04-11T18:25:14Z</time>
      </trkpt>
      <trkpt lat="45.18319" lon="4.46318">
        <ele>1163</ele>
        <time>2018-04-11T18:26:14Z</time>
      </trkpt>
      <trkpt lat="45.18321" lon="4.46312">
        <ele>1163</ele>
        <time>2018-04-11T18:27:14Z</time>
      </trkpt>
      <trkpt lat="45.18323" lon="4.46305">
        <ele>1162</ele>
        <time>2018-04-11T18:28:14Z</time>
      </trkpt>
      <trkpt lat="45.18324" lon="4.46299">
        <ele>1162</ele>
        <time>2018-04-11T18:29:14Z</time>
      </trkpt>
      <trkpt lat="45.18328" lon="4.46287">
        <ele>1161</ele>
        <time>2018-04-11T18:30:14Z</time>
      </trkpt>
      <trkpt lat="45.1833" lon="4.4628">
        <ele>1161</ele>
        <time>2018-04-11T18:31:14Z</time>
      </trkpt>
      <trkpt lat="45.18332" lon="4.46275">
        <ele>1161</ele>
        <time>2018-04-11T18:32:14Z</time>
      </trkpt>
      <trkpt lat="45.18334" lon="4.46268">
        <ele>1162</ele>
        <time>2018-04-11T18:33:14Z</time>
      </trkpt>
      <trkpt lat="45.18336" lon="4.46262">
        <ele>1161</ele>
        <time>2018-04-11T18:34:14Z</time>
      </trkpt>
      <trkpt lat="45.18338" lon="4.46256">
        <ele>1161</ele>
        <time>2018-04-11T18:35:14Z</time>
      </trkpt>
      <trkpt lat="45.18341" lon="4.46248">
        <ele>1160</ele>
        <time>2018-04-11T18:36:14Z</time>
      </trkpt>
      <trkpt lat="45.18342" lon="4.46241">
        <ele>1160</ele>
        <time>2018-04-11T18:37:14Z</time>
      </trkpt>
      <trkpt lat="45.18344" lon="4.46235">
        <ele>1161</ele>
        <time>2018-04-11T18:38:14Z</time>
      </trkpt>
      <trkpt lat="45.18346" lon="4.46228">
        <ele>1161</ele>
        <time>2018-04-11T18:39:14Z</time>
      </trkpt>
      <trkpt lat="45.18347" lon="4.4622">
        <ele>1161</ele>
        <time>2018-04-11T18:40:14Z</time>
      </trkpt>
      <trkpt lat="45.18349" lon="4.46214">
        <ele>1161</ele>
        <time>2018-04-11T18:41:14Z</time>
      </trkpt>
      <trkpt lat="45.1835" lon="4.46209">
        <ele>1161</ele>
        <time>2018-04-11T18:42:14Z</time>
      </trkpt>
      <trkpt lat="45.1835" lon="4.46207">
        <ele>1161</ele>
        <time>2018-04-11T18:43:14Z</time>
      </trkpt>
      <trkpt lat="45.18352" lon="4.46197">
        <ele>1161</ele>
        <time>2018-04-11T18:44:14Z</time>
      </trkpt>
      <trkpt lat="45.18352" lon="4.46197">
        <ele>1161</ele>
        <time>2018-04-11T18:45:14Z</time>
      </trkpt>
      <trkpt lat="45.18348" lon="4.46196">
        <ele>1161</ele>
        <time>2018-04-11T18:46:14Z</time>
      </trkpt>
      <trkpt lat="45.18344" lon="4.46195">
        <ele>1161</ele>
        <time>2018-04-11T18:47:14Z</time>
      </trkpt>
      <trkpt lat="45.18342" lon="4.46196">
        <ele>1161</ele>
        <time>2018-04-11T18:48:14Z</time>
      </trkpt>
      <trkpt lat="45.18338" lon="4.46196">
        <ele>1161</ele>
        <time>2018-04-11T18:49:14Z</time>
      </trkpt>
      <trkpt lat="45.18334" lon="4.46197">
        <ele>1161</ele>
        <time>2018-04-11T18:50:14Z</time>
      </trkpt>
      <trkpt lat="45.1833" lon="4.46199">
        <ele>1158</ele>
        <time>2018-04-11T18:51:14Z</time>
      </trkpt>
      <trkpt lat="45.18325" lon="4.46202">
        <ele>1158</ele>
        <time>2018-04-11T18:52:14Z</time>
      </trkpt>
      <trkpt lat="45.18321" lon="4.46203">
        <ele>1158</ele>
        <time>2018-04-11T18:53:14Z</time>
      </trkpt>
      <trkpt lat="45.18313" lon="4.46209">
        <ele>1157</ele>
        <time>2018-04-11T18:54:14Z</time>
      </trkpt>
      <trkpt lat="45.18297" lon="4.46221">
        <ele>1157</ele>
        <time>2018-04-11T18:55:14Z</time>
      </trkpt>
      <trkpt lat="45.18289" lon="4.46227">
        <ele>1156</ele>
        <time>2018-04-11T18:56:14Z</time>
      </trkpt>
      <trkpt lat="45.18283" lon="4.46232">
        <ele>1156</ele>
        <time>2018-04-11T18:57:14Z</time>
      </trkpt>
      <trkpt lat="45.18277" lon="4.46236">
        <ele>1155</ele>
        <time>2018-04-11T18:58:14Z</time>
      </trkpt>
      <trkpt lat="45.18273" lon="4.4624">
        <ele>1155</ele>
        <time>2018-04-11T18:59:14Z</time>
      </trkpt>
      <trkpt lat="45.18269" lon="4.46245">
        <ele>1154</ele>
        <time>2018-04-11T19:00:14Z</time>
      </trkpt>
      <trkpt lat="45.18265" lon="4.4625">
        <ele>1156</ele>
        <time>2018-04-11T19:01:14Z</time>
      </trkpt>
      <trkpt lat="45.1826" lon="4.46255">
        <ele>1155</ele>
        <time>2018-04-11T19:02:14Z</time>
      </trkpt>
      <trkpt lat="45.18256" lon="4.46262">
        <ele>1155</ele>
        <time>2018-04-11T19:03:14Z</time>
      </trkpt>
      <trkpt lat="45.18251" lon="4.46268">
        <ele>1156</ele>
        <time>2018-04-11T19:04:14Z</time>
      </trkpt>
      <trkpt lat="45.18247" lon="4.46274">
        <ele>1154</ele>
        <time>2018-04-11T19:05:14Z</time>
      </trkpt>
      <trkpt lat="45.18242" lon="4.4628">
        <ele>1154</ele>
        <time>2018-04-11T19:06:14Z</time>
      </trkpt>
      <trkpt lat="45.18237" lon="4.46285">
        <ele>1154</ele>
        <time>2018-04-11T19:07:14Z</time>
      </trkpt>
      <trkpt lat="45.18234" lon="4.4629">
        <ele>1155</ele>
        <time>2018-04-11T19:08:14Z</time>
      </trkpt>
      <trkpt lat="45.18229" lon="4.46295">
        <ele>1155</ele>
        <time>2018-04-11T19:09:14Z</time>
      </trkpt>
      <trkpt lat="45.18225" lon="4.463">
        <ele>1155</ele>
        <time>2018-04-11T19:10:14Z</time>
      </trkpt>
      <trkpt lat="45.18221" lon="4.46304">
        <ele>1155</ele>
        <time>2018-04-11T19:11:14Z</time>
      </trkpt>
      <trkpt lat="45.18217" lon="4.46308">
        <ele>1155</ele>
        <time>2018-04-11T19:12:14Z</time>
      </trkpt>
      <trkpt lat="45.18215" lon="4.4631">
        <ele>1155</ele>
        <time>2018-04-11T19:13:14Z</time>
      </trkpt>
      <trkpt lat="45.18212" lon="4.46314">
        <ele>1155</ele>
        <time>2018-04-11T19:14:14Z</time>
      </trkpt>
      <trkpt lat="45.18207" lon="4.4632">
        <ele>1155</ele>
        <time>2018-04-11T19:15:14Z</time>
      </trkpt>
      <trkpt lat="45.18204" lon="4.46324">
        <ele>1155</ele>
        <time>2018-04-11T19:16:14Z</time>
      </trkpt>
      <trkpt lat="45.182" lon="4.46329">
        <ele>1155</ele>
        <time>2018-04-11T19:17:14Z</time>
      </trkpt>
      <trkpt lat="45.18195" lon="4.46333">
        <ele>1155</ele>
        <time>2018-04-11T19:18:14Z</time>
      </trkpt>
      <trkpt lat="45.18191" lon="4.46338">
        <ele>1159</ele>
        <time>2018-04-11T19:19:14Z</time>
      </trkpt>
      <trkpt lat="45.18186" lon="4.46343">
        <ele>1159</ele>
        <time>2018-04-11T19:20:14Z</time>
      </trkpt>
      <trkpt lat="45.18182" lon="4.46347">
        <ele>1159</ele>
        <time>2018-04-11T19:21:14Z</time>
      </trkpt>
      <trkpt lat="45.18177" lon="4.46352">
        <ele>1159</ele>
        <time>2018-04-11T19:22:14Z</time>
      </trkpt>
      <trkpt lat="45.18172" lon="4.46356">
        <ele>1159</ele>
        <time>2018-04-11T19:23:14Z</time>
      </trkpt>
      <trkpt lat="45.18168" lon="4.46361">
        <ele>1159</ele>
        <time>2018-04-11T19:24:14Z</time>
      </trkpt>
      <trkpt lat="45.18163" lon="4.46366">
        <ele>1158</ele>
        <time>2018-04-11T19:25:14Z</time>
      </trkpt>
      <trkpt lat="45.18159" lon="4.46372">
        <ele>1158</ele>
        <time>2018-04-11T19:26:14Z</time>
      </trkpt>
      <trkpt lat="45.18156" lon="4.46378">
        <ele>1159</ele>
        <time>2018-04-11T19:27:14Z</time>
      </trkpt>
      <trkpt lat="45.18152" lon="4.46384">
        <ele>1159</ele>
        <time>2018-04-11T19:28:14Z</time>
      </trkpt>
      <trkpt lat="45.1815" lon="4.46388">
        <ele>1159</ele>
        <time>2018-04-11T19:29:14Z</time>
      </trkpt>
      <trkpt lat="45.18148" lon="4.46394">
        <ele>1160</ele>
        <time>2018-04-11T19:30:14Z</time>
      </trkpt>
      <trkpt lat="45.18146" lon="4.46401">
        <ele>1160</ele>
        <time>2018-04-11T19:31:14Z</time>
      </trkpt>
      <trkpt lat="45.18144" lon="4.46407">
        <ele>1160</ele>
        <time>2018-04-11T19:32:14Z</time>
      </trkpt>
      <trkpt lat="45.18142" lon="4.46415">
        <ele>1161</ele>
        <time>2018-04-11T19:33:14Z</time>
      </trkpt>
      <trkpt lat="45.1814" lon="4.46422">
        <ele>1167</ele>
        <time>2018-04-11T19:34:14Z</time>
      </trkpt>
      <trkpt lat="45.18139" lon="4.46428">
        <ele>1167</ele>
        <time>2018-04-11T19:35:14Z</time>
      </trkpt>
      <trkpt lat="45.18138" lon="4.46436">
        <ele>1168</ele>
        <time>2018-04-11T19:36:14Z</time>
      </trkpt>
      <trkpt lat="45.18135" lon="4.46445">
        <ele>1168</ele>
        <time>2018-04-11T19:37:14Z</time>
      </trkpt>
      <trkpt lat="45.18133" lon="4.4645">
        <ele>1169</ele>
        <time>2018-04-11T19:38:14Z</time>
      </trkpt>
      <trkpt lat="45.18131" lon="4.46453">
        <ele>1169</ele>
        <time>2018-04-11T19:39:14Z</time>
      </trkpt>
      <trkpt lat="45.18129" lon="4.46457">
        <ele>1169</ele>
        <time>2018-04-11T19:40:14Z</time>
      </trkpt>
      <trkpt lat="45.18126" lon="4.4646">
        <ele>1170</ele>
        <time>2018-04-11T19:41:14Z</time>
      </trkpt>
      <trkpt lat="45.18122" lon="4.46463">
        <ele>1170</ele>
        <time>2018-04-11T19:42:14Z</time>
      </trkpt>
      <trkpt lat="45.18119" lon="4.46465">
        <ele>1170</ele>
        <time>2018-04-11T19:43:14Z</time>
      </trkpt>
      <trkpt lat="45.18115" lon="4.46468">
        <ele>1170</ele>
        <time>2018-04-11T19:44:14Z</time>
      </trkpt>
      <trkpt lat="45.18112" lon="4.46469">
        <ele>1171</ele>
        <time>2018-04-11T19:45:14Z</time>
      </trkpt>
      <trkpt lat="45.18109" lon="4.4647">
        <ele>1171</ele>
        <time>2018-04-11T19:46:14Z</time>
      </trkpt>
      <trkpt lat="45.18098" lon="4.46467">
        <ele>1171</ele>
        <time>2018-04-11T19:47:14Z</time>
      </trkpt>
      <trkpt lat="45.18098" lon="4.46467">
        <ele>1171</ele>
        <time>2018-04-11T19:48:14Z</time>
      </trkpt>
      <trkpt lat="45.18089" lon="4.46459">
        <ele>1170</ele>
        <time>2018-04-11T19:49:14Z</time>
      </trkpt>
      <trkpt lat="45.1808" lon="4.46445">
        <ele>1172</ele>
        <time>2018-04-11T19:50:14Z</time>
      </trkpt>
      <trkpt lat="45.18058" lon="4.46408">
        <ele>1166</ele>
        <time>2018-04-11T19:51:14Z</time>
      </trkpt>
      <trkpt lat="45.18004" lon="4.46325">
        <ele>1166</ele>
        <time>2018-04-11T19:52:14Z</time>
      </trkpt>
      <trkpt lat="45.17998" lon="4.46315">
        <ele>1172</ele>
        <time>2018-04-11T19:53:14Z</time>
      </trkpt>
      <trkpt lat="45.17975" lon="4.46275">
        <ele>1173</ele>
        <time>2018-04-11T19:54:14Z</time>
      </trkpt>
      <trkpt lat="45.1797" lon="4.46267">
        <ele>1173</ele>
        <time>2018-04-11T19:55:14Z</time>
      </trkpt>
      <trkpt lat="45.1797" lon="4.46267">
        <ele>1173</ele>
        <time>2018-04-11T19:56:14Z</time>
      </trkpt>
      <trkpt lat="45.1796" lon="4.46272">
        <ele>1174</ele>
        <time>2018-04-11T19:57:14Z</time>
      </trkpt>
      <trkpt lat="45.1793" lon="4.46279">
        <ele>1176</ele>
        <time>2018-04-11T19:58:14Z</time>
      </trkpt>
      <trkpt lat="45.17903" lon="4.4628">
        <ele>1180</ele>
        <time>2018-04-11T19:59:14Z</time>
      </trkpt>
      <trkpt lat="45.17895" lon="4.46278">
        <ele>1180</ele>
        <time>2018-04-11T20:00:14Z</time>
      </trkpt>
      <trkpt lat="45.17888" lon="4.46273">
        <ele>1180</ele>
        <time>2018-04-11T20:01:14Z</time>
      </trkpt>
      <trkpt lat="45.17871" lon="4.46254">
        <ele>1180</ele>
        <time>2018-04-11T20:02:14Z</time>
      </trkpt>
      <trkpt lat="45.17838" lon="4.46217">
        <ele>1174</ele>
        <time>2018-04-11T20:03:14Z</time>
      </trkpt>
      <trkpt lat="45.17823" lon="4.46203">
        <ele>1177</ele>
        <time>2018-04-11T20:04:14Z</time>
      </trkpt>
      <trkpt lat="45.17806" lon="4.4619">
        <ele>1178</ele>
        <time>2018-04-11T20:05:14Z</time>
      </trkpt>
      <trkpt lat="45.17793" lon="4.46176">
        <ele>1178</ele>
        <time>2018-04-11T20:06:14Z</time>
      </trkpt>
      <trkpt lat="45.17782" lon="4.4616">
        <ele>1175</ele>
        <time>2018-04-11T20:07:14Z</time>
      </trkpt>
      <trkpt lat="45.17763" lon="4.46124">
        <ele>1175</ele>
        <time>2018-04-11T20:08:14Z</time>
      </trkpt>
      <trkpt lat="45.17733" lon="4.46064">
        <ele>1180</ele>
        <time>2018-04-11T20:09:14Z</time>
      </trkpt>
      <trkpt lat="45.17716" lon="4.46034">
        <ele>1181</ele>
        <time>2018-04-11T20:10:14Z</time>
      </trkpt>
      <trkpt lat="45.177" lon="4.46015">
        <ele>1182</ele>
        <time>2018-04-11T20:11:14Z</time>
      </trkpt>
      <trkpt lat="45.17684" lon="4.46001">
        <ele>1184</ele>
        <time>2018-04-11T20:12:14Z</time>
      </trkpt>
      <trkpt lat="45.17655" lon="4.45987">
        <ele>1188</ele>
        <time>2018-04-11T20:13:14Z</time>
      </trkpt>
      <trkpt lat="45.17624" lon="4.4597">
        <ele>1189</ele>
        <time>2018-04-11T20:14:14Z</time>
      </trkpt>
      <trkpt lat="45.17603" lon="4.45961">
        <ele>1190</ele>
        <time>2018-04-11T20:15:14Z</time>
      </trkpt>
      <trkpt lat="45.17586" lon="4.4595">
        <ele>1190</ele>
        <time>2018-04-11T20:16:14Z</time>
      </trkpt>
      <trkpt lat="45.17573" lon="4.45945">
        <ele>1194</ele>
        <time>2018-04-11T20:17:14Z</time>
      </trkpt>
      <trkpt lat="45.17539" lon="4.45935">
        <ele>1195</ele>
        <time>2018-04-11T20:18:14Z</time>
      </trkpt>
      <trkpt lat="45.17507" lon="4.45924">
        <ele>1195</ele>
        <time>2018-04-11T20:19:14Z</time>
      </trkpt>
      <trkpt lat="45.17478" lon="4.45912">
        <ele>1194</ele>
        <time>2018-04-11T20:20:14Z</time>
      </trkpt>
      <trkpt lat="45.17476" lon="4.45911">
        <ele>1194</ele>
        <time>2018-04-11T20:21:14Z</time>
      </trkpt>
      <trkpt lat="45.17445" lon="4.45895">
        <ele>1195</ele>
        <time>2018-04-11T20:22:14Z</time>
      </trkpt>
      <trkpt lat="45.17416" lon="4.45879">
        <ele>1198</ele>
        <time>2018-04-11T20:23:14Z</time>
      </trkpt>
      <trkpt lat="45.17388" lon="4.45871">
        <ele>1198</ele>
        <time>2018-04-11T20:24:14Z</time>
      </trkpt>
      <trkpt lat="45.17365" lon="4.45862">
        <ele>1198</ele>
        <time>2018-04-11T20:25:14Z</time>
      </trkpt>
      <trkpt lat="45.17333" lon="4.45858">
        <ele>1194</ele>
        <time>2018-04-11T20:26:14Z</time>
      </trkpt>
      <trkpt lat="45.17303" lon="4.45862">
        <ele>1192</ele>
        <time>2018-04-11T20:27:14Z</time>
      </trkpt>
      <trkpt lat="45.17264" lon="4.45876">
        <ele>1189</ele>
        <time>2018-04-11T20:28:14Z</time>
      </trkpt>
      <trkpt lat="45.17224" lon="4.45903">
        <ele>1179</ele>
        <time>2018-04-11T20:29:14Z</time>
      </trkpt>
      <trkpt lat="45.17206" lon="4.45898">
        <ele>1176</ele>
        <time>2018-04-11T20:30:14Z</time>
      </trkpt>
      <trkpt lat="45.17188" lon="4.45874">
        <ele>1174</ele>
        <time>2018-04-11T20:31:14Z</time>
      </trkpt>
      <trkpt lat="45.17172" lon="4.45844">
        <ele>1169</ele>
        <time>2018-04-11T20:32:14Z</time>
      </trkpt>
      <trkpt lat="45.17154" lon="4.45837">
        <ele>1161</ele>
        <time>2018-04-11T20:33:14Z</time>
      </trkpt>
      <trkpt lat="45.17148" lon="4.45836">
        <ele>1161</ele>
        <time>2018-04-11T20:34:14Z</time>
      </trkpt>
      <trkpt lat="45.17131" lon="4.45837">
        <ele>1158</ele>
        <time>2018-04-11T20:35:14Z</time>
      </trkpt>
      <trkpt lat="45.17113" lon="4.45838">
        <ele>1155</ele>
        <time>2018-04-11T20:36:14Z</time>
      </trkpt>
      <trkpt lat="45.17102" lon="4.4584">
        <ele>1153</ele>
        <time>2018-04-11T20:37:14Z</time>
      </trkpt>
      <trkpt lat="45.17095" lon="4.45843">
        <ele>1152</ele>
        <time>2018-04-11T20:38:14Z</time>
      </trkpt>
      <trkpt lat="45.17083" lon="4.45844">
        <ele>1145</ele>
        <time>2018-04-11T20:39:14Z</time>
      </trkpt>
      <trkpt lat="45.17073" lon="4.45842">
        <ele>1145</ele>
        <time>2018-04-11T20:40:14Z</time>
      </trkpt>
      <trkpt lat="45.17062" lon="4.45838">
        <ele>1144</ele>
        <time>2018-04-11T20:41:14Z</time>
      </trkpt>
      <trkpt lat="45.17051" lon="4.45834">
        <ele>1143</ele>
        <time>2018-04-11T20:42:14Z</time>
      </trkpt>
      <trkpt lat="45.17041" lon="4.45832">
        <ele>1140</ele>
        <time>2018-04-11T20:43:14Z</time>
      </trkpt>
      <trkpt lat="45.17028" lon="4.4583">
        <ele>1139</ele>
        <time>2018-04-11T20:44:14Z</time>
      </trkpt>
      <trkpt lat="45.1701" lon="4.45827">
        <ele>1136</ele>
        <time>2018-04-11T20:45:14Z</time>
      </trkpt>
      <trkpt lat="45.16988" lon="4.45824">
        <ele>1133</ele>
        <time>2018-04-11T20:46:14Z</time>
      </trkpt>
      <trkpt lat="45.16971" lon="4.45822">
        <ele>1132</ele>
        <time>2018-04-11T20:47:14Z</time>
      </trkpt>
      <trkpt lat="45.16953" lon="4.45819">
        <ele>1131</ele>
        <time>2018-04-11T20:48:14Z</time>
      </trkpt>
      <trkpt lat="45.16939" lon="4.45815">
        <ele>1131</ele>
        <time>2018-04-11T20:49:14Z</time>
      </trkpt>
      <trkpt lat="45.16921" lon="4.45813">
        <ele>1130</ele>
        <time>2018-04-11T20:50:14Z</time>
      </trkpt>
      <trkpt lat="45.16909" lon="4.45808">
        <ele>1129</ele>
        <time>2018-04-11T20:51:14Z</time>
      </trkpt>
      <trkpt lat="45.16896" lon="4.45804">
        <ele>1128</ele>
        <time>2018-04-11T20:52:14Z</time>
      </trkpt>
      <trkpt lat="45.16883" lon="4.45799">
        <ele>1128</ele>
        <time>2018-04-11T20:53:14Z</time>
      </trkpt>
      <trkpt lat="45.16867" lon="4.45794">
        <ele>1128</ele>
        <time>2018-04-11T20:54:14Z</time>
      </trkpt>
      <trkpt lat="45.16867" lon="4.45793">
        <ele>1128</ele>
        <time>2018-04-11T20:55:14Z</time>
      </trkpt>
      <trkpt lat="45.16855" lon="4.45788">
        <ele>1128</ele>
        <time>2018-04-11T20:56:14Z</time>
      </trkpt>
      <trkpt lat="45.16839" lon="4.45779">
        <ele>1127</ele>
        <time>2018-04-11T20:57:14Z</time>
      </trkpt>
      <trkpt lat="45.16822" lon="4.45768">
        <ele>1125</ele>
        <time>2018-04-11T20:58:14Z</time>
      </trkpt>
      <trkpt lat="45.16804" lon="4.45754">
        <ele>1125</ele>
        <time>2018-04-11T20:59:14Z</time>
      </trkpt>
      <trkpt lat="45.16791" lon="4.45742">
        <ele>1120</ele>
        <time>2018-04-11T21:00:14Z</time>
      </trkpt>
      <trkpt lat="45.16782" lon="4.45731">
        <ele>1120</ele>
        <time>2018-04-11T21:01:14Z</time>
      </trkpt>
      <trkpt lat="45.1675" lon="4.45694">
        <ele>1115</ele>
        <time>2018-04-11T21:02:14Z</time>
      </trkpt>
      <trkpt lat="45.16741" lon="4.45684">
        <ele>1114</ele>
        <time>2018-04-11T21:03:14Z</time>
      </trkpt>
      <trkpt lat="45.16731" lon="4.45673">
        <ele>1114</ele>
        <time>2018-04-11T21:04:14Z</time>
      </trkpt>
      <trkpt lat="45.16719" lon="4.4566">
        <ele>1111</ele>
        <time>2018-04-11T21:05:14Z</time>
      </trkpt>
      <trkpt lat="45.16708" lon="4.45648">
        <ele>1110</ele>
        <time>2018-04-11T21:06:14Z</time>
      </trkpt>
      <trkpt lat="45.16705" lon="4.45645">
        <ele>1110</ele>
        <time>2018-04-11T21:07:14Z</time>
      </trkpt>
      <trkpt lat="45.167" lon="4.45644">
        <ele>1110</ele>
        <time>2018-04-11T21:08:14Z</time>
      </trkpt>
      <trkpt lat="45.167" lon="4.45644">
        <ele>1110</ele>
        <time>2018-04-11T21:09:14Z</time>
      </trkpt>
      <trkpt lat="45.16704" lon="4.45634">
        <ele>1110</ele>
        <time>2018-04-11T21:10:14Z</time>
      </trkpt>
      <trkpt lat="45.16704" lon="4.45634">
        <ele>1110</ele>
        <time>2018-04-11T21:11:14Z</time>
      </trkpt>
      <trkpt lat="45.16689" lon="4.45619">
        <ele>1110</ele>
        <time>2018-04-11T21:12:14Z</time>
      </trkpt>
      <trkpt lat="45.16678" lon="4.45599">
        <ele>1110</ele>
        <time>2018-04-11T21:13:14Z</time>
      </trkpt>
      <trkpt lat="45.16669" lon="4.45572">
        <ele>1110</ele>
        <time>2018-04-11T21:14:14Z</time>
      </trkpt>
      <trkpt lat="45.16656" lon="4.45516">
        <ele>1109</ele>
        <time>2018-04-11T21:15:14Z</time>
      </trkpt>
      <trkpt lat="45.16646" lon="4.45473">
        <ele>1111</ele>
        <time>2018-04-11T21:16:14Z</time>
      </trkpt>
      <trkpt lat="45.16646" lon="4.45473">
        <ele>1111</ele>
        <time>2018-04-11T21:17:14Z</time>
      </trkpt>
      <trkpt lat="45.16642" lon="4.45471">
        <ele>1111</ele>
        <time>2018-04-11T21:18:14Z</time>
      </trkpt>
      <trkpt lat="45.16639" lon="4.45466">
        <ele>1111</ele>
        <time>2018-04-11T21:19:14Z</time>
      </trkpt>
      <trkpt lat="45.16635" lon="4.4546">
        <ele>1111</ele>
        <time>2018-04-11T21:20:14Z</time>
      </trkpt>
      <trkpt lat="45.16624" lon="4.4544">
        <ele>1111</ele>
        <time>2018-04-11T21:21:14Z</time>
      </trkpt>
      <trkpt lat="45.16621" lon="4.45434">
        <ele>1111</ele>
        <time>2018-04-11T21:22:14Z</time>
      </trkpt>
      <trkpt lat="45.16613" lon="4.45418">
        <ele>1111</ele>
        <time>2018-04-11T21:23:14Z</time>
      </trkpt>
      <trkpt lat="45.16609" lon="4.45399">
        <ele>1113</ele>
        <time>2018-04-11T21:24:14Z</time>
      </trkpt>
      <trkpt lat="45.16604" lon="4.45368">
        <ele>1114</ele>
        <time>2018-04-11T21:25:14Z</time>
      </trkpt>
      <trkpt lat="45.16603" lon="4.45333">
        <ele>1117</ele>
        <time>2018-04-11T21:26:14Z</time>
      </trkpt>
      <trkpt lat="45.166" lon="4.45302">
        <ele>1118</ele>
        <time>2018-04-11T21:27:14Z</time>
      </trkpt>
      <trkpt lat="45.16593" lon="4.45276">
        <ele>1119</ele>
        <time>2018-04-11T21:28:14Z</time>
      </trkpt>
      <trkpt lat="45.16583" lon="4.45241">
        <ele>1122</ele>
        <time>2018-04-11T21:29:14Z</time>
      </trkpt>
      <trkpt lat="45.16538" lon="4.45145">
        <ele>1129</ele>
        <time>2018-04-11T21:30:14Z</time>
      </trkpt>
      <trkpt lat="45.16525" lon="4.4512">
        <ele>1130</ele>
        <time>2018-04-11T21:31:14Z</time>
      </trkpt>
      <trkpt lat="45.16462" lon="4.44983">
        <ele>1135</ele>
        <time>2018-04-11T21:32:14Z</time>
      </trkpt>
      <trkpt lat="45.1645" lon="4.44961">
        <ele>1135</ele>
        <time>2018-04-11T21:33:14Z</time>
      </trkpt>
      <trkpt lat="45.16422" lon="4.44927">
        <ele>1132</ele>
        <time>2018-04-11T21:34:14Z</time>
      </trkpt>
      <trkpt lat="45.16391" lon="4.44902">
        <ele>1128</ele>
        <time>2018-04-11T21:35:14Z</time>
      </trkpt>
      <trkpt lat="45.16362" lon="4.44878">
        <ele>1126</ele>
        <time>2018-04-11T21:36:14Z</time>
      </trkpt>
      <trkpt lat="45.16347" lon="4.44867">
        <ele>1126</ele>
        <time>2018-04-11T21:37:14Z</time>
      </trkpt>
      <trkpt lat="45.16317" lon="4.44857">
        <ele>1125</ele>
        <time>2018-04-11T21:38:14Z</time>
      </trkpt>
      <trkpt lat="45.16304" lon="4.44852">
        <ele>1126</ele>
        <time>2018-04-11T21:39:14Z</time>
      </trkpt>
      <trkpt lat="45.1629" lon="4.44847">
        <ele>1126</ele>
        <time>2018-04-11T21:40:14Z</time>
      </trkpt>
      <trkpt lat="45.16263" lon="4.44838">
        <ele>1129</ele>
        <time>2018-04-11T21:41:14Z</time>
      </trkpt>
      <trkpt lat="45.1622" lon="4.44817">
        <ele>1134</ele>
        <time>2018-04-11T21:42:14Z</time>
      </trkpt>
      <trkpt lat="45.16189" lon="4.44801">
        <ele>1136</ele>
        <time>2018-04-11T21:43:14Z</time>
      </trkpt>
      <trkpt lat="45.16097" lon="4.44742">
        <ele>1139</ele>
        <time>2018-04-11T21:44:14Z</time>
      </trkpt>
      <trkpt lat="45.16077" lon="4.44731">
        <ele>1137</ele>
        <time>2018-04-11T21:45:14Z</time>
      </trkpt>
      <trkpt lat="45.16074" lon="4.44729">
        <ele>1137</ele>
        <time>2018-04-11T21:46:14Z</time>
      </trkpt>
      <trkpt lat="45.16072" lon="4.44726">
        <ele>1137</ele>
        <time>2018-04-11T21:47:14Z</time>
      </trkpt>
      <trkpt lat="45.1607" lon="4.4472">
        <ele>1137</ele>
        <time>2018-04-11T21:48:14Z</time>
      </trkpt>
      <trkpt lat="45.1607" lon="4.4472">
        <ele>1137</ele>
        <time>2018-04-11T21:49:14Z</time>
      </trkpt>
      <trkpt lat="45.16058" lon="4.44721">
        <ele>1136</ele>
        <time>2018-04-11T21:50:14Z</time>
      </trkpt>
      <trkpt lat="45.16012" lon="4.44737">
        <ele>1135</ele>
        <time>2018-04-11T21:51:14Z</time>
      </trkpt>
      <trkpt lat="45.15963" lon="4.44762">
        <ele>1135</ele>
        <time>2018-04-11T21:52:14Z</time>
      </trkpt>
      <trkpt lat="45.15927" lon="4.44781">
        <ele>1135</ele>
        <time>2018-04-11T21:53:14Z</time>
      </trkpt>
      <trkpt lat="45.15917" lon="4.44784">
        <ele>1134</ele>
        <time>2018-04-11T21:54:14Z</time>
      </trkpt>
      <trkpt lat="45.15896" lon="4.44786">
        <ele>1132</ele>
        <time>2018-04-11T21:55:14Z</time>
      </trkpt>
      <trkpt lat="45.15863" lon="4.44782">
        <ele>1131</ele>
        <time>2018-04-11T21:56:14Z</time>
      </trkpt>
      <trkpt lat="45.15779" lon="4.44767">
        <ele>1126</ele>
        <time>2018-04-11T21:57:14Z</time>
      </trkpt>
      <trkpt lat="45.15766" lon="4.44764">
        <ele>1125</ele>
        <time>2018-04-11T21:58:14Z</time>
      </trkpt>
      <trkpt lat="45.15712" lon="4.44752">
        <ele>1121</ele>
        <time>2018-04-11T21:59:14Z</time>
      </trkpt>
      <trkpt lat="45.15678" lon="4.44741">
        <ele>1118</ele>
        <time>2018-04-11T22:00:14Z</time>
      </trkpt>
      <trkpt lat="45.15655" lon="4.4473">
        <ele>1116</ele>
        <time>2018-04-11T22:01:14Z</time>
      </trkpt>
      <trkpt lat="45.15619" lon="4.44711">
        <ele>1114</ele>
        <time>2018-04-11T22:02:14Z</time>
      </trkpt>
      <trkpt lat="45.15602" lon="4.44702">
        <ele>1114</ele>
        <time>2018-04-11T22:03:14Z</time>
      </trkpt>
      <trkpt lat="45.15596" lon="4.44699">
        <ele>1113</ele>
        <time>2018-04-11T22:04:14Z</time>
      </trkpt>
      <trkpt lat="45.1556" lon="4.44679">
        <ele>1110</ele>
        <time>2018-04-11T22:05:14Z</time>
      </trkpt>
      <trkpt lat="45.15519" lon="4.44657">
        <ele>1109</ele>
        <time>2018-04-11T22:06:14Z</time>
      </trkpt>
      <trkpt lat="45.15459" lon="4.44614">
        <ele>1110</ele>
        <time>2018-04-11T22:07:14Z</time>
      </trkpt>
      <trkpt lat="45.15433" lon="4.44599">
        <ele>1111</ele>
        <time>2018-04-11T22:08:14Z</time>
      </trkpt>
      <trkpt lat="45.15428" lon="4.44596">
        <ele>1110</ele>
        <time>2018-04-11T22:09:14Z</time>
      </trkpt>
      <trkpt lat="45.15412" lon="4.44586">
        <ele>1112</ele>
        <time>2018-04-11T22:10:14Z</time>
      </trkpt>
      <trkpt lat="45.15362" lon="4.44554">
        <ele>1110</ele>
        <time>2018-04-11T22:11:14Z</time>
      </trkpt>
      <trkpt lat="45.15338" lon="4.44537">
        <ele>1109</ele>
        <time>2018-04-11T22:12:14Z</time>
      </trkpt>
      <trkpt lat="45.15315" lon="4.44523">
        <ele>1113</ele>
        <time>2018-04-11T22:13:14Z</time>
      </trkpt>
      <trkpt lat="45.15282" lon="4.44508">
        <ele>1114</ele>
        <time>2018-04-11T22:14:14Z</time>
      </trkpt>
      <trkpt lat="45.15248" lon="4.44497">
        <ele>1109</ele>
        <time>2018-04-11T22:15:14Z</time>
      </trkpt>
      <trkpt lat="45.15227" lon="4.44492">
        <ele>1104</ele>
        <time>2018-04-11T22:16:14Z</time>
      </trkpt>
      <trkpt lat="45.15226" lon="4.44492">
        <ele>1104</ele>
        <time>2018-04-11T22:17:14Z</time>
      </trkpt>
      <trkpt lat="45.15196" lon="4.44488">
        <ele>1102</ele>
        <time>2018-04-11T22:18:14Z</time>
      </trkpt>
      <trkpt lat="45.15154" lon="4.44484">
        <ele>1101</ele>
        <time>2018-04-11T22:19:14Z</time>
      </trkpt>
      <trkpt lat="45.15147" lon="4.44485">
        <ele>1101</ele>
        <time>2018-04-11T22:20:14Z</time>
      </trkpt>
      <trkpt lat="45.15102" lon="4.44482">
        <ele>1098</ele>
        <time>2018-04-11T22:21:14Z</time>
      </trkpt>
      <trkpt lat="45.15081" lon="4.4448">
        <ele>1096</ele>
        <time>2018-04-11T22:22:14Z</time>
      </trkpt>
      <trkpt lat="45.15013" lon="4.44469">
        <ele>1093</ele>
        <time>2018-04-11T22:23:14Z</time>
      </trkpt>
      <trkpt lat="45.14968" lon="4.44461">
        <ele>1089</ele>
        <time>2018-04-11T22:24:14Z</time>
      </trkpt>
      <trkpt lat="45.14958" lon="4.44459">
        <ele>1089</ele>
        <time>2018-04-11T22:25:14Z</time>
      </trkpt>
      <trkpt lat="45.14941" lon="4.44455">
        <ele>1088</ele>
        <time>2018-04-11T22:26:14Z</time>
      </trkpt>
      <trkpt lat="45.1493" lon="4.44451">
        <ele>1088</ele>
        <time>2018-04-11T22:27:14Z</time>
      </trkpt>
      <trkpt lat="45.14927" lon="4.4445">
        <ele>1088</ele>
        <time>2018-04-11T22:28:14Z</time>
      </trkpt>
      <trkpt lat="45.14911" lon="4.44438">
        <ele>1088</ele>
        <time>2018-04-11T22:29:14Z</time>
      </trkpt>
      <trkpt lat="45.14904" lon="4.44429">
        <ele>1088</ele>
        <time>2018-04-11T22:30:14Z</time>
      </trkpt>
      <trkpt lat="45.14896" lon="4.44418">
        <ele>1088</ele>
        <time>2018-04-11T22:31:14Z</time>
      </trkpt>
      <trkpt lat="45.14874" lon="4.44378">
        <ele>1087</ele>
        <time>2018-04-11T22:32:14Z</time>
      </trkpt>
      <trkpt lat="45.14856" lon="4.44337">
        <ele>1087</ele>
        <time>2018-04-11T22:33:14Z</time>
      </trkpt>
      <trkpt lat="45.14828" lon="4.44265">
        <ele>1090</ele>
        <time>2018-04-11T22:34:14Z</time>
      </trkpt>
      <trkpt lat="45.148" lon="4.44209">
        <ele>1089</ele>
        <time>2018-04-11T22:35:14Z</time>
      </trkpt>
      <trkpt lat="45.14774" lon="4.44164">
        <ele>1086</ele>
        <time>2018-04-11T22:36:14Z</time>
      </trkpt>
      <trkpt lat="45.14754" lon="4.44131">
        <ele>1084</ele>
        <time>2018-04-11T22:37:14Z</time>
      </trkpt>
      <trkpt lat="45.14726" lon="4.44099">
        <ele>1096</ele>
        <time>2018-04-11T22:38:14Z</time>
      </trkpt>
      <trkpt lat="45.14705" lon="4.44077">
        <ele>1095</ele>
        <time>2018-04-11T22:39:14Z</time>
      </trkpt>
      <trkpt lat="45.14695" lon="4.44063">
        <ele>1096</ele>
        <time>2018-04-11T22:40:14Z</time>
      </trkpt>
      <trkpt lat="45.14688" lon="4.44047">
        <ele>1096</ele>
        <time>2018-04-11T22:41:14Z</time>
      </trkpt>
      <trkpt lat="45.14683" lon="4.44025">
        <ele>1097</ele>
        <time>2018-04-11T22:42:14Z</time>
      </trkpt>
      <trkpt lat="45.14681" lon="4.43989">
        <ele>1097</ele>
        <time>2018-04-11T22:43:14Z</time>
      </trkpt>
      <trkpt lat="45.14676" lon="4.43964">
        <ele>1096</ele>
        <time>2018-04-11T22:44:14Z</time>
      </trkpt>
      <trkpt lat="45.14669" lon="4.43941">
        <ele>1096</ele>
        <time>2018-04-11T22:45:14Z</time>
      </trkpt>
      <trkpt lat="45.14658" lon="4.43915">
        <ele>1099</ele>
        <time>2018-04-11T22:46:14Z</time>
      </trkpt>
      <trkpt lat="45.14643" lon="4.43895">
        <ele>1101</ele>
        <time>2018-04-11T22:47:14Z</time>
      </trkpt>
      <trkpt lat="45.1463" lon="4.43881">
        <ele>1101</ele>
        <time>2018-04-11T22:48:14Z</time>
      </trkpt>
      <trkpt lat="45.14617" lon="4.4387">
        <ele>1101</ele>
        <time>2018-04-11T22:49:14Z</time>
      </trkpt>
      <trkpt lat="45.14601" lon="4.43861">
        <ele>1102</ele>
        <time>2018-04-11T22:50:14Z</time>
      </trkpt>
      <trkpt lat="45.14571" lon="4.43846">
        <ele>1104</ele>
        <time>2018-04-11T22:51:14Z</time>
      </trkpt>
      <trkpt lat="45.14553" lon="4.43837">
        <ele>1106</ele>
        <time>2018-04-11T22:52:14Z</time>
      </trkpt>
      <trkpt lat="45.14533" lon="4.43824">
        <ele>1103</ele>
        <time>2018-04-11T22:53:14Z</time>
      </trkpt>
      <trkpt lat="45.14509" lon="4.438">
        <ele>1104</ele>
        <time>2018-04-11T22:54:14Z</time>
      </trkpt>
      <trkpt lat="45.14475" lon="4.43762">
        <ele>1108</ele>
        <time>2018-04-11T22:55:14Z</time>
      </trkpt>
      <trkpt lat="45.14442" lon="4.4373">
        <ele>1107</ele>
        <time>2018-04-11T22:56:14Z</time>
      </trkpt>
      <trkpt lat="45.14403" lon="4.43689">
        <ele>1110</ele>
        <time>2018-04-11T22:57:14Z</time>
      </trkpt>
      <trkpt lat="45.14397" lon="4.43684">
        <ele>1110</ele>
        <time>2018-04-11T22:58:14Z</time>
      </trkpt>
      <trkpt lat="45.1439" lon="4.43679">
        <ele>1110</ele>
        <time>2018-04-11T22:59:14Z</time>
      </trkpt>
      <trkpt lat="45.14375" lon="4.43674">
        <ele>1111</ele>
        <time>2018-04-11T23:00:14Z</time>
      </trkpt>
      <trkpt lat="45.14351" lon="4.43669">
        <ele>1112</ele>
        <time>2018-04-11T23:01:14Z</time>
      </trkpt>
      <trkpt lat="45.14329" lon="4.43665">
        <ele>1114</ele>
        <time>2018-04-11T23:02:14Z</time>
      </trkpt>
      <trkpt lat="45.143" lon="4.43653">
        <ele>1114</ele>
        <time>2018-04-11T23:03:14Z</time>
      </trkpt>
      <trkpt lat="45.14275" lon="4.43645">
        <ele>1114</ele>
        <time>2018-04-11T23:04:14Z</time>
      </trkpt>
      <trkpt lat="45.14275" lon="4.43645">
        <ele>1114</ele>
        <time>2018-04-11T23:05:14Z</time>
      </trkpt>
      <trkpt lat="45.14266" lon="4.43623">
        <ele>1114</ele>
        <time>2018-04-11T23:06:14Z</time>
      </trkpt>
      <trkpt lat="45.14262" lon="4.43617">
        <ele>1114</ele>
        <time>2018-04-11T23:07:14Z</time>
      </trkpt>
      <trkpt lat="45.14259" lon="4.43614">
        <ele>1114</ele>
        <time>2018-04-11T23:08:14Z</time>
      </trkpt>
      <trkpt lat="45.14255" lon="4.4361">
        <ele>1115</ele>
        <time>2018-04-11T23:09:14Z</time>
      </trkpt>
      <trkpt lat="45.14248" lon="4.43603">
        <ele>1115</ele>
        <time>2018-04-11T23:10:14Z</time>
      </trkpt>
      <trkpt lat="45.14242" lon="4.43596">
        <ele>1115</ele>
        <time>2018-04-11T23:11:14Z</time>
      </trkpt>
      <trkpt lat="45.14238" lon="4.43589">
        <ele>1115</ele>
        <time>2018-04-11T23:12:14Z</time>
      </trkpt>
      <trkpt lat="45.14232" lon="4.43579">
        <ele>1117</ele>
        <time>2018-04-11T23:13:14Z</time>
      </trkpt>
      <trkpt lat="45.14225" lon="4.43566">
        <ele>1117</ele>
        <time>2018-04-11T23:14:14Z</time>
      </trkpt>
      <trkpt lat="45.14219" lon="4.43551">
        <ele>1118</ele>
        <time>2018-04-11T23:15:14Z</time>
      </trkpt>
      <trkpt lat="45.14214" lon="4.43539">
        <ele>1118</ele>
        <time>2018-04-11T23:16:14Z</time>
      </trkpt>
      <trkpt lat="45.14214" lon="4.43539">
        <ele>1118</ele>
        <time>2018-04-11T23:17:14Z</time>
      </trkpt>
      <trkpt lat="45.14198" lon="4.43552">
        <ele>1118</ele>
        <time>2018-04-11T23:18:14Z</time>
      </trkpt>
      <trkpt lat="45.14197" lon="4.43553">
        <ele>1118</ele>
        <time>2018-04-11T23:19:14Z</time>
      </trkpt>
      <trkpt lat="45.14195" lon="4.43552">
        <ele>1118</ele>
        <time>2018-04-11T23:20:14Z</time>
      </trkpt>
      <trkpt lat="45.14195" lon="4.43552">
        <ele>1118</ele>
        <time>2018-04-11T23:21:14Z</time>
      </trkpt>
      <trkpt lat="45.14194" lon="4.43552">
        <ele>1118</ele>
        <time>2018-04-11T23:22:14Z</time>
      </trkpt>
      <trkpt lat="45.14193" lon="4.43549">
        <ele>1118</ele>
        <time>2018-04-11T23:23:14Z</time>
      </trkpt>
      <trkpt lat="45.14192" lon="4.43546">
        <ele>1118</ele>
        <time>2018-04-11T23:24:14Z</time>
      </trkpt>
      <trkpt lat="45.14192" lon="4.43544">
        <ele>1118</ele>
        <time>2018-04-11T23:25:14Z</time>
      </trkpt>
      <trkpt lat="45.14192" lon="4.43542">
        <ele>1118</ele>
        <time>2018-04-11T23:26:14Z</time>
      </trkpt>
      <trkpt lat="45.14192" lon="4.4354">
        <ele>1118</ele>
        <time>2018-04-11T23:27:14Z</time>
      </trkpt>
      <trkpt lat="45.14192" lon="4.43538">
        <ele>1118</ele>
        <time>2018-04-11T23:28:14Z</time>
      </trkpt>
      <trkpt lat="45.14192" lon="4.43538">
        <ele>1118</ele>
        <time>2018-04-11T23:29:14Z</time>
      </trkpt>
      <trkpt lat="45.14184" lon="4.43542">
        <ele>1119</ele>
        <time>2018-04-11T23:30:14Z</time>
      </trkpt>
      <trkpt lat="45.14182" lon="4.43543">
        <ele>1119</ele>
        <time>2018-04-11T23:31:14Z</time>
      </trkpt>
      <trkpt lat="45.1418" lon="4.43542">
        <ele>1119</ele>
        <time>2018-04-11T23:32:14Z</time>
      </trkpt>
      <trkpt lat="45.14176" lon="4.4354">
        <ele>1119</ele>
        <time>2018-04-11T23:33:14Z</time>
      </trkpt>
      <trkpt lat="45.1417" lon="4.43536">
        <ele>1119</ele>
        <time>2018-04-11T23:34:14Z</time>
      </trkpt>
      <trkpt lat="45.14167" lon="4.43533">
        <ele>1119</ele>
        <time>2018-04-11T23:35:14Z</time>
      </trkpt>
      <trkpt lat="45.14163" lon="4.4353">
        <ele>1122</ele>
        <time>2018-04-11T23:36:14Z</time>
      </trkpt>
      <trkpt lat="45.14161" lon="4.43526">
        <ele>1122</ele>
        <time>2018-04-11T23:37:14Z</time>
      </trkpt>
      <trkpt lat="45.14159" lon="4.4352">
        <ele>1122</ele>
        <time>2018-04-11T23:38:14Z</time>
      </trkpt>
      <trkpt lat="45.14157" lon="4.43515">
        <ele>1122</ele>
        <time>2018-04-11T23:39:14Z</time>
      </trkpt>
      <trkpt lat="45.14155" lon="4.43511">
        <ele>1122</ele>
        <time>2018-04-11T23:40:14Z</time>
      </trkpt>
      <trkpt lat="45.14153" lon="4.43508">
        <ele>1122</ele>
        <time>2018-04-11T23:41:14Z</time>
      </trkpt>
      <trkpt lat="45.14147" lon="4.43502">
        <ele>1122</ele>
        <time>2018-04-11T23:42:14Z</time>
      </trkpt>
      <trkpt lat="45.14136" lon="4.43492">
        <ele>1125</ele>
        <time>2018-04-11T23:43:14Z</time>
      </trkpt>
      <trkpt lat="45.1413" lon="4.43487">
        <ele>1126</ele>
        <time>2018-04-11T23:44:14Z</time>
      </trkpt>
      <trkpt lat="45.14105" lon="4.43463">
        <ele>1127</ele>
        <time>2018-04-11T23:45:14Z</time>
      </trkpt>
      <trkpt lat="45.14082" lon="4.43437">
        <ele>1133</ele>
        <time>2018-04-11T23:46:14Z</time>
      </trkpt>
      <trkpt lat="45.14065" lon="4.4342">
        <ele>1133</ele>
        <time>2018-04-11T23:47:14Z</time>
      </trkpt>
      <trkpt lat="45.14065" lon="4.4342">
        <ele>1133</ele>
        <time>2018-04-11T23:48:14Z</time>
      </trkpt>
      <trkpt lat="45.14048" lon="4.43407">
        <ele>1134</ele>
        <time>2018-04-11T23:49:14Z</time>
      </trkpt>
      <trkpt lat="45.14023" lon="4.43387">
        <ele>1135</ele>
        <time>2018-04-11T23:50:14Z</time>
      </trkpt>
      <trkpt lat="45.1399" lon="4.43367">
        <ele>1138</ele>
        <time>2018-04-11T23:51:14Z</time>
      </trkpt>
      <trkpt lat="45.13971" lon="4.43357">
        <ele>1138</ele>
        <time>2018-04-11T23:52:14Z</time>
      </trkpt>
      <trkpt lat="45.13953" lon="4.43347">
        <ele>1138</ele>
        <time>2018-04-11T23:53:14Z</time>
      </trkpt>
      <trkpt lat="45.13897" lon="4.43319">
        <ele>1137</ele>
        <time>2018-04-11T23:54:14Z</time>
      </trkpt>
      <trkpt lat="45.13851" lon="4.43295">
        <ele>1138</ele>
        <time>2018-04-11T23:55:14Z</time>
      </trkpt>
      <trkpt lat="45.13828" lon="4.43286">
        <ele>1138</ele>
        <time>2018-04-11T23:56:14Z</time>
      </trkpt>
      <trkpt lat="45.13803" lon="4.43278">
        <ele>1138</ele>
        <time>2018-04-11T23:57:14Z</time>
      </trkpt>
      <trkpt lat="45.13785" lon="4.43275">
        <ele>1138</ele>
        <time>2018-04-11T23:58:14Z</time>
      </trkpt>
      <trkpt lat="45.13738" lon="4.43268">
        <ele>1136</ele>
        <time>2018-04-11T23:59:14Z</time>
      </trkpt>
      <trkpt lat="45.13692" lon="4.43261">
        <ele>1137</ele>
        <time>2018-04-12T00:00:14Z</time>
      </trkpt>
      <trkpt lat="45.1366" lon="4.43256">
        <ele>1139</ele>
        <time>2018-04-12T00:01:14Z</time>
      </trkpt>
      <trkpt lat="45.13654" lon="4.43255">
        <ele>1139</ele>
        <time>2018-04-12T00:02:14Z</time>
      </trkpt>
      <trkpt lat="45.13651" lon="4.43253">
        <ele>1139</ele>
        <time>2018-04-12T00:03:14Z</time>
      </trkpt>
      <trkpt lat="45.13646" lon="4.43249">
        <ele>1141</ele>
        <time>2018-04-12T00:04:14Z</time>
      </trkpt>
      <trkpt lat="45.13615" lon="4.43248">
        <ele>1143</ele>
        <time>2018-04-12T00:05:14Z</time>
      </trkpt>
      <trkpt lat="45.13593" lon="4.43247">
        <ele>1144</ele>
        <time>2018-04-12T00:06:14Z</time>
      </trkpt>
      <trkpt lat="45.13579" lon="4.43237">
        <ele>1145</ele>
        <time>2018-04-12T00:07:14Z</time>
      </trkpt>
      <trkpt lat="45.13569" lon="4.43231">
        <ele>1146</ele>
        <time>2018-04-12T00:08:14Z</time>
      </trkpt>
      <trkpt lat="45.13547" lon="4.43211">
        <ele>1146</ele>
        <time>2018-04-12T00:09:14Z</time>
      </trkpt>
      <trkpt lat="45.13525" lon="4.4319">
        <ele>1146</ele>
        <time>2018-04-12T00:10:14Z</time>
      </trkpt>
      <trkpt lat="45.13525" lon="4.4319">
        <ele>1146</ele>
        <time>2018-04-12T00:11:14Z</time>
      </trkpt>
      <trkpt lat="45.1352" lon="4.43185">
        <ele>1146</ele>
        <time>2018-04-12T00:12:14Z</time>
      </trkpt>
      <trkpt lat="45.13496" lon="4.43165">
        <ele>1146</ele>
        <time>2018-04-12T00:13:14Z</time>
      </trkpt>
      <trkpt lat="45.13472" lon="4.43151">
        <ele>1144</ele>
        <time>2018-04-12T00:14:14Z</time>
      </trkpt>
      <trkpt lat="45.13445" lon="4.43129">
        <ele>1143</ele>
        <time>2018-04-12T00:15:14Z</time>
      </trkpt>
      <trkpt lat="45.13424" lon="4.43113">
        <ele>1143</ele>
        <time>2018-04-12T00:16:14Z</time>
      </trkpt>
      <trkpt lat="45.13409" lon="4.43107">
        <ele>1142</ele>
        <time>2018-04-12T00:17:14Z</time>
      </trkpt>
      <trkpt lat="45.134" lon="4.43099">
        <ele>1142</ele>
        <time>2018-04-12T00:18:14Z</time>
      </trkpt>
      <trkpt lat="45.13396" lon="4.43087">
        <ele>1142</ele>
        <time>2018-04-12T00:19:14Z</time>
      </trkpt>
      <trkpt lat="45.13388" lon="4.43053">
        <ele>1139</ele>
        <time>2018-04-12T00:20:14Z</time>
      </trkpt>
      <trkpt lat="45.13384" lon="4.43035">
        <ele>1138</ele>
        <time>2018-04-12T00:21:14Z</time>
      </trkpt>
      <trkpt lat="45.13374" lon="4.43005">
        <ele>1138</ele>
        <time>2018-04-12T00:22:14Z</time>
      </trkpt>
      <trkpt lat="45.13368" lon="4.42975">
        <ele>1135</ele>
        <time>2018-04-12T00:23:14Z</time>
      </trkpt>
      <trkpt lat="45.13359" lon="4.42924">
        <ele>1133</ele>
        <time>2018-04-12T00:24:14Z</time>
      </trkpt>
      <trkpt lat="45.13354" lon="4.42882">
        <ele>1131</ele>
        <time>2018-04-12T00:25:14Z</time>
      </trkpt>
      <trkpt lat="45.13354" lon="4.42882">
        <ele>1131</ele>
        <time>2018-04-12T00:26:14Z</time>
      </trkpt>
      <trkpt lat="45.13358" lon="4.42877">
        <ele>1131</ele>
        <time>2018-04-12T00:27:14Z</time>
      </trkpt>
      <trkpt lat="45.13372" lon="4.42856">
        <ele>1131</ele>
        <time>2018-04-12T00:28:14Z</time>
      </trkpt>
      <trkpt lat="45.13396" lon="4.4282">
        <ele>1132</ele>
        <time>2018-04-12T00:29:14Z</time>
      </trkpt>
      <trkpt lat="45.13408" lon="4.428">
        <ele>1133</ele>
        <time>2018-04-12T00:30:14Z</time>
      </trkpt>
      <trkpt lat="45.13415" lon="4.42784">
        <ele>1133</ele>
        <time>2018-04-12T00:31:14Z</time>
      </trkpt>
      <trkpt lat="45.1342" lon="4.42769">
        <ele>1136</ele>
        <time>2018-04-12T00:32:14Z</time>
      </trkpt>
      <trkpt lat="45.13425" lon="4.42764">
        <ele>1136</ele>
        <time>2018-04-12T00:33:14Z</time>
      </trkpt>
      <trkpt lat="45.13425" lon="4.42752">
        <ele>1136</ele>
        <time>2018-04-12T00:34:14Z</time>
      </trkpt>
      <trkpt lat="45.13426" lon="4.42741">
        <ele>1137</ele>
        <time>2018-04-12T00:35:14Z</time>
      </trkpt>
      <trkpt lat="45.13435" lon="4.42697">
        <ele>1140</ele>
        <time>2018-04-12T00:36:14Z</time>
      </trkpt>
      <trkpt lat="45.13444" lon="4.42652">
        <ele>1142</ele>
        <time>2018-04-12T00:37:14Z</time>
      </trkpt>
      <trkpt lat="45.13455" lon="4.42602">
        <ele>1142</ele>
        <time>2018-04-12T00:38:14Z</time>
      </trkpt>
      <trkpt lat="45.13461" lon="4.42572">
        <ele>1142</ele>
        <time>2018-04-12T00:39:14Z</time>
      </trkpt>
      <trkpt lat="45.13464" lon="4.42548">
        <ele>1142</ele>
        <time>2018-04-12T00:40:14Z</time>
      </trkpt>
      <trkpt lat="45.13464" lon="4.42548">
        <ele>1142</ele>
        <time>2018-04-12T00:41:14Z</time>
      </trkpt>
      <trkpt lat="45.13451" lon="4.42532">
        <ele>1142</ele>
        <time>2018-04-12T00:42:14Z</time>
      </trkpt>
      <trkpt lat="45.13436" lon="4.42518">
        <ele>1142</ele>
        <time>2018-04-12T00:43:14Z</time>
      </trkpt>
      <trkpt lat="45.13431" lon="4.42508">
        <ele>1142</ele>
        <time>2018-04-12T00:44:14Z</time>
      </trkpt>
      <trkpt lat="45.13431" lon="4.42508">
        <ele>1142</ele>
        <time>2018-04-12T00:45:14Z</time>
      </trkpt>
      <trkpt lat="45.1343" lon="4.42505">
        <ele>1142</ele>
        <time>2018-04-12T00:46:14Z</time>
      </trkpt>
      <trkpt lat="45.13429" lon="4.42502">
        <ele>1142</ele>
        <time>2018-04-12T00:47:14Z</time>
      </trkpt>
      <trkpt lat="45.13428" lon="4.42499">
        <ele>1142</ele>
        <time>2018-04-12T00:48:14Z</time>
      </trkpt>
      <trkpt lat="45.13426" lon="4.42496">
        <ele>1142</ele>
        <time>2018-04-12T00:49:14Z</time>
      </trkpt>
      <trkpt lat="45.13423" lon="4.42492">
        <ele>1142</ele>
        <time>2018-04-12T00:50:14Z</time>
      </trkpt>
      <trkpt lat="45.13419" lon="4.42486">
        <ele>1142</ele>
        <time>2018-04-12T00:51:14Z</time>
      </trkpt>
      <trkpt lat="45.13384" lon="4.42437">
        <ele>1144</ele>
        <time>2018-04-12T00:52:14Z</time>
      </trkpt>
      <trkpt lat="45.13372" lon="4.42422">
        <ele>1144</ele>
        <time>2018-04-12T00:53:14Z</time>
      </trkpt>
      <trkpt lat="45.13343" lon="4.42382">
        <ele>1146</ele>
        <time>2018-04-12T00:54:14Z</time>
      </trkpt>
      <trkpt lat="45.13321" lon="4.42349">
        <ele>1148</ele>
        <time>2018-04-12T00:55:14Z</time>
      </trkpt>
      <trkpt lat="45.13306" lon="4.42317">
        <ele>1148</ele>
        <time>2018-04-12T00:56:14Z</time>
      </trkpt>
      <trkpt lat="45.13295" lon="4.42284">
        <ele>1148</ele>
        <time>2018-04-12T00:57:14Z</time>
      </trkpt>
      <trkpt lat="45.13289" lon="4.42255">
        <ele>1148</ele>
        <time>2018-04-12T00:58:14Z</time>
      </trkpt>
      <trkpt lat="45.13285" lon="4.42215">
        <ele>1151</ele>
        <time>2018-04-12T00:59:14Z</time>
      </trkpt>
      <trkpt lat="45.13282" lon="4.42172">
        <ele>1152</ele>
        <time>2018-04-12T01:00:14Z</time>
      </trkpt>
      <trkpt lat="45.13282" lon="4.42172">
        <ele>1152</ele>
        <time>2018-04-12T01:01:14Z</time>
      </trkpt>
      <trkpt lat="45.13279" lon="4.42136">
        <ele>1156</ele>
        <time>2018-04-12T01:02:14Z</time>
      </trkpt>
      <trkpt lat="45.13279" lon="4.42115">
        <ele>1157</ele>
        <time>2018-04-12T01:03:14Z</time>
      </trkpt>
      <trkpt lat="45.13281" lon="4.42092">
        <ele>1157</ele>
        <time>2018-04-12T01:04:14Z</time>
      </trkpt>
      <trkpt lat="45.13285" lon="4.42069">
        <ele>1160</ele>
        <time>2018-04-12T01:05:14Z</time>
      </trkpt>
      <trkpt lat="45.13286" lon="4.42048">
        <ele>1160</ele>
        <time>2018-04-12T01:06:14Z</time>
      </trkpt>
      <trkpt lat="45.13284" lon="4.42015">
        <ele>1161</ele>
        <time>2018-04-12T01:07:14Z</time>
      </trkpt>
      <trkpt lat="45.13283" lon="4.41963">
        <ele>1164</ele>
        <time>2018-04-12T01:08:14Z</time>
      </trkpt>
      <trkpt lat="45.13284" lon="4.41941">
        <ele>1164</ele>
        <time>2018-04-12T01:09:14Z</time>
      </trkpt>
      <trkpt lat="45.13287" lon="4.419">
        <ele>1166</ele>
        <time>2018-04-12T01:10:14Z</time>
      </trkpt>
      <trkpt lat="45.13293" lon="4.41862">
        <ele>1167</ele>
        <time>2018-04-12T01:11:14Z</time>
      </trkpt>
      <trkpt lat="45.13298" lon="4.41817">
        <ele>1170</ele>
        <time>2018-04-12T01:12:14Z</time>
      </trkpt>
      <trkpt lat="45.13298" lon="4.41812">
        <ele>1170</ele>
        <time>2018-04-12T01:13:14Z</time>
      </trkpt>
      <trkpt lat="45.13306" lon="4.41769">
        <ele>1172</ele>
        <time>2018-04-12T01:14:14Z</time>
      </trkpt>
      <trkpt lat="45.13336" lon="4.41621">
        <ele>1181</ele>
        <time>2018-04-12T01:15:14Z</time>
      </trkpt>
      <trkpt lat="45.1334" lon="4.41601">
        <ele>1180</ele>
        <time>2018-04-12T01:16:14Z</time>
      </trkpt>
      <trkpt lat="45.1338" lon="4.41385">
        <ele>1164</ele>
        <time>2018-04-12T01:17:14Z</time>
      </trkpt>
      <trkpt lat="45.13372" lon="4.41312">
        <ele>1164</ele>
        <time>2018-04-12T01:18:14Z</time>
      </trkpt>
      <trkpt lat="45.13364" lon="4.41296">
        <ele>1165</ele>
        <time>2018-04-12T01:19:14Z</time>
      </trkpt>
      <trkpt lat="45.13361" lon="4.41289">
        <ele>1165</ele>
        <time>2018-04-12T01:20:14Z</time>
      </trkpt>
      <trkpt lat="45.13358" lon="4.41284">
        <ele>1165</ele>
        <time>2018-04-12T01:21:14Z</time>
      </trkpt>
      <trkpt lat="45.1335" lon="4.41278">
        <ele>1166</ele>
        <time>2018-04-12T01:22:14Z</time>
      </trkpt>
      <trkpt lat="45.13332" lon="4.41273">
        <ele>1164</ele>
        <time>2018-04-12T01:23:14Z</time>
      </trkpt>
      <trkpt lat="45.13313" lon="4.41264">
        <ele>1164</ele>
        <time>2018-04-12T01:24:14Z</time>
      </trkpt>
      <trkpt lat="45.13295" lon="4.4125">
        <ele>1171</ele>
        <time>2018-04-12T01:25:14Z</time>
      </trkpt>
      <trkpt lat="45.13287" lon="4.41244">
        <ele>1172</ele>
        <time>2018-04-12T01:26:14Z</time>
      </trkpt>
      <trkpt lat="45.13271" lon="4.41232">
        <ele>1172</ele>
        <time>2018-04-12T01:27:14Z</time>
      </trkpt>
      <trkpt lat="45.13175" lon="4.41206">
        <ele>1172</ele>
        <time>2018-04-12T01:28:14Z</time>
      </trkpt>
      <trkpt lat="45.13129" lon="4.41203">
        <ele>1174</ele>
        <time>2018-04-12T01:29:14Z</time>
      </trkpt>
      <trkpt lat="45.1309" lon="4.41201">
        <ele>1174</ele>
        <time>2018-04-12T01:30:14Z</time>
      </trkpt>
      <trkpt lat="45.13056" lon="4.412">
        <ele>1175</ele>
        <time>2018-04-12T01:31:14Z</time>
      </trkpt>
      <trkpt lat="45.13027" lon="4.41202">
        <ele>1175</ele>
        <time>2018-04-12T01:32:14Z</time>
      </trkpt>
      <trkpt lat="45.13003" lon="4.41203">
        <ele>1175</ele>
        <time>2018-04-12T01:33:14Z</time>
      </trkpt>
      <trkpt lat="45.12987" lon="4.41203">
        <ele>1173</ele>
        <time>2018-04-12T01:34:14Z</time>
      </trkpt>
      <trkpt lat="45.12974" lon="4.41202">
        <ele>1173</ele>
        <time>2018-04-12T01:35:14Z</time>
      </trkpt>
      <trkpt lat="45.12963" lon="4.41199">
        <ele>1172</ele>
        <time>2018-04-12T01:36:14Z</time>
      </trkpt>
      <trkpt lat="45.12954" lon="4.41193">
        <ele>1172</ele>
        <time>2018-04-12T01:37:14Z</time>
      </trkpt>
      <trkpt lat="45.12948" lon="4.41187">
        <ele>1172</ele>
        <time>2018-04-12T01:38:14Z</time>
      </trkpt>
      <trkpt lat="45.12942" lon="4.41182">
        <ele>1172</ele>
        <time>2018-04-12T01:39:14Z</time>
      </trkpt>
      <trkpt lat="45.12939" lon="4.41178">
        <ele>1171</ele>
        <time>2018-04-12T01:40:14Z</time>
      </trkpt>
      <trkpt lat="45.12932" lon="4.41166">
        <ele>1171</ele>
        <time>2018-04-12T01:41:14Z</time>
      </trkpt>
      <trkpt lat="45.12916" lon="4.41134">
        <ele>1165</ele>
        <time>2018-04-12T01:42:14Z</time>
      </trkpt>
      <trkpt lat="45.12902" lon="4.41105">
        <ele>1165</ele>
        <time>2018-04-12T01:43:14Z</time>
      </trkpt>
      <trkpt lat="45.12859" lon="4.40924">
        <ele>1159</ele>
        <time>2018-04-12T01:44:14Z</time>
      </trkpt>
      <trkpt lat="45.12854" lon="4.40885">
        <ele>1157</ele>
        <time>2018-04-12T01:45:14Z</time>
      </trkpt>
      <trkpt lat="45.12855" lon="4.40857">
        <ele>1156</ele>
        <time>2018-04-12T01:46:14Z</time>
      </trkpt>
      <trkpt lat="45.12855" lon="4.40854">
        <ele>1155</ele>
        <time>2018-04-12T01:47:14Z</time>
      </trkpt>
      <trkpt lat="45.12859" lon="4.40822">
        <ele>1152</ele>
        <time>2018-04-12T01:48:14Z</time>
      </trkpt>
      <trkpt lat="45.12865" lon="4.40789">
        <ele>1151</ele>
        <time>2018-04-12T01:49:14Z</time>
      </trkpt>
      <trkpt lat="45.12876" lon="4.40763">
        <ele>1151</ele>
        <time>2018-04-12T01:50:14Z</time>
      </trkpt>
      <trkpt lat="45.12882" lon="4.40742">
        <ele>1151</ele>
        <time>2018-04-12T01:51:14Z</time>
      </trkpt>
      <trkpt lat="45.12882" lon="4.4073">
        <ele>1151</ele>
        <time>2018-04-12T01:52:14Z</time>
      </trkpt>
      <trkpt lat="45.12881" lon="4.40717">
        <ele>1151</ele>
        <time>2018-04-12T01:53:14Z</time>
      </trkpt>
      <trkpt lat="45.12878" lon="4.40707">
        <ele>1151</ele>
        <time>2018-04-12T01:54:14Z</time>
      </trkpt>
      <trkpt lat="45.12878" lon="4.40707">
        <ele>1151</ele>
        <time>2018-04-12T01:55:14Z</time>
      </trkpt>
      <trkpt lat="45.12868" lon="4.40702">
        <ele>1151</ele>
        <time>2018-04-12T01:56:14Z</time>
      </trkpt>
      <trkpt lat="45.12846" lon="4.40697">
        <ele>1150</ele>
        <time>2018-04-12T01:57:14Z</time>
      </trkpt>
      <trkpt lat="45.12823" lon="4.40695">
        <ele>1144</ele>
        <time>2018-04-12T01:58:14Z</time>
      </trkpt>
      <trkpt lat="45.1278" lon="4.4069">
        <ele>1142</ele>
        <time>2018-04-12T01:59:14Z</time>
      </trkpt>
      <trkpt lat="45.12738" lon="4.40684">
        <ele>1139</ele>
        <time>2018-04-12T02:00:14Z</time>
      </trkpt>
      <trkpt lat="45.12712" lon="4.4068">
        <ele>1137</ele>
        <time>2018-04-12T02:01:14Z</time>
      </trkpt>
      <trkpt lat="45.12684" lon="4.40671">
        <ele>1137</ele>
        <time>2018-04-12T02:02:14Z</time>
      </trkpt>
      <trkpt lat="45.12654" lon="4.40659">
        <ele>1139</ele>
        <time>2018-04-12T02:03:14Z</time>
      </trkpt>
      <trkpt lat="45.12624" lon="4.40638">
        <ele>1138</ele>
        <time>2018-04-12T02:04:14Z</time>
      </trkpt>
      <trkpt lat="45.12602" lon="4.40617">
        <ele>1138</ele>
        <time>2018-04-12T02:05:14Z</time>
      </trkpt>
      <trkpt lat="45.12571" lon="4.4058">
        <ele>1138</ele>
        <time>2018-04-12T02:06:14Z</time>
      </trkpt>
      <trkpt lat="45.12537" lon="4.40546">
        <ele>1134</ele>
        <time>2018-04-12T02:07:14Z</time>
      </trkpt>
      <trkpt lat="45.125" lon="4.40518">
        <ele>1129</ele>
        <time>2018-04-12T02:08:14Z</time>
      </trkpt>
      <trkpt lat="45.12448" lon="4.40479">
        <ele>1125</ele>
        <time>2018-04-12T02:09:14Z</time>
      </trkpt>
      <trkpt lat="45.12403" lon="4.40445">
        <ele>1120</ele>
        <time>2018-04-12T02:10:14Z</time>
      </trkpt>
      <trkpt lat="45.1235" lon="4.40405">
        <ele>1120</ele>
        <time>2018-04-12T02:11:14Z</time>
      </trkpt>
      <trkpt lat="45.1231" lon="4.40378">
        <ele>1118</ele>
        <time>2018-04-12T02:12:14Z</time>
      </trkpt>
      <trkpt lat="45.1231" lon="4.40378">
        <ele>1118</ele>
        <time>2018-04-12T02:13:14Z</time>
      </trkpt>
      <trkpt lat="45.12272" lon="4.40347">
        <ele>1117</ele>
        <time>2018-04-12T02:14:14Z</time>
      </trkpt>
      <trkpt lat="45.12244" lon="4.40326">
        <ele>1116</ele>
        <time>2018-04-12T02:15:14Z</time>
      </trkpt>
      <trkpt lat="45.1224" lon="4.40321">
        <ele>1116</ele>
        <time>2018-04-12T02:16:14Z</time>
      </trkpt>
      <trkpt lat="45.12196" lon="4.40289">
        <ele>1115</ele>
        <time>2018-04-12T02:17:14Z</time>
      </trkpt>
      <trkpt lat="45.1216" lon="4.40262">
        <ele>1115</ele>
        <time>2018-04-12T02:18:14Z</time>
      </trkpt>
      <trkpt lat="45.12121" lon="4.40236">
        <ele>1116</ele>
        <time>2018-04-12T02:19:14Z</time>
      </trkpt>
      <trkpt lat="45.12073" lon="4.40205">
        <ele>1116</ele>
        <time>2018-04-12T02:20:14Z</time>
      </trkpt>
      <trkpt lat="45.12039" lon="4.40183">
        <ele>1117</ele>
        <time>2018-04-12T02:21:14Z</time>
      </trkpt>
      <trkpt lat="45.12039" lon="4.40183">
        <ele>1117</ele>
        <time>2018-04-12T02:22:14Z</time>
      </trkpt>
      <trkpt lat="45.12022" lon="4.40173">
        <ele>1118</ele>
        <time>2018-04-12T02:23:14Z</time>
      </trkpt>
      <trkpt lat="45.11968" lon="4.40142">
        <ele>1123</ele>
        <time>2018-04-12T02:24:14Z</time>
      </trkpt>
      <trkpt lat="45.11941" lon="4.40128">
        <ele>1124</ele>
        <time>2018-04-12T02:25:14Z</time>
      </trkpt>
      <trkpt lat="45.11923" lon="4.40119">
        <ele>1124</ele>
        <time>2018-04-12T02:26:14Z</time>
      </trkpt>
      <trkpt lat="45.11888" lon="4.40091">
        <ele>1124</ele>
        <time>2018-04-12T02:27:14Z</time>
      </trkpt>
      <trkpt lat="45.11868" lon="4.40083">
        <ele>1126</ele>
        <time>2018-04-12T02:28:14Z</time>
      </trkpt>
      <trkpt lat="45.11857" lon="4.40078">
        <ele>1126</ele>
        <time>2018-04-12T02:29:14Z</time>
      </trkpt>
      <trkpt lat="45.11834" lon="4.40065">
        <ele>1126</ele>
        <time>2018-04-12T02:30:14Z</time>
      </trkpt>
      <trkpt lat="45.11824" lon="4.40059">
        <ele>1127</ele>
        <time>2018-04-12T02:31:14Z</time>
      </trkpt>
      <trkpt lat="45.1182" lon="4.40058">
        <ele>1127</ele>
        <time>2018-04-12T02:32:14Z</time>
      </trkpt>
      <trkpt lat="45.118" lon="4.40049">
        <ele>1127</ele>
        <time>2018-04-12T02:33:14Z</time>
      </trkpt>
      <trkpt lat="45.11762" lon="4.40033">
        <ele>1129</ele>
        <time>2018-04-12T02:34:14Z</time>
      </trkpt>
      <trkpt lat="45.11738" lon="4.40026">
        <ele>1131</ele>
        <time>2018-04-12T02:35:14Z</time>
      </trkpt>
      <trkpt lat="45.11721" lon="4.40018">
        <ele>1131</ele>
        <time>2018-04-12T02:36:14Z</time>
      </trkpt>
      <trkpt lat="45.11678" lon="4.40004">
        <ele>1133</ele>
        <time>2018-04-12T02:37:14Z</time>
      </trkpt>
      <trkpt lat="45.11658" lon="4.4">
        <ele>1134</ele>
        <time>2018-04-12T02:38:14Z</time>
      </trkpt>
      <trkpt lat="45.11616" lon="4.39985">
        <ele>1138</ele>
        <time>2018-04-12T02:39:14Z</time>
      </trkpt>
      <trkpt lat="45.11574" lon="4.39969">
        <ele>1144</ele>
        <time>2018-04-12T02:40:14Z</time>
      </trkpt>
      <trkpt lat="45.11516" lon="4.39946">
        <ele>1147</ele>
        <time>2018-04-12T02:41:14Z</time>
      </trkpt>
      <trkpt lat="45.11474" lon="4.39926">
        <ele>1147</ele>
        <time>2018-04-12T02:42:14Z</time>
      </trkpt>
      <trkpt lat="45.11463" lon="4.39919">
        <ele>1147</ele>
        <time>2018-04-12T02:43:14Z</time>
      </trkpt>
      <trkpt lat="45.11452" lon="4.39912">
        <ele>1151</ele>
        <time>2018-04-12T02:44:14Z</time>
      </trkpt>
      <trkpt lat="45.11451" lon="4.39911">
        <ele>1151</ele>
        <time>2018-04-12T02:45:14Z</time>
      </trkpt>
      <trkpt lat="45.11423" lon="4.3989">
        <ele>1150</ele>
        <time>2018-04-12T02:46:14Z</time>
      </trkpt>
      <trkpt lat="45.11401" lon="4.39872">
        <ele>1145</ele>
        <time>2018-04-12T02:47:14Z</time>
      </trkpt>
      <trkpt lat="45.11379" lon="4.39853">
        <ele>1144</ele>
        <time>2018-04-12T02:48:14Z</time>
      </trkpt>
      <trkpt lat="45.11361" lon="4.39829">
        <ele>1144</ele>
        <time>2018-04-12T02:49:14Z</time>
      </trkpt>
      <trkpt lat="45.11338" lon="4.39791">
        <ele>1144</ele>
        <time>2018-04-12T02:50:14Z</time>
      </trkpt>
      <trkpt lat="45.11324" lon="4.39767">
        <ele>1139</ele>
        <time>2018-04-12T02:51:14Z</time>
      </trkpt>
      <trkpt lat="45.11315" lon="4.39749">
        <ele>1139</ele>
        <time>2018-04-12T02:52:14Z</time>
      </trkpt>
      <trkpt lat="45.1131" lon="4.39744">
        <ele>1139</ele>
        <time>2018-04-12T02:53:14Z</time>
      </trkpt>
      <trkpt lat="45.11306" lon="4.39742">
        <ele>1138</ele>
        <time>2018-04-12T02:54:14Z</time>
      </trkpt>
      <trkpt lat="45.11306" lon="4.39742">
        <ele>1138</ele>
        <time>2018-04-12T02:55:14Z</time>
      </trkpt>
      <trkpt lat="45.11285" lon="4.39769">
        <ele>1137</ele>
        <time>2018-04-12T02:56:14Z</time>
      </trkpt>
      <trkpt lat="45.11272" lon="4.3979">
        <ele>1137</ele>
        <time>2018-04-12T02:57:14Z</time>
      </trkpt>
      <trkpt lat="45.11263" lon="4.3981">
        <ele>1136</ele>
        <time>2018-04-12T02:58:14Z</time>
      </trkpt>
      <trkpt lat="45.11256" lon="4.39833">
        <ele>1134</ele>
        <time>2018-04-12T02:59:14Z</time>
      </trkpt>
      <trkpt lat="45.11252" lon="4.39853">
        <ele>1134</ele>
        <time>2018-04-12T03:00:14Z</time>
      </trkpt>
      <trkpt lat="45.11252" lon="4.39858">
        <ele>1134</ele>
        <time>2018-04-12T03:01:14Z</time>
      </trkpt>
      <trkpt lat="45.11249" lon="4.3989">
        <ele>1130</ele>
        <time>2018-04-12T03:02:14Z</time>
      </trkpt>
      <trkpt lat="45.11249" lon="4.39934">
        <ele>1130</ele>
        <time>2018-04-12T03:03:14Z</time>
      </trkpt>
      <trkpt lat="45.11249" lon="4.39934">
        <ele>1130</ele>
        <time>2018-04-12T03:04:14Z</time>
      </trkpt>
      <trkpt lat="45.11248" lon="4.39948">
        <ele>1130</ele>
        <time>2018-04-12T03:05:14Z</time>
      </trkpt>
      <trkpt lat="45.11249" lon="4.39978">
        <ele>1131</ele>
        <time>2018-04-12T03:06:14Z</time>
      </trkpt>
      <trkpt lat="45.11249" lon="4.40011">
        <ele>1133</ele>
        <time>2018-04-12T03:07:14Z</time>
      </trkpt>
      <trkpt lat="45.11248" lon="4.4005">
        <ele>1132</ele>
        <time>2018-04-12T03:08:14Z</time>
      </trkpt>
      <trkpt lat="45.11241" lon="4.4009">
        <ele>1133</ele>
        <time>2018-04-12T03:09:14Z</time>
      </trkpt>
      <trkpt lat="45.11233" lon="4.40128">
        <ele>1130</ele>
        <time>2018-04-12T03:10:14Z</time>
      </trkpt>
      <trkpt lat="45.11223" lon="4.4016">
        <ele>1129</ele>
        <time>2018-04-12T03:11:14Z</time>
      </trkpt>
      <trkpt lat="45.11213" lon="4.40181">
        <ele>1127</ele>
        <time>2018-04-12T03:12:14Z</time>
      </trkpt>
      <trkpt lat="45.1119" lon="4.40234">
        <ele>1124</ele>
        <time>2018-04-12T03:13:14Z</time>
      </trkpt>
      <trkpt lat="45.11175" lon="4.40262">
        <ele>1122</ele>
        <time>2018-04-12T03:14:14Z</time>
      </trkpt>
      <trkpt lat="45.11168" lon="4.40283">
        <ele>1123</ele>
        <time>2018-04-12T03:15:14Z</time>
      </trkpt>
      <trkpt lat="45.11161" lon="4.40306">
        <ele>1120</ele>
        <time>2018-04-12T03:16:14Z</time>
      </trkpt>
      <trkpt lat="45.11152" lon="4.40345">
        <ele>1120</ele>
        <time>2018-04-12T03:17:14Z</time>
      </trkpt>
      <trkpt lat="45.1114" lon="4.40398">
        <ele>1120</ele>
        <time>2018-04-12T03:18:14Z</time>
      </trkpt>
      <trkpt lat="45.11137" lon="4.40427">
        <ele>1118</ele>
        <time>2018-04-12T03:19:14Z</time>
      </trkpt>
      <trkpt lat="45.11134" lon="4.4047">
        <ele>1117</ele>
        <time>2018-04-12T03:20:14Z</time>
      </trkpt>
      <trkpt lat="45.11129" lon="4.40497">
        <ele>1117</ele>
        <time>2018-04-12T03:21:14Z</time>
      </trkpt>
      <trkpt lat="45.11125" lon="4.4052">
        <ele>1114</ele>
        <time>2018-04-12T03:22:14Z</time>
      </trkpt>
      <trkpt lat="45.1112" lon="4.40535">
        <ele>1114</ele>
        <time>2018-04-12T03:23:14Z</time>
      </trkpt>
      <trkpt lat="45.11118" lon="4.40543">
        <ele>1114</ele>
        <time>2018-04-12T03:24:14Z</time>
      </trkpt>
      <trkpt lat="45.11112" lon="4.40562">
        <ele>1113</ele>
        <time>2018-04-12T03:25:14Z</time>
      </trkpt>
      <trkpt lat="45.11112" lon="4.40562">
        <ele>1113</ele>
        <time>2018-04-12T03:26:14Z</time>
      </trkpt>
      <trkpt lat="45.111" lon="4.40562">
        <ele>1113</ele>
        <time>2018-04-12T03:27:14Z</time>
      </trkpt>
      <trkpt lat="45.11085" lon="4.40566">
        <ele>1113</ele>
        <time>2018-04-12T03:28:14Z</time>
      </trkpt>
      <trkpt lat="45.11063" lon="4.40574">
        <ele>1115</ele>
        <time>2018-04-12T03:29:14Z</time>
      </trkpt>
      <trkpt lat="45.11042" lon="4.40586">
        <ele>1118</ele>
        <time>2018-04-12T03:30:14Z</time>
      </trkpt>
      <trkpt lat="45.11034" lon="4.4059">
        <ele>1118</ele>
        <time>2018-04-12T03:31:14Z</time>
      </trkpt>
      <trkpt lat="45.11028" lon="4.40592">
        <ele>1119</ele>
        <time>2018-04-12T03:32:14Z</time>
      </trkpt>
      <trkpt lat="45.11022" lon="4.40594">
        <ele>1119</ele>
        <time>2018-04-12T03:33:14Z</time>
      </trkpt>
      <trkpt lat="45.11011" lon="4.40599">
        <ele>1120</ele>
        <time>2018-04-12T03:34:14Z</time>
      </trkpt>
      <trkpt lat="45.10997" lon="4.40603">
        <ele>1123</ele>
        <time>2018-04-12T03:35:14Z</time>
      </trkpt>
      <trkpt lat="45.10977" lon="4.40605">
        <ele>1124</ele>
        <time>2018-04-12T03:36:14Z</time>
      </trkpt>
      <trkpt lat="45.10977" lon="4.40605">
        <ele>1124</ele>
        <time>2018-04-12T03:37:14Z</time>
      </trkpt>
      <trkpt lat="45.10975" lon="4.40613">
        <ele>1124</ele>
        <time>2018-04-12T03:38:14Z</time>
      </trkpt>
      <trkpt lat="45.10974" lon="4.40615">
        <ele>1124</ele>
        <time>2018-04-12T03:39:14Z</time>
      </trkpt>
      <trkpt lat="45.10973" lon="4.40617">
        <ele>1125</ele>
        <time>2018-04-12T03:40:14Z</time>
      </trkpt>
      <trkpt lat="45.10972" lon="4.40619">
        <ele>1125</ele>
        <time>2018-04-12T03:41:14Z</time>
      </trkpt>
      <trkpt lat="45.1097" lon="4.4062">
        <ele>1125</ele>
        <time>2018-04-12T03:42:14Z</time>
      </trkpt>
      <trkpt lat="45.10965" lon="4.40622">
        <ele>1125</ele>
        <time>2018-04-12T03:43:14Z</time>
      </trkpt>
      <trkpt lat="45.10959" lon="4.40625">
        <ele>1125</ele>
        <time>2018-04-12T03:44:14Z</time>
      </trkpt>
      <trkpt lat="45.1095" lon="4.40628">
        <ele>1125</ele>
        <time>2018-04-12T03:45:14Z</time>
      </trkpt>
      <trkpt lat="45.10905" lon="4.40645">
        <ele>1128</ele>
        <time>2018-04-12T03:46:14Z</time>
      </trkpt>
      <trkpt lat="45.10849" lon="4.40663">
        <ele>1130</ele>
        <time>2018-04-12T03:47:14Z</time>
      </trkpt>
      <trkpt lat="45.10802" lon="4.4068">
        <ele>1132</ele>
        <time>2018-04-12T03:48:14Z</time>
      </trkpt>
      <trkpt lat="45.10757" lon="4.40692">
        <ele>1134</ele>
        <time>2018-04-12T03:49:14Z</time>
      </trkpt>
      <trkpt lat="45.10702" lon="4.40706">
        <ele>1138</ele>
        <time>2018-04-12T03:50:14Z</time>
      </trkpt>
      <trkpt lat="45.10683" lon="4.40711">
        <ele>1138</ele>
        <time>2018-04-12T03:51:14Z</time>
      </trkpt>
      <trkpt lat="45.10671" lon="4.4071">
        <ele>1138</ele>
        <time>2018-04-12T03:52:14Z</time>
      </trkpt>
      <trkpt lat="45.10581" lon="4.40698">
        <ele>1146</ele>
        <time>2018-04-12T03:53:14Z</time>
      </trkpt>
      <trkpt lat="45.10523" lon="4.40679">
        <ele>1148</ele>
        <time>2018-04-12T03:54:14Z</time>
      </trkpt>
      <trkpt lat="45.10477" lon="4.4065">
        <ele>1153</ele>
        <time>2018-04-12T03:55:14Z</time>
      </trkpt>
      <trkpt lat="45.10433" lon="4.40622">
        <ele>1155</ele>
        <time>2018-04-12T03:56:14Z</time>
      </trkpt>
      <trkpt lat="45.1041" lon="4.40612">
        <ele>1156</ele>
        <time>2018-04-12T03:57:14Z</time>
      </trkpt>
      <trkpt lat="45.1039" lon="4.406">
        <ele>1156</ele>
        <time>2018-04-12T03:58:14Z</time>
      </trkpt>
      <trkpt lat="45.10364" lon="4.40582">
        <ele>1157</ele>
        <time>2018-04-12T03:59:14Z</time>
      </trkpt>
      <trkpt lat="45.10336" lon="4.40565">
        <ele>1156</ele>
        <time>2018-04-12T04:00:14Z</time>
      </trkpt>
      <trkpt lat="45.10313" lon="4.40552">
        <ele>1156</ele>
        <time>2018-04-12T04:01:14Z</time>
      </trkpt>
      <trkpt lat="45.10294" lon="4.40543">
        <ele>1157</ele>
        <time>2018-04-12T04:02:14Z</time>
      </trkpt>
      <trkpt lat="45.10267" lon="4.4053">
        <ele>1157</ele>
        <time>2018-04-12T04:03:14Z</time>
      </trkpt>
      <trkpt lat="45.10249" lon="4.40519">
        <ele>1158</ele>
        <time>2018-04-12T04:04:14Z</time>
      </trkpt>
      <trkpt lat="45.10249" lon="4.40519">
        <ele>1158</ele>
        <time>2018-04-12T04:05:14Z</time>
      </trkpt>
      <trkpt lat="45.10243" lon="4.40515">
        <ele>1158</ele>
        <time>2018-04-12T04:06:14Z</time>
      </trkpt>
      <trkpt lat="45.10218" lon="4.40497">
        <ele>1162</ele>
        <time>2018-04-12T04:07:14Z</time>
      </trkpt>
      <trkpt lat="45.10197" lon="4.4048">
        <ele>1162</ele>
        <time>2018-04-12T04:08:14Z</time>
      </trkpt>
      <trkpt lat="45.10176" lon="4.40462">
        <ele>1163</ele>
        <time>2018-04-12T04:09:14Z</time>
      </trkpt>
      <trkpt lat="45.10149" lon="4.40445">
        <ele>1162</ele>
        <time>2018-04-12T04:10:14Z</time>
      </trkpt>
      <trkpt lat="45.10113" lon="4.40426">
        <ele>1162</ele>
        <time>2018-04-12T04:11:14Z</time>
      </trkpt>
      <trkpt lat="45.10076" lon="4.40412">
        <ele>1162</ele>
        <time>2018-04-12T04:12:14Z</time>
      </trkpt>
      <trkpt lat="45.10042" lon="4.40396">
        <ele>1162</ele>
        <time>2018-04-12T04:13:14Z</time>
      </trkpt>
      <trkpt lat="45.10026" lon="4.40387">
        <ele>1162</ele>
        <time>2018-04-12T04:14:14Z</time>
      </trkpt>
      <trkpt lat="45.0997" lon="4.40357">
        <ele>1162</ele>
        <time>2018-04-12T04:15:14Z</time>
      </trkpt>
      <trkpt lat="45.09931" lon="4.40337">
        <ele>1164</ele>
        <time>2018-04-12T04:16:14Z</time>
      </trkpt>
      <trkpt lat="45.09895" lon="4.40318">
        <ele>1167</ele>
        <time>2018-04-12T04:17:14Z</time>
      </trkpt>
      <trkpt lat="45.09822" lon="4.40277">
        <ele>1167</ele>
        <time>2018-04-12T04:18:14Z</time>
      </trkpt>
      <trkpt lat="45.09784" lon="4.40262">
        <ele>1166</ele>
        <time>2018-04-12T04:19:14Z</time>
      </trkpt>
      <trkpt lat="45.09784" lon="4.40262">
        <ele>1166</ele>
        <time>2018-04-12T04:20:14Z</time>
      </trkpt>
      <trkpt lat="45.09769" lon="4.40254">
        <ele>1165</ele>
        <time>2018-04-12T04:21:14Z</time>
      </trkpt>
      <trkpt lat="45.09757" lon="4.40248">
        <ele>1164</ele>
        <time>2018-04-12T04:22:14Z</time>
      </trkpt>
      <trkpt lat="45.09744" lon="4.4024">
        <ele>1163</ele>
        <time>2018-04-12T04:23:14Z</time>
      </trkpt>
      <trkpt lat="45.09727" lon="4.40226">
        <ele>1163</ele>
        <time>2018-04-12T04:24:14Z</time>
      </trkpt>
      <trkpt lat="45.09705" lon="4.40209">
        <ele>1163</ele>
        <time>2018-04-12T04:25:14Z</time>
      </trkpt>
      <trkpt lat="45.09688" lon="4.40194">
        <ele>1162</ele>
        <time>2018-04-12T04:26:14Z</time>
      </trkpt>
      <trkpt lat="45.09669" lon="4.40175">
        <ele>1162</ele>
        <time>2018-04-12T04:27:14Z</time>
      </trkpt>
      <trkpt lat="45.09652" lon="4.40153">
        <ele>1162</ele>
        <time>2018-04-12T04:28:14Z</time>
      </trkpt>
      <trkpt lat="45.09632" lon="4.4012">
        <ele>1162</ele>
        <time>2018-04-12T04:29:14Z</time>
      </trkpt>
      <trkpt lat="45.09622" lon="4.40104">
        <ele>1163</ele>
        <time>2018-04-12T04:30:14Z</time>
      </trkpt>
      <trkpt lat="45.0961" lon="4.40081">
        <ele>1162</ele>
        <time>2018-04-12T04:31:14Z</time>
      </trkpt>
      <trkpt lat="45.09596" lon="4.40051">
        <ele>1162</ele>
        <time>2018-04-12T04:32:14Z</time>
      </trkpt>
      <trkpt lat="45.09584" lon="4.4003">
        <ele>1163</ele>
        <time>2018-04-12T04:33:14Z</time>
      </trkpt>
      <trkpt lat="45.0957" lon="4.40006">
        <ele>1164</ele>
        <time>2018-04-12T04:34:14Z</time>
      </trkpt>
      <trkpt lat="45.09551" lon="4.39974">
        <ele>1167</ele>
        <time>2018-04-12T04:35:14Z</time>
      </trkpt>
      <trkpt lat="45.09538" lon="4.39954">
        <ele>1167</ele>
        <time>2018-04-12T04:36:14Z</time>
      </trkpt>
      <trkpt lat="45.09538" lon="4.39954">
        <ele>1167</ele>
        <time>2018-04-12T04:37:14Z</time>
      </trkpt>
      <trkpt lat="45.09536" lon="4.39933">
        <ele>1167</ele>
        <time>2018-04-12T04:38:14Z</time>
      </trkpt>
      <trkpt lat="45.09534" lon="4.39921">
        <ele>1168</ele>
        <time>2018-04-12T04:39:14Z</time>
      </trkpt>
      <trkpt lat="45.09533" lon="4.39908">
        <ele>1169</ele>
        <time>2018-04-12T04:40:14Z</time>
      </trkpt>
      <trkpt lat="45.09534" lon="4.39898">
        <ele>1170</ele>
        <time>2018-04-12T04:41:14Z</time>
      </trkpt>
      <trkpt lat="45.09534" lon="4.39898">
        <ele>1170</ele>
        <time>2018-04-12T04:42:14Z</time>
      </trkpt>
      <trkpt lat="45.09527" lon="4.39887">
        <ele>1170</ele>
        <time>2018-04-12T04:43:14Z</time>
      </trkpt>
      <trkpt lat="45.09501" lon="4.39845">
        <ele>1171</ele>
        <time>2018-04-12T04:44:14Z</time>
      </trkpt>
      <trkpt lat="45.09497" lon="4.39836">
        <ele>1171</ele>
        <time>2018-04-12T04:45:14Z</time>
      </trkpt>
      <trkpt lat="45.09493" lon="4.39829">
        <ele>1171</ele>
        <time>2018-04-12T04:46:14Z</time>
      </trkpt>
      <trkpt lat="45.09487" lon="4.39818">
        <ele>1172</ele>
        <time>2018-04-12T04:47:14Z</time>
      </trkpt>
      <trkpt lat="45.0948" lon="4.39806">
        <ele>1172</ele>
        <time>2018-04-12T04:48:14Z</time>
      </trkpt>
      <trkpt lat="45.09475" lon="4.39799">
        <ele>1172</ele>
        <time>2018-04-12T04:49:14Z</time>
      </trkpt>
      <trkpt lat="45.09467" lon="4.39789">
        <ele>1172</ele>
        <time>2018-04-12T04:50:14Z</time>
      </trkpt>
      <trkpt lat="45.09462" lon="4.39783">
        <ele>1173</ele>
        <time>2018-04-12T04:51:14Z</time>
      </trkpt>
      <trkpt lat="45.09455" lon="4.39775">
        <ele>1173</ele>
        <time>2018-04-12T04:52:14Z</time>
      </trkpt>
      <trkpt lat="45.09437" lon="4.3976">
        <ele>1173</ele>
        <time>2018-04-12T04:53:14Z</time>
      </trkpt>
      <trkpt lat="45.09431" lon="4.39754">
        <ele>1174</ele>
        <time>2018-04-12T04:54:14Z</time>
      </trkpt>
      <trkpt lat="45.09404" lon="4.39728">
        <ele>1175</ele>
        <time>2018-04-12T04:55:14Z</time>
      </trkpt>
      <trkpt lat="45.09404" lon="4.39728">
        <ele>1175</ele>
        <time>2018-04-12T04:56:14Z</time>
      </trkpt>
      <trkpt lat="45.09401" lon="4.3972">
        <ele>1175</ele>
        <time>2018-04-12T04:57:14Z</time>
      </trkpt>
      <trkpt lat="45.09399" lon="4.39713">
        <ele>1175</ele>
        <time>2018-04-12T04:58:14Z</time>
      </trkpt>
      <trkpt lat="45.09397" lon="4.39706">
        <ele>1175</ele>
        <time>2018-04-12T04:59:14Z</time>
      </trkpt>
      <trkpt lat="45.09389" lon="4.39674">
        <ele>1176</ele>
        <time>2018-04-12T05:00:14Z</time>
      </trkpt>
      <trkpt lat="45.09389" lon="4.39674">
        <ele>1176</ele>
        <time>2018-04-12T05:01:14Z</time>
      </trkpt>
      <trkpt lat="45.09476" lon="4.39611">
        <ele>1178</ele>
        <time>2018-04-12T05:02:14Z</time>
      </trkpt>
      <trkpt lat="45.0952" lon="4.39588">
        <ele>1178</ele>
        <time>2018-04-12T05:03:14Z</time>
      </trkpt>
      <trkpt lat="45.0957" lon="4.3956">
        <ele>1177</ele>
        <time>2018-04-12T05:04:14Z</time>
      </trkpt>
      <trkpt lat="45.0957" lon="4.3956">
        <ele>1177</ele>
        <time>2018-04-12T05:05:14Z</time>
      </trkpt>
      <trkpt lat="45.09563" lon="4.3958">
        <ele>1177</ele>
        <time>2018-04-12T05:06:14Z</time>
      </trkpt>
      <trkpt lat="45.09557" lon="4.39599">
        <ele>1175</ele>
        <time>2018-04-12T05:07:14Z</time>
      </trkpt>
      <trkpt lat="45.09549" lon="4.39625">
        <ele>1175</ele>
        <time>2018-04-12T05:08:14Z</time>
      </trkpt>
      <trkpt lat="45.09539" lon="4.39656">
        <ele>1175</ele>
        <time>2018-04-12T05:09:14Z</time>
      </trkpt>
      <trkpt lat="45.09534" lon="4.3968">
        <ele>1173</ele>
        <time>2018-04-12T05:10:14Z</time>
      </trkpt>
      <trkpt lat="45.09531" lon="4.39701">
        <ele>1173</ele>
        <time>2018-04-12T05:11:14Z</time>
      </trkpt>
      <trkpt lat="45.0953" lon="4.39713">
        <ele>1173</ele>
        <time>2018-04-12T05:12:14Z</time>
      </trkpt>
      <trkpt lat="45.0953" lon="4.39724">
        <ele>1173</ele>
        <time>2018-04-12T05:13:14Z</time>
      </trkpt>
      <trkpt lat="45.0953" lon="4.3973">
        <ele>1173</ele>
        <time>2018-04-12T05:14:14Z</time>
      </trkpt>
      <trkpt lat="45.09531" lon="4.39747">
        <ele>1172</ele>
        <time>2018-04-12T05:15:14Z</time>
      </trkpt>
      <trkpt lat="45.09531" lon="4.3975">
        <ele>1172</ele>
        <time>2018-04-12T05:16:14Z</time>
      </trkpt>
      <trkpt lat="45.09529" lon="4.39763">
        <ele>1172</ele>
        <time>2018-04-12T05:17:14Z</time>
      </trkpt>
      <trkpt lat="45.09528" lon="4.39769">
        <ele>1172</ele>
        <time>2018-04-12T05:18:14Z</time>
      </trkpt>
      <trkpt lat="45.09528" lon="4.39775">
        <ele>1172</ele>
        <time>2018-04-12T05:19:14Z</time>
      </trkpt>
      <trkpt lat="45.09526" lon="4.39781">
        <ele>1172</ele>
        <time>2018-04-12T05:20:14Z</time>
      </trkpt>
      <trkpt lat="45.09524" lon="4.39786">
        <ele>1172</ele>
        <time>2018-04-12T05:21:14Z</time>
      </trkpt>
      <trkpt lat="45.09524" lon="4.39792">
        <ele>1172</ele>
        <time>2018-04-12T05:22:14Z</time>
      </trkpt>
      <trkpt lat="45.09524" lon="4.39796">
        <ele>1172</ele>
        <time>2018-04-12T05:23:14Z</time>
      </trkpt>
      <trkpt lat="45.09524" lon="4.39804">
        <ele>1172</ele>
        <time>2018-04-12T05:24:14Z</time>
      </trkpt>
      <trkpt lat="45.09529" lon="4.39829">
        <ele>1171</ele>
        <time>2018-04-12T05:25:14Z</time>
      </trkpt>
      <trkpt lat="45.09531" lon="4.39853">
        <ele>1170</ele>
        <time>2018-04-12T05:26:14Z</time>
      </trkpt>
      <trkpt lat="45.09533" lon="4.39879">
        <ele>1170</ele>
        <time>2018-04-12T05:27:14Z</time>
      </trkpt>
      <trkpt lat="45.09534" lon="4.39898">
        <ele>1170</ele>
        <time>2018-04-12T05:28:14Z</time>
      </trkpt>
      <trkpt lat="45.09534" lon="4.39898">
        <ele>1170</ele>
        <time>2018-04-12T05:29:14Z</time>
      </trkpt>
      <trkpt lat="45.09527" lon="4.39887">
        <ele>1170</ele>
        <time>2018-04-12T05:30:14Z</time>
      </trkpt>
      <trkpt lat="45.09501" lon="4.39845">
        <ele>1171</ele>
        <time>2018-04-12T05:31:14Z</time>
      </trkpt>
      <trkpt lat="45.09497" lon="4.39836">
        <ele>1171</ele>
        <time>2018-04-12T05:32:14Z</time>
      </trkpt>
      <trkpt lat="45.09493" lon="4.39829">
        <ele>1171</ele>
        <time>2018-04-12T05:33:14Z</time>
      </trkpt>
      <trkpt lat="45.09487" lon="4.39818">
        <ele>1172</ele>
        <time>2018-04-12T05:34:14Z</time>
      </trkpt>
      <trkpt lat="45.0948" lon="4.39806">
        <ele>1172</ele>
        <time>2018-04-12T05:35:14Z</time>
      </trkpt>
      <trkpt lat="45.09475" lon="4.39799">
        <ele>1172</ele>
        <time>2018-04-12T05:36:14Z</time>
      </trkpt>
      <trkpt lat="45.09467" lon="4.39789">
        <ele>1172</ele>
        <time>2018-04-12T05:37:14Z</time>
      </trkpt>
      <trkpt lat="45.09462" lon="4.39783">
        <ele>1173</ele>
        <time>2018-04-12T05:38:14Z</time>
      </trkpt>
      <trkpt lat="45.09455" lon="4.39775">
        <ele>1173</ele>
        <time>2018-04-12T05:39:14Z</time>
      </trkpt>
      <trkpt lat="45.09437" lon="4.3976">
        <ele>1173</ele>
        <time>2018-04-12T05:40:14Z</time>
      </trkpt>
      <trkpt lat="45.09431" lon="4.39754">
        <ele>1174</ele>
        <time>2018-04-12T05:41:14Z</time>
      </trkpt>
      <trkpt lat="45.09404" lon="4.39728">
        <ele>1175</ele>
        <time>2018-04-12T05:42:14Z</time>
      </trkpt>
      <trkpt lat="45.09404" lon="4.39728">
        <ele>1175</ele>
        <time>2018-04-12T05:43:14Z</time>
      </trkpt>
      <trkpt lat="45.09401" lon="4.3972">
        <ele>1175</ele>
        <time>2018-04-12T05:44:14Z</time>
      </trkpt>
      <trkpt lat="45.09399" lon="4.39713">
        <ele>1175</ele>
        <time>2018-04-12T05:45:14Z</time>
      </trkpt>
      <trkpt lat="45.09397" lon="4.39706">
        <ele>1175</ele>
        <time>2018-04-12T05:46:14Z</time>
      </trkpt>
      <trkpt lat="45.09389" lon="4.39674">
        <ele>1176</ele>
        <time>2018-04-12T05:47:14Z</time>
      </trkpt>
      <trkpt lat="45.09369" lon="4.39639">
        <ele>1177</ele>
        <time>2018-04-12T05:48:14Z</time>
      </trkpt>
      <trkpt lat="45.09332" lon="4.39572">
        <ele>1179</ele>
        <time>2018-04-12T05:49:14Z</time>
      </trkpt>
      <trkpt lat="45.09315" lon="4.3954">
        <ele>1181</ele>
        <time>2018-04-12T05:50:14Z</time>
      </trkpt>
      <trkpt lat="45.09303" lon="4.39521">
        <ele>1181</ele>
        <time>2018-04-12T05:51:14Z</time>
      </trkpt>
      <trkpt lat="45.09291" lon="4.39496">
        <ele>1183</ele>
        <time>2018-04-12T05:52:14Z</time>
      </trkpt>
      <trkpt lat="45.09279" lon="4.39471">
        <ele>1183</ele>
        <time>2018-04-12T05:53:14Z</time>
      </trkpt>
      <trkpt lat="45.0926" lon="4.39437">
        <ele>1184</ele>
        <time>2018-04-12T05:54:14Z</time>
      </trkpt>
      <trkpt lat="45.09248" lon="4.39411">
        <ele>1186</ele>
        <time>2018-04-12T05:55:14Z</time>
      </trkpt>
      <trkpt lat="45.09233" lon="4.39383">
        <ele>1187</ele>
        <time>2018-04-12T05:56:14Z</time>
      </trkpt>
      <trkpt lat="45.09216" lon="4.39352">
        <ele>1188</ele>
        <time>2018-04-12T05:57:14Z</time>
      </trkpt>
      <trkpt lat="45.09195" lon="4.39313">
        <ele>1189</ele>
        <time>2018-04-12T05:58:14Z</time>
      </trkpt>
      <trkpt lat="45.0918" lon="4.39284">
        <ele>1190</ele>
        <time>2018-04-12T05:59:14Z</time>
      </trkpt>
      <trkpt lat="45.09154" lon="4.39238">
        <ele>1192</ele>
        <time>2018-04-12T06:00:14Z</time>
      </trkpt>
      <trkpt lat="45.09132" lon="4.39195">
        <ele>1193</ele>
        <time>2018-04-12T06:01:14Z</time>
      </trkpt>
      <trkpt lat="45.09109" lon="4.39152">
        <ele>1193</ele>
        <time>2018-04-12T06:02:14Z</time>
      </trkpt>
      <trkpt lat="45.09094" lon="4.39122">
        <ele>1193</ele>
        <time>2018-04-12T06:03:14Z</time>
      </trkpt>
      <trkpt lat="45.09076" lon="4.3909">
        <ele>1195</ele>
        <time>2018-04-12T06:04:14Z</time>
      </trkpt>
      <trkpt lat="45.09061" lon="4.3906">
        <ele>1197</ele>
        <time>2018-04-12T06:05:14Z</time>
      </trkpt>
      <trkpt lat="45.09047" lon="4.39033">
        <ele>1199</ele>
        <time>2018-04-12T06:06:14Z</time>
      </trkpt>
      <trkpt lat="45.09036" lon="4.39008">
        <ele>1199</ele>
        <time>2018-04-12T06:07:14Z</time>
      </trkpt>
      <trkpt lat="45.09029" lon="4.38987">
        <ele>1203</ele>
        <time>2018-04-12T06:08:14Z</time>
      </trkpt>
      <trkpt lat="45.09029" lon="4.38981">
        <ele>1203</ele>
        <time>2018-04-12T06:09:14Z</time>
      </trkpt>
      <trkpt lat="45.09028" lon="4.38977">
        <ele>1203</ele>
        <time>2018-04-12T06:10:14Z</time>
      </trkpt>
      <trkpt lat="45.09026" lon="4.3897">
        <ele>1203</ele>
        <time>2018-04-12T06:11:14Z</time>
      </trkpt>
      <trkpt lat="45.09018" lon="4.38942">
        <ele>1204</ele>
        <time>2018-04-12T06:12:14Z</time>
      </trkpt>
      <trkpt lat="45.09011" lon="4.38918">
        <ele>1205</ele>
        <time>2018-04-12T06:13:14Z</time>
      </trkpt>
      <trkpt lat="45.09008" lon="4.38907">
        <ele>1207</ele>
        <time>2018-04-12T06:14:14Z</time>
      </trkpt>
      <trkpt lat="45.09003" lon="4.38887">
        <ele>1208</ele>
        <time>2018-04-12T06:15:14Z</time>
      </trkpt>
      <trkpt lat="45.08995" lon="4.38855">
        <ele>1208</ele>
        <time>2018-04-12T06:16:14Z</time>
      </trkpt>
      <trkpt lat="45.08986" lon="4.3882">
        <ele>1207</ele>
        <time>2018-04-12T06:17:14Z</time>
      </trkpt>
      <trkpt lat="45.08975" lon="4.38775">
        <ele>1206</ele>
        <time>2018-04-12T06:18:14Z</time>
      </trkpt>
      <trkpt lat="45.08963" lon="4.38726">
        <ele>1204</ele>
        <time>2018-04-12T06:19:14Z</time>
      </trkpt>
      <trkpt lat="45.08953" lon="4.38697">
        <ele>1203</ele>
        <time>2018-04-12T06:20:14Z</time>
      </trkpt>
      <trkpt lat="45.08943" lon="4.38671">
        <ele>1202</ele>
        <time>2018-04-12T06:21:14Z</time>
      </trkpt>
      <trkpt lat="45.08936" lon="4.38647">
        <ele>1202</ele>
        <time>2018-04-12T06:22:14Z</time>
      </trkpt>
      <trkpt lat="45.08927" lon="4.38616">
        <ele>1202</ele>
        <time>2018-04-12T06:23:14Z</time>
      </trkpt>
      <trkpt lat="45.08922" lon="4.38601">
        <ele>1201</ele>
        <time>2018-04-12T06:24:14Z</time>
      </trkpt>
      <trkpt lat="45.08915" lon="4.38582">
        <ele>1200</ele>
        <time>2018-04-12T06:25:14Z</time>
      </trkpt>
      <trkpt lat="45.08907" lon="4.38566">
        <ele>1200</ele>
        <time>2018-04-12T06:26:14Z</time>
      </trkpt>
      <trkpt lat="45.08897" lon="4.38549">
        <ele>1201</ele>
        <time>2018-04-12T06:27:14Z</time>
      </trkpt>
      <trkpt lat="45.08884" lon="4.38532">
        <ele>1201</ele>
        <time>2018-04-12T06:28:14Z</time>
      </trkpt>
      <trkpt lat="45.08865" lon="4.38511">
        <ele>1201</ele>
        <time>2018-04-12T06:29:14Z</time>
      </trkpt>
      <trkpt lat="45.08845" lon="4.38494">
        <ele>1202</ele>
        <time>2018-04-12T06:30:14Z</time>
      </trkpt>
      <trkpt lat="45.08817" lon="4.38476">
        <ele>1200</ele>
        <time>2018-04-12T06:31:14Z</time>
      </trkpt>
      <trkpt lat="45.08786" lon="4.38453">
        <ele>1199</ele>
        <time>2018-04-12T06:32:14Z</time>
      </trkpt>
      <trkpt lat="45.0876" lon="4.38437">
        <ele>1198</ele>
        <time>2018-04-12T06:33:14Z</time>
      </trkpt>
      <trkpt lat="45.08732" lon="4.38424">
        <ele>1197</ele>
        <time>2018-04-12T06:34:14Z</time>
      </trkpt>
      <trkpt lat="45.08697" lon="4.38411">
        <ele>1196</ele>
        <time>2018-04-12T06:35:14Z</time>
      </trkpt>
      <trkpt lat="45.08659" lon="4.38398">
        <ele>1195</ele>
        <time>2018-04-12T06:36:14Z</time>
      </trkpt>
      <trkpt lat="45.08638" lon="4.3839">
        <ele>1195</ele>
        <time>2018-04-12T06:37:14Z</time>
      </trkpt>
      <trkpt lat="45.08618" lon="4.38383">
        <ele>1194</ele>
        <time>2018-04-12T06:38:14Z</time>
      </trkpt>
      <trkpt lat="45.08599" lon="4.38377">
        <ele>1194</ele>
        <time>2018-04-12T06:39:14Z</time>
      </trkpt>
      <trkpt lat="45.08584" lon="4.38373">
        <ele>1194</ele>
        <time>2018-04-12T06:40:14Z</time>
      </trkpt>
      <trkpt lat="45.08575" lon="4.3837">
        <ele>1192</ele>
        <time>2018-04-12T06:41:14Z</time>
      </trkpt>
      <trkpt lat="45.08562" lon="4.38364">
        <ele>1192</ele>
        <time>2018-04-12T06:42:14Z</time>
      </trkpt>
      <trkpt lat="45.08552" lon="4.38361">
        <ele>1192</ele>
        <time>2018-04-12T06:43:14Z</time>
      </trkpt>
      <trkpt lat="45.0854" lon="4.38361">
        <ele>1192</ele>
        <time>2018-04-12T06:44:14Z</time>
      </trkpt>
      <trkpt lat="45.0852" lon="4.38361">
        <ele>1192</ele>
        <time>2018-04-12T06:45:14Z</time>
      </trkpt>
      <trkpt lat="45.08508" lon="4.38358">
        <ele>1191</ele>
        <time>2018-04-12T06:46:14Z</time>
      </trkpt>
      <trkpt lat="45.08493" lon="4.38359">
        <ele>1192</ele>
        <time>2018-04-12T06:47:14Z</time>
      </trkpt>
      <trkpt lat="45.08479" lon="4.38363">
        <ele>1192</ele>
        <time>2018-04-12T06:48:14Z</time>
      </trkpt>
      <trkpt lat="45.08473" lon="4.38367">
        <ele>1192</ele>
        <time>2018-04-12T06:49:14Z</time>
      </trkpt>
      <trkpt lat="45.08464" lon="4.38373">
        <ele>1193</ele>
        <time>2018-04-12T06:50:14Z</time>
      </trkpt>
      <trkpt lat="45.08442" lon="4.38383">
        <ele>1193</ele>
        <time>2018-04-12T06:51:14Z</time>
      </trkpt>
      <trkpt lat="45.08411" lon="4.38398">
        <ele>1195</ele>
        <time>2018-04-12T06:52:14Z</time>
      </trkpt>
      <trkpt lat="45.08373" lon="4.38416">
        <ele>1196</ele>
        <time>2018-04-12T06:53:14Z</time>
      </trkpt>
      <trkpt lat="45.08348" lon="4.38427">
        <ele>1197</ele>
        <time>2018-04-12T06:54:14Z</time>
      </trkpt>
      <trkpt lat="45.08327" lon="4.38436">
        <ele>1199</ele>
        <time>2018-04-12T06:55:14Z</time>
      </trkpt>
      <trkpt lat="45.08301" lon="4.38446">
        <ele>1200</ele>
        <time>2018-04-12T06:56:14Z</time>
      </trkpt>
      <trkpt lat="45.08271" lon="4.38456">
        <ele>1200</ele>
        <time>2018-04-12T06:57:14Z</time>
      </trkpt>
      <trkpt lat="45.08248" lon="4.38462">
        <ele>1201</ele>
        <time>2018-04-12T06:58:14Z</time>
      </trkpt>
      <trkpt lat="45.08226" lon="4.38466">
        <ele>1201</ele>
        <time>2018-04-12T06:59:14Z</time>
      </trkpt>
      <trkpt lat="45.08202" lon="4.38467">
        <ele>1201</ele>
        <time>2018-04-12T07:00:14Z</time>
      </trkpt>
      <trkpt lat="45.08194" lon="4.38467">
        <ele>1201</ele>
        <time>2018-04-12T07:01:14Z</time>
      </trkpt>
      <trkpt lat="45.08167" lon="4.38469">
        <ele>1201</ele>
        <time>2018-04-12T07:02:14Z</time>
      </trkpt>
      <trkpt lat="45.08145" lon="4.38471">
        <ele>1202</ele>
        <time>2018-04-12T07:03:14Z</time>
      </trkpt>
      <trkpt lat="45.08115" lon="4.38475">
        <ele>1202</ele>
        <time>2018-04-12T07:04:14Z</time>
      </trkpt>
      <trkpt lat="45.08078" lon="4.3848">
        <ele>1202</ele>
        <time>2018-04-12T07:05:14Z</time>
      </trkpt>
      <trkpt lat="45.08061" lon="4.38481">
        <ele>1203</ele>
        <time>2018-04-12T07:06:14Z</time>
      </trkpt>
      <trkpt lat="45.08061" lon="4.38481">
        <ele>1203</ele>
        <time>2018-04-12T07:07:14Z</time>
      </trkpt>
      <trkpt lat="45.0806" lon="4.38489">
        <ele>1203</ele>
        <time>2018-04-12T07:08:14Z</time>
      </trkpt>
      <trkpt lat="45.08059" lon="4.38501">
        <ele>1200</ele>
        <time>2018-04-12T07:09:14Z</time>
      </trkpt>
      <trkpt lat="45.08058" lon="4.38508">
        <ele>1200</ele>
        <time>2018-04-12T07:10:14Z</time>
      </trkpt>
      <trkpt lat="45.08058" lon="4.38508">
        <ele>1200</ele>
        <time>2018-04-12T07:11:14Z</time>
      </trkpt>
      <trkpt lat="45.08038" lon="4.38514">
        <ele>1201</ele>
        <time>2018-04-12T07:12:14Z</time>
      </trkpt>
      <trkpt lat="45.08036" lon="4.38515">
        <ele>1201</ele>
        <time>2018-04-12T07:13:14Z</time>
      </trkpt>
      <trkpt lat="45.08029" lon="4.38518">
        <ele>1201</ele>
        <time>2018-04-12T07:14:14Z</time>
      </trkpt>
      <trkpt lat="45.08018" lon="4.38523">
        <ele>1201</ele>
        <time>2018-04-12T07:15:14Z</time>
      </trkpt>
      <trkpt lat="45.08006" lon="4.38531">
        <ele>1201</ele>
        <time>2018-04-12T07:16:14Z</time>
      </trkpt>
      <trkpt lat="45.07987" lon="4.38544">
        <ele>1201</ele>
        <time>2018-04-12T07:17:14Z</time>
      </trkpt>
      <trkpt lat="45.07975" lon="4.38555">
        <ele>1201</ele>
        <time>2018-04-12T07:18:14Z</time>
      </trkpt>
      <trkpt lat="45.0794" lon="4.38585">
        <ele>1200</ele>
        <time>2018-04-12T07:19:14Z</time>
      </trkpt>
      <trkpt lat="45.07911" lon="4.3861">
        <ele>1197</ele>
        <time>2018-04-12T07:20:14Z</time>
      </trkpt>
      <trkpt lat="45.07892" lon="4.38625">
        <ele>1196</ele>
        <time>2018-04-12T07:21:14Z</time>
      </trkpt>
      <trkpt lat="45.07882" lon="4.38633">
        <ele>1196</ele>
        <time>2018-04-12T07:22:14Z</time>
      </trkpt>
      <trkpt lat="45.07866" lon="4.38645">
        <ele>1195</ele>
        <time>2018-04-12T07:23:14Z</time>
      </trkpt>
      <trkpt lat="45.07842" lon="4.38663">
        <ele>1194</ele>
        <time>2018-04-12T07:24:14Z</time>
      </trkpt>
      <trkpt lat="45.07823" lon="4.38677">
        <ele>1195</ele>
        <time>2018-04-12T07:25:14Z</time>
      </trkpt>
      <trkpt lat="45.07796" lon="4.38692">
        <ele>1195</ele>
        <time>2018-04-12T07:26:14Z</time>
      </trkpt>
      <trkpt lat="45.07773" lon="4.38704">
        <ele>1195</ele>
        <time>2018-04-12T07:27:14Z</time>
      </trkpt>
      <trkpt lat="45.07751" lon="4.38712">
        <ele>1195</ele>
        <time>2018-04-12T07:28:14Z</time>
      </trkpt>
      <trkpt lat="45.07741" lon="4.38715">
        <ele>1192</ele>
        <time>2018-04-12T07:29:14Z</time>
      </trkpt>
      <trkpt lat="45.07723" lon="4.38718">
        <ele>1192</ele>
        <time>2018-04-12T07:30:14Z</time>
      </trkpt>
      <trkpt lat="45.07723" lon="4.38718">
        <ele>1192</ele>
        <time>2018-04-12T07:31:14Z</time>
      </trkpt>
      <trkpt lat="45.07705" lon="4.38743">
        <ele>1193</ele>
        <time>2018-04-12T07:32:14Z</time>
      </trkpt>
      <trkpt lat="45.07701" lon="4.38747">
        <ele>1192</ele>
        <time>2018-04-12T07:33:14Z</time>
      </trkpt>
      <trkpt lat="45.07693" lon="4.38751">
        <ele>1198</ele>
        <time>2018-04-12T07:34:14Z</time>
      </trkpt>
      <trkpt lat="45.07644" lon="4.38773">
        <ele>1195</ele>
        <time>2018-04-12T07:35:14Z</time>
      </trkpt>
      <trkpt lat="45.07531" lon="4.38818">
        <ele>1193</ele>
        <time>2018-04-12T07:36:14Z</time>
      </trkpt>
      <trkpt lat="45.07497" lon="4.38835">
        <ele>1193</ele>
        <time>2018-04-12T07:37:14Z</time>
      </trkpt>
      <trkpt lat="45.07428" lon="4.38865">
        <ele>1190</ele>
        <time>2018-04-12T07:38:14Z</time>
      </trkpt>
      <trkpt lat="45.07408" lon="4.38874">
        <ele>1187</ele>
        <time>2018-04-12T07:39:14Z</time>
      </trkpt>
      <trkpt lat="45.07371" lon="4.38892">
        <ele>1186</ele>
        <time>2018-04-12T07:40:14Z</time>
      </trkpt>
      <trkpt lat="45.07256" lon="4.38946">
        <ele>1184</ele>
        <time>2018-04-12T07:41:14Z</time>
      </trkpt>
      <trkpt lat="45.07218" lon="4.38958">
        <ele>1182</ele>
        <time>2018-04-12T07:42:14Z</time>
      </trkpt>
      <trkpt lat="45.07171" lon="4.38984">
        <ele>1181</ele>
        <time>2018-04-12T07:43:14Z</time>
      </trkpt>
      <trkpt lat="45.07132" lon="4.39001">
        <ele>1177</ele>
        <time>2018-04-12T07:44:14Z</time>
      </trkpt>
      <trkpt lat="45.07132" lon="4.39001">
        <ele>1177</ele>
        <time>2018-04-12T07:45:14Z</time>
      </trkpt>
      <trkpt lat="45.07105" lon="4.39015">
        <ele>1176</ele>
        <time>2018-04-12T07:46:14Z</time>
      </trkpt>
      <trkpt lat="45.07087" lon="4.39023">
        <ele>1176</ele>
        <time>2018-04-12T07:47:14Z</time>
      </trkpt>
      <trkpt lat="45.07078" lon="4.39026">
        <ele>1176</ele>
        <time>2018-04-12T07:48:14Z</time>
      </trkpt>
      <trkpt lat="45.07069" lon="4.39028">
        <ele>1176</ele>
        <time>2018-04-12T07:49:14Z</time>
      </trkpt>
      <trkpt lat="45.07057" lon="4.3903">
        <ele>1176</ele>
        <time>2018-04-12T07:50:14Z</time>
      </trkpt>
      <trkpt lat="45.07045" lon="4.39034">
        <ele>1176</ele>
        <time>2018-04-12T07:51:14Z</time>
      </trkpt>
      <trkpt lat="45.07037" lon="4.39037">
        <ele>1176</ele>
        <time>2018-04-12T07:52:14Z</time>
      </trkpt>
      <trkpt lat="45.07027" lon="4.39038">
        <ele>1176</ele>
        <time>2018-04-12T07:53:14Z</time>
      </trkpt>
      <trkpt lat="45.07019" lon="4.39038">
        <ele>1176</ele>
        <time>2018-04-12T07:54:14Z</time>
      </trkpt>
      <trkpt lat="45.07004" lon="4.39037">
        <ele>1175</ele>
        <time>2018-04-12T07:55:14Z</time>
      </trkpt>
      <trkpt lat="45.06988" lon="4.39036">
        <ele>1175</ele>
        <time>2018-04-12T07:56:14Z</time>
      </trkpt>
      <trkpt lat="45.0697" lon="4.39035">
        <ele>1175</ele>
        <time>2018-04-12T07:57:14Z</time>
      </trkpt>
      <trkpt lat="45.06953" lon="4.39032">
        <ele>1175</ele>
        <time>2018-04-12T07:58:14Z</time>
      </trkpt>
      <trkpt lat="45.06881" lon="4.39017">
        <ele>1172</ele>
        <time>2018-04-12T07:59:14Z</time>
      </trkpt>
      <trkpt lat="45.06855" lon="4.39012">
        <ele>1170</ele>
        <time>2018-04-12T08:00:14Z</time>
      </trkpt>
      <trkpt lat="45.06834" lon="4.39008">
        <ele>1169</ele>
        <time>2018-04-12T08:01:14Z</time>
      </trkpt>
      <trkpt lat="45.06814" lon="4.39004">
        <ele>1167</ele>
        <time>2018-04-12T08:02:14Z</time>
      </trkpt>
      <trkpt lat="45.06794" lon="4.39">
        <ele>1162</ele>
        <time>2018-04-12T08:03:14Z</time>
      </trkpt>
      <trkpt lat="45.06794" lon="4.39">
        <ele>1162</ele>
        <time>2018-04-12T08:04:14Z</time>
      </trkpt>
      <trkpt lat="45.068" lon="4.38971">
        <ele>1161</ele>
        <time>2018-04-12T08:05:14Z</time>
      </trkpt>
      <trkpt lat="45.06804" lon="4.38953">
        <ele>1161</ele>
        <time>2018-04-12T08:06:14Z</time>
      </trkpt>
      <trkpt lat="45.06811" lon="4.38937">
        <ele>1160</ele>
        <time>2018-04-12T08:07:14Z</time>
      </trkpt>
      <trkpt lat="45.06814" lon="4.38925">
        <ele>1160</ele>
        <time>2018-04-12T08:08:14Z</time>
      </trkpt>
      <trkpt lat="45.06816" lon="4.3891">
        <ele>1156</ele>
        <time>2018-04-12T08:09:14Z</time>
      </trkpt>
      <trkpt lat="45.06815" lon="4.38901">
        <ele>1156</ele>
        <time>2018-04-12T08:10:14Z</time>
      </trkpt>
      <trkpt lat="45.06813" lon="4.38885">
        <ele>1155</ele>
        <time>2018-04-12T08:11:14Z</time>
      </trkpt>
      <trkpt lat="45.0681" lon="4.38878">
        <ele>1154</ele>
        <time>2018-04-12T08:12:14Z</time>
      </trkpt>
      <trkpt lat="45.06805" lon="4.38872">
        <ele>1154</ele>
        <time>2018-04-12T08:13:14Z</time>
      </trkpt>
      <trkpt lat="45.06795" lon="4.38865">
        <ele>1153</ele>
        <time>2018-04-12T08:14:14Z</time>
      </trkpt>
      <trkpt lat="45.06795" lon="4.38865">
        <ele>1153</ele>
        <time>2018-04-12T08:15:14Z</time>
      </trkpt>
      <trkpt lat="45.06794" lon="4.38854">
        <ele>1152</ele>
        <time>2018-04-12T08:16:14Z</time>
      </trkpt>
      <trkpt lat="45.06796" lon="4.38834">
        <ele>1152</ele>
        <time>2018-04-12T08:17:14Z</time>
      </trkpt>
      <trkpt lat="45.06797" lon="4.38812">
        <ele>1148</ele>
        <time>2018-04-12T08:18:14Z</time>
      </trkpt>
      <trkpt lat="45.06799" lon="4.38801">
        <ele>1147</ele>
        <time>2018-04-12T08:19:14Z</time>
      </trkpt>
      <trkpt lat="45.06804" lon="4.38797">
        <ele>1147</ele>
        <time>2018-04-12T08:20:14Z</time>
      </trkpt>
      <trkpt lat="45.06806" lon="4.38795">
        <ele>1147</ele>
        <time>2018-04-12T08:21:14Z</time>
      </trkpt>
      <trkpt lat="45.06807" lon="4.38793">
        <ele>1147</ele>
        <time>2018-04-12T08:22:14Z</time>
      </trkpt>
      <trkpt lat="45.06809" lon="4.38785">
        <ele>1147</ele>
        <time>2018-04-12T08:23:14Z</time>
      </trkpt>
      <trkpt lat="45.06809" lon="4.38785">
        <ele>1147</ele>
        <time>2018-04-12T08:24:14Z</time>
      </trkpt>
      <trkpt lat="45.06808" lon="4.38778">
        <ele>1147</ele>
        <time>2018-04-12T08:25:14Z</time>
      </trkpt>
      <trkpt lat="45.06804" lon="4.3876">
        <ele>1146</ele>
        <time>2018-04-12T08:26:14Z</time>
      </trkpt>
      <trkpt lat="45.06801" lon="4.38746">
        <ele>1142</ele>
        <time>2018-04-12T08:27:14Z</time>
      </trkpt>
      <trkpt lat="45.06801" lon="4.38746">
        <ele>1142</ele>
        <time>2018-04-12T08:28:14Z</time>
      </trkpt>
      <trkpt lat="45.06796" lon="4.38747">
        <ele>1142</ele>
        <time>2018-04-12T08:29:14Z</time>
      </trkpt>
      <trkpt lat="45.06791" lon="4.38747">
        <ele>1142</ele>
        <time>2018-04-12T08:30:14Z</time>
      </trkpt>
      <trkpt lat="45.06779" lon="4.38747">
        <ele>1142</ele>
        <time>2018-04-12T08:31:14Z</time>
      </trkpt>
      <trkpt lat="45.06768" lon="4.38747">
        <ele>1142</ele>
        <time>2018-04-12T08:32:14Z</time>
      </trkpt>
      <trkpt lat="45.06756" lon="4.38746">
        <ele>1142</ele>
        <time>2018-04-12T08:33:14Z</time>
      </trkpt>
      <trkpt lat="45.06752" lon="4.38746">
        <ele>1142</ele>
        <time>2018-04-12T08:34:14Z</time>
      </trkpt>
      <trkpt lat="45.06752" lon="4.38746">
        <ele>1142</ele>
        <time>2018-04-12T08:35:14Z</time>
      </trkpt>
      <trkpt lat="45.06748" lon="4.38754">
        <ele>1142</ele>
        <time>2018-04-12T08:36:14Z</time>
      </trkpt>
      <trkpt lat="45.06748" lon="4.38754">
        <ele>1142</ele>
        <time>2018-04-12T08:37:14Z</time>
      </trkpt>
      <trkpt lat="45.06738" lon="4.38753">
        <ele>1142</ele>
        <time>2018-04-12T08:38:14Z</time>
      </trkpt>
      <trkpt lat="45.0672" lon="4.38752">
        <ele>1141</ele>
        <time>2018-04-12T08:39:14Z</time>
      </trkpt>
      <trkpt lat="45.06699" lon="4.3875">
        <ele>1139</ele>
        <time>2018-04-12T08:40:14Z</time>
      </trkpt>
      <trkpt lat="45.06666" lon="4.38748">
        <ele>1135</ele>
        <time>2018-04-12T08:41:14Z</time>
      </trkpt>
      <trkpt lat="45.06652" lon="4.38744">
        <ele>1133</ele>
        <time>2018-04-12T08:42:14Z</time>
      </trkpt>
      <trkpt lat="45.06603" lon="4.38732">
        <ele>1130</ele>
        <time>2018-04-12T08:43:14Z</time>
      </trkpt>
      <trkpt lat="45.06559" lon="4.38724">
        <ele>1129</ele>
        <time>2018-04-12T08:44:14Z</time>
      </trkpt>
      <trkpt lat="45.06538" lon="4.38716">
        <ele>1128</ele>
        <time>2018-04-12T08:45:14Z</time>
      </trkpt>
      <trkpt lat="45.06514" lon="4.38709">
        <ele>1128</ele>
        <time>2018-04-12T08:46:14Z</time>
      </trkpt>
      <trkpt lat="45.06492" lon="4.38702">
        <ele>1129</ele>
        <time>2018-04-12T08:47:14Z</time>
      </trkpt>
      <trkpt lat="45.06479" lon="4.38695">
        <ele>1129</ele>
        <time>2018-04-12T08:48:14Z</time>
      </trkpt>
      <trkpt lat="45.06471" lon="4.38693">
        <ele>1129</ele>
        <time>2018-04-12T08:49:14Z</time>
      </trkpt>
      <trkpt lat="45.06466" lon="4.38692">
        <ele>1129</ele>
        <time>2018-04-12T08:50:14Z</time>
      </trkpt>
      <trkpt lat="45.06464" lon="4.38692">
        <ele>1129</ele>
        <time>2018-04-12T08:51:14Z</time>
      </trkpt>
      <trkpt lat="45.06462" lon="4.38693">
        <ele>1129</ele>
        <time>2018-04-12T08:52:14Z</time>
      </trkpt>
      <trkpt lat="45.06452" lon="4.387">
        <ele>1130</ele>
        <time>2018-04-12T08:53:14Z</time>
      </trkpt>
      <trkpt lat="45.06452" lon="4.387">
        <ele>1130</ele>
        <time>2018-04-12T08:54:14Z</time>
      </trkpt>
      <trkpt lat="45.06444" lon="4.38695">
        <ele>1130</ele>
        <time>2018-04-12T08:55:14Z</time>
      </trkpt>
      <trkpt lat="45.06444" lon="4.38695">
        <ele>1130</ele>
        <time>2018-04-12T08:56:14Z</time>
      </trkpt>
      <trkpt lat="45.06437" lon="4.38682">
        <ele>1130</ele>
        <time>2018-04-12T08:57:14Z</time>
      </trkpt>
      <trkpt lat="45.06432" lon="4.38674">
        <ele>1130</ele>
        <time>2018-04-12T08:58:14Z</time>
      </trkpt>
      <trkpt lat="45.06416" lon="4.3865">
        <ele>1130</ele>
        <time>2018-04-12T08:59:14Z</time>
      </trkpt>
      <trkpt lat="45.064" lon="4.38626">
        <ele>1130</ele>
        <time>2018-04-12T09:00:14Z</time>
      </trkpt>
      <trkpt lat="45.06379" lon="4.38593">
        <ele>1130</ele>
        <time>2018-04-12T09:01:14Z</time>
      </trkpt>
      <trkpt lat="45.06362" lon="4.38564">
        <ele>1129</ele>
        <time>2018-04-12T09:02:14Z</time>
      </trkpt>
      <trkpt lat="45.06349" lon="4.38545">
        <ele>1128</ele>
        <time>2018-04-12T09:03:14Z</time>
      </trkpt>
      <trkpt lat="45.06338" lon="4.38527">
        <ele>1128</ele>
        <time>2018-04-12T09:04:14Z</time>
      </trkpt>
      <trkpt lat="45.06331" lon="4.38512">
        <ele>1129</ele>
        <time>2018-04-12T09:05:14Z</time>
      </trkpt>
      <trkpt lat="45.06325" lon="4.38496">
        <ele>1127</ele>
        <time>2018-04-12T09:06:14Z</time>
      </trkpt>
      <trkpt lat="45.06317" lon="4.38479">
        <ele>1126</ele>
        <time>2018-04-12T09:07:14Z</time>
      </trkpt>
      <trkpt lat="45.06314" lon="4.38461">
        <ele>1125</ele>
        <time>2018-04-12T09:08:14Z</time>
      </trkpt>
      <trkpt lat="45.0631" lon="4.38441">
        <ele>1124</ele>
        <time>2018-04-12T09:09:14Z</time>
      </trkpt>
      <trkpt lat="45.06304" lon="4.38425">
        <ele>1124</ele>
        <time>2018-04-12T09:10:14Z</time>
      </trkpt>
      <trkpt lat="45.06297" lon="4.38412">
        <ele>1121</ele>
        <time>2018-04-12T09:11:14Z</time>
      </trkpt>
      <trkpt lat="45.06281" lon="4.38384">
        <ele>1121</ele>
        <time>2018-04-12T09:12:14Z</time>
      </trkpt>
      <trkpt lat="45.06267" lon="4.3836">
        <ele>1121</ele>
        <time>2018-04-12T09:13:14Z</time>
      </trkpt>
      <trkpt lat="45.06233" lon="4.38295">
        <ele>1119</ele>
        <time>2018-04-12T09:14:14Z</time>
      </trkpt>
      <trkpt lat="45.06216" lon="4.38266">
        <ele>1119</ele>
        <time>2018-04-12T09:15:14Z</time>
      </trkpt>
      <trkpt lat="45.062" lon="4.38239">
        <ele>1114</ele>
        <time>2018-04-12T09:16:14Z</time>
      </trkpt>
      <trkpt lat="45.06164" lon="4.3818">
        <ele>1116</ele>
        <time>2018-04-12T09:17:14Z</time>
      </trkpt>
      <trkpt lat="45.06125" lon="4.38092">
        <ele>1114</ele>
        <time>2018-04-12T09:18:14Z</time>
      </trkpt>
      <trkpt lat="45.06106" lon="4.3805">
        <ele>1112</ele>
        <time>2018-04-12T09:19:14Z</time>
      </trkpt>
      <trkpt lat="45.06083" lon="4.38002">
        <ele>1114</ele>
        <time>2018-04-12T09:20:14Z</time>
      </trkpt>
      <trkpt lat="45.06065" lon="4.3797">
        <ele>1113</ele>
        <time>2018-04-12T09:21:14Z</time>
      </trkpt>
      <trkpt lat="45.06042" lon="4.37913">
        <ele>1111</ele>
        <time>2018-04-12T09:22:14Z</time>
      </trkpt>
      <trkpt lat="45.06027" lon="4.37865">
        <ele>1110</ele>
        <time>2018-04-12T09:23:14Z</time>
      </trkpt>
      <trkpt lat="45.06015" lon="4.37827">
        <ele>1108</ele>
        <time>2018-04-12T09:24:14Z</time>
      </trkpt>
      <trkpt lat="45.06008" lon="4.37803">
        <ele>1106</ele>
        <time>2018-04-12T09:25:14Z</time>
      </trkpt>
      <trkpt lat="45.06008" lon="4.37803">
        <ele>1106</ele>
        <time>2018-04-12T09:26:14Z</time>
      </trkpt>
      <trkpt lat="45.05998" lon="4.37814">
        <ele>1108</ele>
        <time>2018-04-12T09:27:14Z</time>
      </trkpt>
      <trkpt lat="45.05993" lon="4.3782">
        <ele>1109</ele>
        <time>2018-04-12T09:28:14Z</time>
      </trkpt>
      <trkpt lat="45.05987" lon="4.37826">
        <ele>1109</ele>
        <time>2018-04-12T09:29:14Z</time>
      </trkpt>
      <trkpt lat="45.05981" lon="4.3783">
        <ele>1108</ele>
        <time>2018-04-12T09:30:14Z</time>
      </trkpt>
      <trkpt lat="45.05943" lon="4.37836">
        <ele>1110</ele>
        <time>2018-04-12T09:31:14Z</time>
      </trkpt>
      <trkpt lat="45.05923" lon="4.37838">
        <ele>1109</ele>
        <time>2018-04-12T09:32:14Z</time>
      </trkpt>
      <trkpt lat="45.05903" lon="4.37842">
        <ele>1109</ele>
        <time>2018-04-12T09:33:14Z</time>
      </trkpt>
      <trkpt lat="45.05882" lon="4.37843">
        <ele>1110</ele>
        <time>2018-04-12T09:34:14Z</time>
      </trkpt>
      <trkpt lat="45.05869" lon="4.37844">
        <ele>1110</ele>
        <time>2018-04-12T09:35:14Z</time>
      </trkpt>
      <trkpt lat="45.05857" lon="4.37845">
        <ele>1111</ele>
        <time>2018-04-12T09:36:14Z</time>
      </trkpt>
      <trkpt lat="45.05848" lon="4.37847">
        <ele>1111</ele>
        <time>2018-04-12T09:37:14Z</time>
      </trkpt>
      <trkpt lat="45.05837" lon="4.37853">
        <ele>1111</ele>
        <time>2018-04-12T09:38:14Z</time>
      </trkpt>
      <trkpt lat="45.05817" lon="4.37864">
        <ele>1112</ele>
        <time>2018-04-12T09:39:14Z</time>
      </trkpt>
      <trkpt lat="45.05805" lon="4.37868">
        <ele>1112</ele>
        <time>2018-04-12T09:40:14Z</time>
      </trkpt>
      <trkpt lat="45.05779" lon="4.37882">
        <ele>1112</ele>
        <time>2018-04-12T09:41:14Z</time>
      </trkpt>
      <trkpt lat="45.05754" lon="4.37893">
        <ele>1112</ele>
        <time>2018-04-12T09:42:14Z</time>
      </trkpt>
      <trkpt lat="45.05738" lon="4.37905">
        <ele>1111</ele>
        <time>2018-04-12T09:43:14Z</time>
      </trkpt>
      <trkpt lat="45.05714" lon="4.37918">
        <ele>1108</ele>
        <time>2018-04-12T09:44:14Z</time>
      </trkpt>
      <trkpt lat="45.05705" lon="4.37924">
        <ele>1107</ele>
        <time>2018-04-12T09:45:14Z</time>
      </trkpt>
      <trkpt lat="45.05703" lon="4.37926">
        <ele>1107</ele>
        <time>2018-04-12T09:46:14Z</time>
      </trkpt>
      <trkpt lat="45.05701" lon="4.3793">
        <ele>1107</ele>
        <time>2018-04-12T09:47:14Z</time>
      </trkpt>
      <trkpt lat="45.05699" lon="4.37934">
        <ele>1107</ele>
        <time>2018-04-12T09:48:14Z</time>
      </trkpt>
      <trkpt lat="45.05699" lon="4.37943">
        <ele>1107</ele>
        <time>2018-04-12T09:49:14Z</time>
      </trkpt>
      <trkpt lat="45.05699" lon="4.37943">
        <ele>1107</ele>
        <time>2018-04-12T09:50:14Z</time>
      </trkpt>
      <trkpt lat="45.05696" lon="4.37941">
        <ele>1107</ele>
        <time>2018-04-12T09:51:14Z</time>
      </trkpt>
      <trkpt lat="45.05685" lon="4.37932">
        <ele>1107</ele>
        <time>2018-04-12T09:52:14Z</time>
      </trkpt>
      <trkpt lat="45.05654" lon="4.37904">
        <ele>1105</ele>
        <time>2018-04-12T09:53:14Z</time>
      </trkpt>
      <trkpt lat="45.05638" lon="4.37888">
        <ele>1103</ele>
        <time>2018-04-12T09:54:14Z</time>
      </trkpt>
      <trkpt lat="45.05625" lon="4.37874">
        <ele>1102</ele>
        <time>2018-04-12T09:55:14Z</time>
      </trkpt>
      <trkpt lat="45.05614" lon="4.37859">
        <ele>1102</ele>
        <time>2018-04-12T09:56:14Z</time>
      </trkpt>
      <trkpt lat="45.056" lon="4.37841">
        <ele>1101</ele>
        <time>2018-04-12T09:57:14Z</time>
      </trkpt>
      <trkpt lat="45.05588" lon="4.37827">
        <ele>1101</ele>
        <time>2018-04-12T09:58:14Z</time>
      </trkpt>
      <trkpt lat="45.05574" lon="4.37813">
        <ele>1100</ele>
        <time>2018-04-12T09:59:14Z</time>
      </trkpt>
      <trkpt lat="45.05556" lon="4.37798">
        <ele>1101</ele>
        <time>2018-04-12T10:00:14Z</time>
      </trkpt>
      <trkpt lat="45.05538" lon="4.37781">
        <ele>1101</ele>
        <time>2018-04-12T10:01:14Z</time>
      </trkpt>
      <trkpt lat="45.05518" lon="4.37768">
        <ele>1100</ele>
        <time>2018-04-12T10:02:14Z</time>
      </trkpt>
      <trkpt lat="45.05493" lon="4.37759">
        <ele>1098</ele>
        <time>2018-04-12T10:03:14Z</time>
      </trkpt>
      <trkpt lat="45.05493" lon="4.37759">
        <ele>1098</ele>
        <time>2018-04-12T10:04:14Z</time>
      </trkpt>
      <trkpt lat="45.05491" lon="4.37762">
        <ele>1098</ele>
        <time>2018-04-12T10:05:14Z</time>
      </trkpt>
      <trkpt lat="45.05484" lon="4.37766">
        <ele>1098</ele>
        <time>2018-04-12T10:06:14Z</time>
      </trkpt>
      <trkpt lat="45.05484" lon="4.37766">
        <ele>1098</ele>
        <time>2018-04-12T10:07:14Z</time>
      </trkpt>
      <trkpt lat="45.05456" lon="4.37784">
        <ele>1097</ele>
        <time>2018-04-12T10:08:14Z</time>
      </trkpt>
      <trkpt lat="45.05416" lon="4.37806">
        <ele>1097</ele>
        <time>2018-04-12T10:09:14Z</time>
      </trkpt>
      <trkpt lat="45.05364" lon="4.37839">
        <ele>1096</ele>
        <time>2018-04-12T10:10:14Z</time>
      </trkpt>
      <trkpt lat="45.05324" lon="4.37865">
        <ele>1098</ele>
        <time>2018-04-12T10:11:14Z</time>
      </trkpt>
      <trkpt lat="45.05287" lon="4.37887">
        <ele>1098</ele>
        <time>2018-04-12T10:12:14Z</time>
      </trkpt>
      <trkpt lat="45.05287" lon="4.37887">
        <ele>1098</ele>
        <time>2018-04-12T10:13:14Z</time>
      </trkpt>
      <trkpt lat="45.05282" lon="4.37897">
        <ele>1098</ele>
        <time>2018-04-12T10:14:14Z</time>
      </trkpt>
      <trkpt lat="45.05272" lon="4.37914">
        <ele>1098</ele>
        <time>2018-04-12T10:15:14Z</time>
      </trkpt>
      <trkpt lat="45.05256" lon="4.37942">
        <ele>1096</ele>
        <time>2018-04-12T10:16:14Z</time>
      </trkpt>
      <trkpt lat="45.05245" lon="4.37956">
        <ele>1102</ele>
        <time>2018-04-12T10:17:14Z</time>
      </trkpt>
      <trkpt lat="45.0524" lon="4.37963">
        <ele>1102</ele>
        <time>2018-04-12T10:18:14Z</time>
      </trkpt>
      <trkpt lat="45.05237" lon="4.37969">
        <ele>1102</ele>
        <time>2018-04-12T10:19:14Z</time>
      </trkpt>
      <trkpt lat="45.05235" lon="4.37977">
        <ele>1101</ele>
        <time>2018-04-12T10:20:14Z</time>
      </trkpt>
      <trkpt lat="45.05233" lon="4.37988">
        <ele>1101</ele>
        <time>2018-04-12T10:21:14Z</time>
      </trkpt>
      <trkpt lat="45.05231" lon="4.37997">
        <ele>1101</ele>
        <time>2018-04-12T10:22:14Z</time>
      </trkpt>
      <trkpt lat="45.05229" lon="4.38006">
        <ele>1100</ele>
        <time>2018-04-12T10:23:14Z</time>
      </trkpt>
      <trkpt lat="45.05226" lon="4.38016">
        <ele>1101</ele>
        <time>2018-04-12T10:24:14Z</time>
      </trkpt>
      <trkpt lat="45.05214" lon="4.38044">
        <ele>1101</ele>
        <time>2018-04-12T10:25:14Z</time>
      </trkpt>
      <trkpt lat="45.05192" lon="4.38075">
        <ele>1103</ele>
        <time>2018-04-12T10:26:14Z</time>
      </trkpt>
      <trkpt lat="45.05168" lon="4.38101">
        <ele>1103</ele>
        <time>2018-04-12T10:27:14Z</time>
      </trkpt>
      <trkpt lat="45.05145" lon="4.38123">
        <ele>1105</ele>
        <time>2018-04-12T10:28:14Z</time>
      </trkpt>
      <trkpt lat="45.05123" lon="4.38141">
        <ele>1104</ele>
        <time>2018-04-12T10:29:14Z</time>
      </trkpt>
      <trkpt lat="45.05102" lon="4.38156">
        <ele>1105</ele>
        <time>2018-04-12T10:30:14Z</time>
      </trkpt>
      <trkpt lat="45.05093" lon="4.38162">
        <ele>1105</ele>
        <time>2018-04-12T10:31:14Z</time>
      </trkpt>
      <trkpt lat="45.05081" lon="4.38169">
        <ele>1104</ele>
        <time>2018-04-12T10:32:14Z</time>
      </trkpt>
      <trkpt lat="45.05056" lon="4.38183">
        <ele>1099</ele>
        <time>2018-04-12T10:33:14Z</time>
      </trkpt>
      <trkpt lat="45.05038" lon="4.38199">
        <ele>1098</ele>
        <time>2018-04-12T10:34:14Z</time>
      </trkpt>
      <trkpt lat="45.05028" lon="4.382">
        <ele>1098</ele>
        <time>2018-04-12T10:35:14Z</time>
      </trkpt>
      <trkpt lat="45.05028" lon="4.382">
        <ele>1098</ele>
        <time>2018-04-12T10:36:14Z</time>
      </trkpt>
      <trkpt lat="45.0502" lon="4.38202">
        <ele>1098</ele>
        <time>2018-04-12T10:37:14Z</time>
      </trkpt>
      <trkpt lat="45.05011" lon="4.38207">
        <ele>1097</ele>
        <time>2018-04-12T10:38:14Z</time>
      </trkpt>
      <trkpt lat="45.05002" lon="4.38213">
        <ele>1097</ele>
        <time>2018-04-12T10:39:14Z</time>
      </trkpt>
      <trkpt lat="45.04994" lon="4.38222">
        <ele>1098</ele>
        <time>2018-04-12T10:40:14Z</time>
      </trkpt>
      <trkpt lat="45.04978" lon="4.38245">
        <ele>1097</ele>
        <time>2018-04-12T10:41:14Z</time>
      </trkpt>
      <trkpt lat="45.04971" lon="4.38257">
        <ele>1094</ele>
        <time>2018-04-12T10:42:14Z</time>
      </trkpt>
      <trkpt lat="45.04963" lon="4.38267">
        <ele>1094</ele>
        <time>2018-04-12T10:43:14Z</time>
      </trkpt>
      <trkpt lat="45.04963" lon="4.38276">
        <ele>1094</ele>
        <time>2018-04-12T10:44:14Z</time>
      </trkpt>
      <trkpt lat="45.04962" lon="4.38285">
        <ele>1093</ele>
        <time>2018-04-12T10:45:14Z</time>
      </trkpt>
      <trkpt lat="45.04959" lon="4.38296">
        <ele>1093</ele>
        <time>2018-04-12T10:46:14Z</time>
      </trkpt>
      <trkpt lat="45.04952" lon="4.38318">
        <ele>1093</ele>
        <time>2018-04-12T10:47:14Z</time>
      </trkpt>
      <trkpt lat="45.04946" lon="4.38329">
        <ele>1092</ele>
        <time>2018-04-12T10:48:14Z</time>
      </trkpt>
      <trkpt lat="45.04944" lon="4.38332">
        <ele>1092</ele>
        <time>2018-04-12T10:49:14Z</time>
      </trkpt>
    </trkseg>
  </trk>
</gpx>